<?xml version="1.0" encoding="UTF-8" standalone="no" ?>
<gpx xmlns="http://www.topografix.com/GPX/1/1" xmlns:xsi="http://www.w3.org/2001/XMLSchema-instance" xsi:schemaLocation="http://www.topografix.com/GPX/1/1 http://www.topografix.com/GPX/1/1/gpx.xsd" version="1.1" creator="VisuGPX - https://www.visugpx.com">
  <metadata>
    <name>col des saulces montagne de la petite val</name>
    <desc><![CDATA[superbe randonnée depuis les prioux offrant un panorama magnifique sur la grande casse et les glaciers de la vanoise.]]></desc>
  </metadata>
  <trk>
    <name><![CDATA[Move]]></name>
    <trkseg>
      <trkpt lat="45.34702" lon="6.70143">
        <ele>1722.5999755859</ele>
        <time>2020-10-18T06:28:18.009Z</time>
      </trkpt>
      <trkpt lat="45.34707" lon="6.70146">
        <ele>1722.08390016</ele>
        <time>2020-10-18T06:28:27.009Z</time>
      </trkpt>
      <trkpt lat="45.34717" lon="6.70152">
        <ele>1722.78390016</ele>
        <time>2020-10-18T06:28:34.009Z</time>
      </trkpt>
      <trkpt lat="45.34727" lon="6.70156">
        <ele>1723.48390016</ele>
        <time>2020-10-18T06:28:41.009Z</time>
      </trkpt>
      <trkpt lat="45.34737" lon="6.70159">
        <ele>1724.08390016</ele>
        <time>2020-10-18T06:28:47.009Z</time>
      </trkpt>
      <trkpt lat="45.34746" lon="6.70168">
        <ele>1724.88390016</ele>
        <time>2020-10-18T06:28:55.009Z</time>
      </trkpt>
      <trkpt lat="45.34755" lon="6.70178">
        <ele>1724.41609984</ele>
        <time>2020-10-18T06:29:02.009Z</time>
      </trkpt>
      <trkpt lat="45.34762" lon="6.70187">
        <ele>1724</ele>
        <time>2020-10-18T06:29:15.009Z</time>
      </trkpt>
      <trkpt lat="45.34771" lon="6.70196">
        <ele>1723.31609984</ele>
        <time>2020-10-18T06:29:23.009Z</time>
      </trkpt>
      <trkpt lat="45.34778" lon="6.70205">
        <ele>1723</ele>
        <time>2020-10-18T06:29:28.009Z</time>
      </trkpt>
      <trkpt lat="45.34785" lon="6.70214">
        <ele>1723</ele>
        <time>2020-10-18T06:29:35.009Z</time>
      </trkpt>
      <trkpt lat="45.34792" lon="6.70223">
        <ele>1723.96780032</ele>
        <time>2020-10-18T06:29:41.009Z</time>
      </trkpt>
      <trkpt lat="45.348" lon="6.70233">
        <ele>1725.18390016</ele>
        <time>2020-10-18T06:29:48.009Z</time>
      </trkpt>
      <trkpt lat="45.34806" lon="6.70244">
        <ele>1725.88390016</ele>
        <time>2020-10-18T06:29:55.009Z</time>
      </trkpt>
      <trkpt lat="45.34816" lon="6.7025">
        <ele>1726</ele>
        <time>2020-10-18T06:30:02.009Z</time>
      </trkpt>
      <trkpt lat="45.34826" lon="6.70257">
        <ele>1726.18390016</ele>
        <time>2020-10-18T06:30:08.009Z</time>
      </trkpt>
      <trkpt lat="45.34834" lon="6.70261">
        <ele>1726.88390016</ele>
        <time>2020-10-18T06:30:15.009Z</time>
      </trkpt>
      <trkpt lat="45.34842" lon="6.70266">
        <ele>1726.5160515226</ele>
        <time>2020-10-18T06:30:21.009Z</time>
      </trkpt>
      <trkpt lat="45.34851" lon="6.70271">
        <ele>1726.0839916143</ele>
        <time>2020-10-18T06:30:27.009Z</time>
      </trkpt>
      <trkpt lat="45.34858" lon="6.70275">
        <ele>1726.5839416993</ele>
        <time>2020-10-18T06:30:32.009Z</time>
      </trkpt>
      <trkpt lat="45.34866" lon="6.70279">
        <ele>1727.36780032</ele>
        <time>2020-10-18T06:30:38.009Z</time>
      </trkpt>
      <trkpt lat="45.34874" lon="6.70281">
        <ele>1728.56780032</ele>
        <time>2020-10-18T06:30:44.009Z</time>
      </trkpt>
      <trkpt lat="45.34874" lon="6.7027">
        <ele>1729.78390016</ele>
        <time>2020-10-18T06:31:14.009Z</time>
      </trkpt>
      <trkpt lat="45.34871" lon="6.70257">
        <ele>1731</ele>
        <time>2020-10-18T06:31:44.009Z</time>
      </trkpt>
      <trkpt lat="45.34869" lon="6.70242">
        <ele>1732.16780032</ele>
        <time>2020-10-18T06:31:52.009Z</time>
      </trkpt>
      <trkpt lat="45.34867" lon="6.70228">
        <ele>1732.51609984</ele>
        <time>2020-10-18T06:32:01.009Z</time>
      </trkpt>
      <trkpt lat="45.34872" lon="6.70215">
        <ele>1732.76780032</ele>
        <time>2020-10-18T06:32:10.009Z</time>
      </trkpt>
      <trkpt lat="45.34879" lon="6.70208">
        <ele>1734.25170048</ele>
        <time>2020-10-18T06:32:17.009Z</time>
      </trkpt>
      <trkpt lat="45.34889" lon="6.70203">
        <ele>1736.95170048</ele>
        <time>2020-10-18T06:32:26.009Z</time>
      </trkpt>
      <trkpt lat="45.34899" lon="6.70201">
        <ele>1738.56780032</ele>
        <time>2020-10-18T06:32:34.009Z</time>
      </trkpt>
      <trkpt lat="45.34898" lon="6.70187">
        <ele>1739.78390016</ele>
        <time>2020-10-18T06:32:44.009Z</time>
      </trkpt>
      <trkpt lat="45.34892" lon="6.70175">
        <ele>1742.35170048</ele>
        <time>2020-10-18T06:32:54.009Z</time>
      </trkpt>
      <trkpt lat="45.34886" lon="6.70164">
        <ele>1744.76780032</ele>
        <time>2020-10-18T06:33:05.009Z</time>
      </trkpt>
      <trkpt lat="45.34895" lon="6.70158">
        <ele>1746.96780032</ele>
        <time>2020-10-18T06:33:16.009Z</time>
      </trkpt>
      <trkpt lat="45.34897" lon="6.70144">
        <ele>1749.55170048</ele>
        <time>2020-10-18T06:33:28.009Z</time>
      </trkpt>
      <trkpt lat="45.34894" lon="6.70129">
        <ele>1752.36780032</ele>
        <time>2020-10-18T06:33:38.009Z</time>
      </trkpt>
      <trkpt lat="45.34893" lon="6.70114">
        <ele>1754.08390016</ele>
        <time>2020-10-18T06:33:47.009Z</time>
      </trkpt>
      <trkpt lat="45.34896" lon="6.70105">
        <ele>1754.78390016</ele>
        <time>2020-10-18T06:33:54.009Z</time>
      </trkpt>
      <trkpt lat="45.34903" lon="6.70098">
        <ele>1757.95170048</ele>
        <time>2020-10-18T06:34:06.009Z</time>
      </trkpt>
      <trkpt lat="45.34903" lon="6.7009">
        <ele>1761.38390016</ele>
        <time>2020-10-18T06:34:40.009Z</time>
      </trkpt>
      <trkpt lat="45.34906" lon="6.70082">
        <ele>1762.16780032</ele>
        <time>2020-10-18T06:34:47.009Z</time>
      </trkpt>
      <trkpt lat="45.34903" lon="6.70074">
        <ele>1763.76780032</ele>
        <time>2020-10-18T06:34:55.009Z</time>
      </trkpt>
      <trkpt lat="45.34912" lon="6.70073">
        <ele>1763.01609984</ele>
        <time>2020-10-18T06:35:06.009Z</time>
      </trkpt>
      <trkpt lat="45.34919" lon="6.70078">
        <ele>1762.41609984</ele>
        <time>2020-10-18T06:35:12.009Z</time>
      </trkpt>
      <trkpt lat="45.34923" lon="6.70079">
        <ele>1762.11609984</ele>
        <time>2020-10-18T06:35:15.009Z</time>
      </trkpt>
      <trkpt lat="45.34926" lon="6.70081">
        <ele>1762</ele>
        <time>2020-10-18T06:35:17.009Z</time>
      </trkpt>
      <trkpt lat="45.3493" lon="6.70085">
        <ele>1762</ele>
        <time>2020-10-18T06:35:20.009Z</time>
      </trkpt>
      <trkpt lat="45.34932" lon="6.70076">
        <ele>1762.36780032</ele>
        <time>2020-10-18T06:35:28.009Z</time>
      </trkpt>
      <trkpt lat="45.34933" lon="6.70067">
        <ele>1763.76780032</ele>
        <time>2020-10-18T06:35:35.009Z</time>
      </trkpt>
      <trkpt lat="45.3493" lon="6.70058">
        <ele>1765.9195008</ele>
        <time>2020-10-18T06:35:40.009Z</time>
      </trkpt>
      <trkpt lat="45.34928" lon="6.7005">
        <ele>1768.4195008</ele>
        <time>2020-10-18T06:35:45.009Z</time>
      </trkpt>
      <trkpt lat="45.34925" lon="6.70042">
        <ele>1769</ele>
        <time>2020-10-18T06:35:51.009Z</time>
      </trkpt>
      <trkpt lat="45.34923" lon="6.70034">
        <ele>1769</ele>
        <time>2020-10-18T06:35:55.009Z</time>
      </trkpt>
      <trkpt lat="45.34925" lon="6.70024">
        <ele>1769</ele>
        <time>2020-10-18T06:36:02.009Z</time>
      </trkpt>
      <trkpt lat="45.34931" lon="6.70025">
        <ele>1769</ele>
        <time>2020-10-18T06:36:06.009Z</time>
      </trkpt>
      <trkpt lat="45.34938" lon="6.70028">
        <ele>1769</ele>
        <time>2020-10-18T06:36:11.009Z</time>
      </trkpt>
      <trkpt lat="45.34943" lon="6.70032">
        <ele>1769</ele>
        <time>2020-10-18T06:36:15.009Z</time>
      </trkpt>
      <trkpt lat="45.3495" lon="6.70038">
        <ele>1769.38390016</ele>
        <time>2020-10-18T06:36:20.009Z</time>
      </trkpt>
      <trkpt lat="45.34953" lon="6.7005">
        <ele>1770.25170048</ele>
        <time>2020-10-18T06:36:27.009Z</time>
      </trkpt>
      <trkpt lat="45.34955" lon="6.70061">
        <ele>1772.05170048</ele>
        <time>2020-10-18T06:36:33.009Z</time>
      </trkpt>
      <trkpt lat="45.3496" lon="6.70052">
        <ele>1773.7356740897</ele>
        <time>2020-10-18T06:36:48.009Z</time>
      </trkpt>
      <trkpt lat="45.34958" lon="6.70038">
        <ele>1777.1679832285</ele>
        <time>2020-10-18T06:36:57.009Z</time>
      </trkpt>
      <trkpt lat="45.34958" lon="6.70028">
        <ele>1780.16780032</ele>
        <time>2020-10-18T06:37:12.009Z</time>
      </trkpt>
      <trkpt lat="45.34953" lon="6.70015">
        <ele>1786</ele>
        <time>2020-10-18T06:38:19.009Z</time>
      </trkpt>
      <trkpt lat="45.34953" lon="6.70004">
        <ele>1786.36780032</ele>
        <time>2020-10-18T06:38:28.009Z</time>
      </trkpt>
      <trkpt lat="45.34951" lon="6.69995">
        <ele>1787.76780032</ele>
        <time>2020-10-18T06:38:35.009Z</time>
      </trkpt>
      <trkpt lat="45.34951" lon="6.69984">
        <ele>1789.16780032</ele>
        <time>2020-10-18T06:38:42.009Z</time>
      </trkpt>
      <trkpt lat="45.34948" lon="6.69974">
        <ele>1790.36780032</ele>
        <time>2020-10-18T06:38:48.009Z</time>
      </trkpt>
      <trkpt lat="45.34945" lon="6.69962">
        <ele>1791.56780032</ele>
        <time>2020-10-18T06:38:54.009Z</time>
      </trkpt>
      <trkpt lat="45.34944" lon="6.69954">
        <ele>1792.38390016</ele>
        <time>2020-10-18T06:39:00.009Z</time>
      </trkpt>
      <trkpt lat="45.34941" lon="6.69946">
        <ele>1792.88390016</ele>
        <time>2020-10-18T06:39:05.009Z</time>
      </trkpt>
      <trkpt lat="45.34937" lon="6.69938">
        <ele>1793</ele>
        <time>2020-10-18T06:39:10.009Z</time>
      </trkpt>
      <trkpt lat="45.34933" lon="6.6993">
        <ele>1793</ele>
        <time>2020-10-18T06:39:16.009Z</time>
      </trkpt>
      <trkpt lat="45.34932" lon="6.69921">
        <ele>1793.68390016</ele>
        <time>2020-10-18T06:39:23.009Z</time>
      </trkpt>
      <trkpt lat="45.3493" lon="6.69913">
        <ele>1794.96780032</ele>
        <time>2020-10-18T06:39:31.009Z</time>
      </trkpt>
      <trkpt lat="45.34927" lon="6.69908">
        <ele>1796.08390016</ele>
        <time>2020-10-18T06:39:37.009Z</time>
      </trkpt>
      <trkpt lat="45.34924" lon="6.69908">
        <ele>1796.78390016</ele>
        <time>2020-10-18T06:39:44.009Z</time>
      </trkpt>
      <trkpt lat="45.34922" lon="6.69912">
        <ele>1796.63219968</ele>
        <time>2020-10-18T06:39:48.009Z</time>
      </trkpt>
      <trkpt lat="45.34922" lon="6.69919">
        <ele>1795</ele>
        <time>2020-10-18T06:39:58.009Z</time>
      </trkpt>
      <trkpt lat="45.34922" lon="6.69924">
        <ele>1795</ele>
        <time>2020-10-18T06:40:01.009Z</time>
      </trkpt>
      <trkpt lat="45.34923" lon="6.69928">
        <ele>1795</ele>
        <time>2020-10-18T06:40:04.009Z</time>
      </trkpt>
      <trkpt lat="45.34923" lon="6.69932">
        <ele>1795.18390016</ele>
        <time>2020-10-18T06:40:08.009Z</time>
      </trkpt>
      <trkpt lat="45.34922" lon="6.69936">
        <ele>1795.48390016</ele>
        <time>2020-10-18T06:40:11.009Z</time>
      </trkpt>
      <trkpt lat="45.34918" lon="6.69947">
        <ele>1796.18390016</ele>
        <time>2020-10-18T06:40:18.009Z</time>
      </trkpt>
      <trkpt lat="45.34919" lon="6.69952">
        <ele>1796.48390016</ele>
        <time>2020-10-18T06:40:21.009Z</time>
      </trkpt>
      <trkpt lat="45.34918" lon="6.69959">
        <ele>1796.88390016</ele>
        <time>2020-10-18T06:40:25.009Z</time>
      </trkpt>
      <trkpt lat="45.34917" lon="6.69963">
        <ele>1797.08390016</ele>
        <time>2020-10-18T06:40:27.009Z</time>
      </trkpt>
      <trkpt lat="45.34914" lon="6.69969">
        <ele>1797.78390016</ele>
        <time>2020-10-18T06:40:34.009Z</time>
      </trkpt>
      <trkpt lat="45.34907" lon="6.69979">
        <ele>1798.58390016</ele>
        <time>2020-10-18T06:40:42.009Z</time>
      </trkpt>
      <trkpt lat="45.34906" lon="6.69982">
        <ele>1798.78390016</ele>
        <time>2020-10-18T06:40:44.009Z</time>
      </trkpt>
      <trkpt lat="45.34903" lon="6.69984">
        <ele>1799.38390016</ele>
        <time>2020-10-18T06:40:50.009Z</time>
      </trkpt>
      <trkpt lat="45.34897" lon="6.69985">
        <ele>1800</ele>
        <time>2020-10-18T06:41:23.009Z</time>
      </trkpt>
      <trkpt lat="45.34887" lon="6.69989">
        <ele>1801.16780032</ele>
        <time>2020-10-18T06:41:32.009Z</time>
      </trkpt>
      <trkpt lat="45.34877" lon="6.69988">
        <ele>1803.75170048</ele>
        <time>2020-10-18T06:41:42.009Z</time>
      </trkpt>
      <trkpt lat="45.34868" lon="6.69981">
        <ele>1807.9195008</ele>
        <time>2020-10-18T06:41:52.009Z</time>
      </trkpt>
      <trkpt lat="45.34859" lon="6.69975">
        <ele>1812.9195008</ele>
        <time>2020-10-18T06:42:02.009Z</time>
      </trkpt>
      <trkpt lat="45.34848" lon="6.69971">
        <ele>1815.56780032</ele>
        <time>2020-10-18T06:42:09.009Z</time>
      </trkpt>
      <trkpt lat="45.34838" lon="6.69968">
        <ele>1817.08390016</ele>
        <time>2020-10-18T06:42:17.009Z</time>
      </trkpt>
      <trkpt lat="45.34828" lon="6.69963">
        <ele>1817.88390016</ele>
        <time>2020-10-18T06:42:25.009Z</time>
      </trkpt>
      <trkpt lat="45.3482" lon="6.69955">
        <ele>1818</ele>
        <time>2020-10-18T06:42:32.009Z</time>
      </trkpt>
      <trkpt lat="45.34815" lon="6.69942">
        <ele>1819.53560064</ele>
        <time>2020-10-18T06:42:40.009Z</time>
      </trkpt>
      <trkpt lat="45.34816" lon="6.69927">
        <ele>1822.36780032</ele>
        <time>2020-10-18T06:42:48.009Z</time>
      </trkpt>
      <trkpt lat="45.34816" lon="6.69913">
        <ele>1824.16780032</ele>
        <time>2020-10-18T06:42:57.009Z</time>
      </trkpt>
      <trkpt lat="45.34812" lon="6.69899">
        <ele>1825.96780032</ele>
        <time>2020-10-18T06:43:06.009Z</time>
      </trkpt>
      <trkpt lat="45.34815" lon="6.69885">
        <ele>1827.56780032</ele>
        <time>2020-10-18T06:43:14.009Z</time>
      </trkpt>
      <trkpt lat="45.34816" lon="6.69873">
        <ele>1828.48390016</ele>
        <time>2020-10-18T06:43:21.009Z</time>
      </trkpt>
      <trkpt lat="45.34816" lon="6.69864">
        <ele>1828.98390016</ele>
        <time>2020-10-18T06:43:26.009Z</time>
      </trkpt>
      <trkpt lat="45.34816" lon="6.69854">
        <ele>1829.58390016</ele>
        <time>2020-10-18T06:43:32.009Z</time>
      </trkpt>
      <trkpt lat="45.34809" lon="6.69842">
        <ele>1830.96780032</ele>
        <time>2020-10-18T06:43:41.009Z</time>
      </trkpt>
      <trkpt lat="45.34803" lon="6.69834">
        <ele>1832.18390016</ele>
        <time>2020-10-18T06:43:48.009Z</time>
      </trkpt>
      <trkpt lat="45.34801" lon="6.6983">
        <ele>1832.48390016</ele>
        <time>2020-10-18T06:43:51.009Z</time>
      </trkpt>
      <trkpt lat="45.34798" lon="6.69825">
        <ele>1832.88390016</ele>
        <time>2020-10-18T06:43:55.009Z</time>
      </trkpt>
      <trkpt lat="45.34794" lon="6.69822">
        <ele>1834.36780032</ele>
        <time>2020-10-18T06:44:03.009Z</time>
      </trkpt>
      <trkpt lat="45.3479" lon="6.69815">
        <ele>1836</ele>
        <time>2020-10-18T06:44:55.009Z</time>
      </trkpt>
      <trkpt lat="45.34784" lon="6.69806">
        <ele>1836.68390016</ele>
        <time>2020-10-18T06:45:03.009Z</time>
      </trkpt>
      <trkpt lat="45.3478" lon="6.69804">
        <ele>1837.16780032</ele>
        <time>2020-10-18T06:45:07.009Z</time>
      </trkpt>
      <trkpt lat="45.34771" lon="6.69804">
        <ele>1838.76780032</ele>
        <time>2020-10-18T06:45:15.009Z</time>
      </trkpt>
      <trkpt lat="45.34763" lon="6.69805">
        <ele>1840.36780032</ele>
        <time>2020-10-18T06:45:23.009Z</time>
      </trkpt>
      <trkpt lat="45.34757" lon="6.69811">
        <ele>1841.96780032</ele>
        <time>2020-10-18T06:45:31.009Z</time>
      </trkpt>
      <trkpt lat="45.34756" lon="6.69797">
        <ele>1842.96780032</ele>
        <time>2020-10-18T06:45:51.009Z</time>
      </trkpt>
      <trkpt lat="45.34759" lon="6.69783">
        <ele>1844.96780032</ele>
        <time>2020-10-18T06:46:01.009Z</time>
      </trkpt>
      <trkpt lat="45.34767" lon="6.69772">
        <ele>1846.76780032</ele>
        <time>2020-10-18T06:46:10.009Z</time>
      </trkpt>
      <trkpt lat="45.34776" lon="6.69764">
        <ele>1848.85170048</ele>
        <time>2020-10-18T06:46:19.009Z</time>
      </trkpt>
      <trkpt lat="45.34786" lon="6.6976">
        <ele>1851</ele>
        <time>2020-10-18T06:46:28.009Z</time>
      </trkpt>
      <trkpt lat="45.34795" lon="6.69765">
        <ele>1851</ele>
        <time>2020-10-18T06:46:35.009Z</time>
      </trkpt>
      <trkpt lat="45.34799" lon="6.69767">
        <ele>1851.56780032</ele>
        <time>2020-10-18T06:46:39.009Z</time>
      </trkpt>
      <trkpt lat="45.34808" lon="6.69773">
        <ele>1853.36780032</ele>
        <time>2020-10-18T06:46:48.009Z</time>
      </trkpt>
      <trkpt lat="45.34813" lon="6.69775">
        <ele>1854.16780032</ele>
        <time>2020-10-18T06:46:52.009Z</time>
      </trkpt>
      <trkpt lat="45.34817" lon="6.69777">
        <ele>1854.76780032</ele>
        <time>2020-10-18T06:46:55.009Z</time>
      </trkpt>
      <trkpt lat="45.34826" lon="6.69778">
        <ele>1857.05170048</ele>
        <time>2020-10-18T06:47:03.009Z</time>
      </trkpt>
      <trkpt lat="45.34833" lon="6.69778">
        <ele>1859.70340096</ele>
        <time>2020-10-18T06:47:09.009Z</time>
      </trkpt>
      <trkpt lat="45.34842" lon="6.6978">
        <ele>1863.30340096</ele>
        <time>2020-10-18T06:47:15.009Z</time>
      </trkpt>
      <trkpt lat="45.34846" lon="6.69787">
        <ele>1864.76780032</ele>
        <time>2020-10-18T06:47:20.009Z</time>
      </trkpt>
      <trkpt lat="45.34849" lon="6.69795">
        <ele>1865.96780032</ele>
        <time>2020-10-18T06:47:26.009Z</time>
      </trkpt>
      <trkpt lat="45.34852" lon="6.69805">
        <ele>1866</ele>
        <time>2020-10-18T06:47:34.009Z</time>
      </trkpt>
      <trkpt lat="45.34859" lon="6.69815">
        <ele>1867.75170048</ele>
        <time>2020-10-18T06:47:42.009Z</time>
      </trkpt>
      <trkpt lat="45.34857" lon="6.69799">
        <ele>1874.05170048</ele>
        <time>2020-10-18T06:48:03.009Z</time>
      </trkpt>
      <trkpt lat="45.34855" lon="6.69784">
        <ele>1877.33560064</ele>
        <time>2020-10-18T06:48:12.009Z</time>
      </trkpt>
      <trkpt lat="45.34852" lon="6.69771">
        <ele>1879.58390016</ele>
        <time>2020-10-18T06:48:22.009Z</time>
      </trkpt>
      <trkpt lat="45.34849" lon="6.69758">
        <ele>1881.16780032</ele>
        <time>2020-10-18T06:48:32.009Z</time>
      </trkpt>
      <trkpt lat="45.34845" lon="6.69751">
        <ele>1882.08390016</ele>
        <time>2020-10-18T06:48:37.009Z</time>
      </trkpt>
      <trkpt lat="45.34841" lon="6.69746">
        <ele>1882.58390016</ele>
        <time>2020-10-18T06:48:42.009Z</time>
      </trkpt>
      <trkpt lat="45.34836" lon="6.69743">
        <ele>1883.08390016</ele>
        <time>2020-10-18T06:48:47.009Z</time>
      </trkpt>
      <trkpt lat="45.34831" lon="6.69739">
        <ele>1883.58390016</ele>
        <time>2020-10-18T06:48:52.009Z</time>
      </trkpt>
      <trkpt lat="45.34827" lon="6.69734">
        <ele>1884</ele>
        <time>2020-10-18T06:49:01.009Z</time>
      </trkpt>
      <trkpt lat="45.34822" lon="6.6973">
        <ele>1884.28390016</ele>
        <time>2020-10-18T06:49:09.009Z</time>
      </trkpt>
      <trkpt lat="45.34818" lon="6.69723">
        <ele>1884.88390016</ele>
        <time>2020-10-18T06:49:15.009Z</time>
      </trkpt>
      <trkpt lat="45.34813" lon="6.69719">
        <ele>1885.48390016</ele>
        <time>2020-10-18T06:49:21.009Z</time>
      </trkpt>
      <trkpt lat="45.34805" lon="6.6971">
        <ele>1886.38390016</ele>
        <time>2020-10-18T06:49:30.009Z</time>
      </trkpt>
      <trkpt lat="45.34812" lon="6.697">
        <ele>1889.58390016</ele>
        <time>2020-10-18T06:49:52.009Z</time>
      </trkpt>
      <trkpt lat="45.34815" lon="6.697">
        <ele>1889.88390016</ele>
        <time>2020-10-18T06:49:55.009Z</time>
      </trkpt>
      <trkpt lat="45.34824" lon="6.69704">
        <ele>1890.78390016</ele>
        <time>2020-10-18T06:50:04.009Z</time>
      </trkpt>
      <trkpt lat="45.34827" lon="6.69705">
        <ele>1891.16780032</ele>
        <time>2020-10-18T06:50:07.009Z</time>
      </trkpt>
      <trkpt lat="45.3483" lon="6.69706">
        <ele>1891.96780032</ele>
        <time>2020-10-18T06:50:11.009Z</time>
      </trkpt>
      <trkpt lat="45.34833" lon="6.69707">
        <ele>1892.56780032</ele>
        <time>2020-10-18T06:50:14.009Z</time>
      </trkpt>
      <trkpt lat="45.3484" lon="6.69706">
        <ele>1893.76780032</ele>
        <time>2020-10-18T06:50:20.009Z</time>
      </trkpt>
      <trkpt lat="45.34845" lon="6.69705">
        <ele>1894.56780032</ele>
        <time>2020-10-18T06:50:24.009Z</time>
      </trkpt>
      <trkpt lat="45.34848" lon="6.69705">
        <ele>1895.36780032</ele>
        <time>2020-10-18T06:50:28.009Z</time>
      </trkpt>
      <trkpt lat="45.34857" lon="6.69704">
        <ele>1896.96780032</ele>
        <time>2020-10-18T06:50:36.009Z</time>
      </trkpt>
      <trkpt lat="45.34866" lon="6.69704">
        <ele>1897.98390016</ele>
        <time>2020-10-18T06:50:46.009Z</time>
      </trkpt>
      <trkpt lat="45.34859" lon="6.69696">
        <ele>1907.76780032</ele>
        <time>2020-10-18T06:51:15.009Z</time>
      </trkpt>
      <trkpt lat="45.34852" lon="6.69692">
        <ele>1909.16780032</ele>
        <time>2020-10-18T06:51:22.009Z</time>
      </trkpt>
      <trkpt lat="45.34846" lon="6.69687">
        <ele>1910</ele>
        <time>2020-10-18T06:51:28.009Z</time>
      </trkpt>
      <trkpt lat="45.34842" lon="6.69682">
        <ele>1910</ele>
        <time>2020-10-18T06:51:33.009Z</time>
      </trkpt>
      <trkpt lat="45.34837" lon="6.69677">
        <ele>1910.28390016</ele>
        <time>2020-10-18T06:51:39.009Z</time>
      </trkpt>
      <trkpt lat="45.34831" lon="6.69675">
        <ele>1910.88390016</ele>
        <time>2020-10-18T06:51:45.009Z</time>
      </trkpt>
      <trkpt lat="45.34824" lon="6.69664">
        <ele>1911</ele>
        <time>2020-10-18T06:51:55.009Z</time>
      </trkpt>
      <trkpt lat="45.34834" lon="6.6966">
        <ele>1910.0829834369</ele>
        <time>2020-10-18T06:52:07.009Z</time>
      </trkpt>
      <trkpt lat="45.34844" lon="6.69662">
        <ele>1911.16780032</ele>
        <time>2020-10-18T06:52:17.009Z</time>
      </trkpt>
      <trkpt lat="45.34855" lon="6.69665">
        <ele>1913.08390016</ele>
        <time>2020-10-18T06:52:27.009Z</time>
      </trkpt>
      <trkpt lat="45.34846" lon="6.69657">
        <ele>1915.36780032</ele>
        <time>2020-10-18T06:52:43.009Z</time>
      </trkpt>
      <trkpt lat="45.34837" lon="6.6965">
        <ele>1916.68390016</ele>
        <time>2020-10-18T06:52:53.009Z</time>
      </trkpt>
      <trkpt lat="45.34828" lon="6.69647">
        <ele>1919.65170048</ele>
        <time>2020-10-18T06:53:05.009Z</time>
      </trkpt>
      <trkpt lat="45.34837" lon="6.69641">
        <ele>1922.85170048</ele>
        <time>2020-10-18T06:53:19.009Z</time>
      </trkpt>
      <trkpt lat="45.34848" lon="6.6964">
        <ele>1925.28390016</ele>
        <time>2020-10-18T06:53:29.009Z</time>
      </trkpt>
      <trkpt lat="45.34857" lon="6.69646">
        <ele>1926.08390016</ele>
        <time>2020-10-18T06:53:37.009Z</time>
      </trkpt>
      <trkpt lat="45.34867" lon="6.69649">
        <ele>1926.98390016</ele>
        <time>2020-10-18T06:53:46.009Z</time>
      </trkpt>
      <trkpt lat="45.34857" lon="6.69645">
        <ele>1929.48390016</ele>
        <time>2020-10-18T06:54:11.009Z</time>
      </trkpt>
      <trkpt lat="45.34849" lon="6.69636">
        <ele>1930.96780032</ele>
        <time>2020-10-18T06:54:21.009Z</time>
      </trkpt>
      <trkpt lat="45.3484" lon="6.69628">
        <ele>1933.36780032</ele>
        <time>2020-10-18T06:54:33.009Z</time>
      </trkpt>
      <trkpt lat="45.3483" lon="6.69624">
        <ele>1934.78390016</ele>
        <time>2020-10-18T06:54:44.009Z</time>
      </trkpt>
      <trkpt lat="45.34838" lon="6.69615">
        <ele>1937.96780032</ele>
        <time>2020-10-18T06:55:11.009Z</time>
      </trkpt>
      <trkpt lat="45.34831" lon="6.69605">
        <ele>1944.16780032</ele>
        <time>2020-10-18T06:55:57.009Z</time>
      </trkpt>
      <trkpt lat="45.34821" lon="6.69608">
        <ele>1947.75170048</ele>
        <time>2020-10-18T06:56:12.009Z</time>
      </trkpt>
      <trkpt lat="45.34811" lon="6.69607">
        <ele>1952.96780032</ele>
        <time>2020-10-18T06:56:36.009Z</time>
      </trkpt>
      <trkpt lat="45.34803" lon="6.69618">
        <ele>1956.75170048</ele>
        <time>2020-10-18T06:57:02.009Z</time>
      </trkpt>
      <trkpt lat="45.34795" lon="6.69625">
        <ele>1958.18390016</ele>
        <time>2020-10-18T06:57:18.009Z</time>
      </trkpt>
      <trkpt lat="45.34785" lon="6.69623">
        <ele>1959.56780032</ele>
        <time>2020-10-18T06:57:29.009Z</time>
      </trkpt>
      <trkpt lat="45.34774" lon="6.69622">
        <ele>1961.56780032</ele>
        <time>2020-10-18T06:57:39.009Z</time>
      </trkpt>
      <trkpt lat="45.34764" lon="6.69624">
        <ele>1963.78390016</ele>
        <time>2020-10-18T06:57:54.009Z</time>
      </trkpt>
      <trkpt lat="45.34753" lon="6.69617">
        <ele>1966.35170048</ele>
        <time>2020-10-18T06:58:04.009Z</time>
      </trkpt>
      <trkpt lat="45.34746" lon="6.6961">
        <ele>1969.25170048</ele>
        <time>2020-10-18T06:58:17.009Z</time>
      </trkpt>
      <trkpt lat="45.34738" lon="6.69611">
        <ele>1972.18390016</ele>
        <time>2020-10-18T06:58:28.009Z</time>
      </trkpt>
      <trkpt lat="45.34728" lon="6.69612">
        <ele>1974.16780032</ele>
        <time>2020-10-18T06:58:42.009Z</time>
      </trkpt>
      <trkpt lat="45.34718" lon="6.69607">
        <ele>1975</ele>
        <time>2020-10-18T06:58:54.009Z</time>
      </trkpt>
      <trkpt lat="45.34708" lon="6.69605">
        <ele>1976.76780032</ele>
        <time>2020-10-18T06:59:05.009Z</time>
      </trkpt>
      <trkpt lat="45.34697" lon="6.69607">
        <ele>1981.3339351082</ele>
        <time>2020-10-18T06:59:22.009Z</time>
      </trkpt>
      <trkpt lat="45.34688" lon="6.69601">
        <ele>1984.56780032</ele>
        <time>2020-10-18T06:59:34.009Z</time>
      </trkpt>
      <trkpt lat="45.34682" lon="6.69588">
        <ele>1986.96780032</ele>
        <time>2020-10-18T06:59:46.009Z</time>
      </trkpt>
      <trkpt lat="45.34675" lon="6.69578">
        <ele>1989.25170048</ele>
        <time>2020-10-18T06:59:57.009Z</time>
      </trkpt>
      <trkpt lat="45.34669" lon="6.69566">
        <ele>1992.36780032</ele>
        <time>2020-10-18T07:00:08.009Z</time>
      </trkpt>
      <trkpt lat="45.34667" lon="6.69552">
        <ele>1994.48390016</ele>
        <time>2020-10-18T07:00:21.009Z</time>
      </trkpt>
      <trkpt lat="45.34666" lon="6.69537">
        <ele>1995.56780032</ele>
        <time>2020-10-18T07:00:29.009Z</time>
      </trkpt>
      <trkpt lat="45.34662" lon="6.69524">
        <ele>1997.16780032</ele>
        <time>2020-10-18T07:00:37.009Z</time>
      </trkpt>
      <trkpt lat="45.34659" lon="6.6951">
        <ele>1999</ele>
        <time>2020-10-18T07:00:48.009Z</time>
      </trkpt>
      <trkpt lat="45.34667" lon="6.6952">
        <ele>1999</ele>
        <time>2020-10-18T07:00:56.009Z</time>
      </trkpt>
      <trkpt lat="45.34667" lon="6.69508">
        <ele>2001.45170048</ele>
        <time>2020-10-18T07:01:11.009Z</time>
      </trkpt>
      <trkpt lat="45.3466" lon="6.69502">
        <ele>2003.28390016</ele>
        <time>2020-10-18T07:01:19.009Z</time>
      </trkpt>
      <trkpt lat="45.34649" lon="6.69501">
        <ele>2004.18390016</ele>
        <time>2020-10-18T07:01:28.009Z</time>
      </trkpt>
      <trkpt lat="45.34642" lon="6.69495">
        <ele>2004.88390016</ele>
        <time>2020-10-18T07:01:35.009Z</time>
      </trkpt>
      <trkpt lat="45.34636" lon="6.6949">
        <ele>2005.88390016</ele>
        <time>2020-10-18T07:01:45.009Z</time>
      </trkpt>
      <trkpt lat="45.34628" lon="6.69489">
        <ele>2008.76780032</ele>
        <time>2020-10-18T07:02:00.009Z</time>
      </trkpt>
      <trkpt lat="45.34618" lon="6.69484">
        <ele>2010.76780032</ele>
        <time>2020-10-18T07:02:10.009Z</time>
      </trkpt>
      <trkpt lat="45.34627" lon="6.69481">
        <ele>2012.36780032</ele>
        <time>2020-10-18T07:02:48.009Z</time>
      </trkpt>
      <trkpt lat="45.34633" lon="6.6947">
        <ele>2014.36780032</ele>
        <time>2020-10-18T07:02:58.009Z</time>
      </trkpt>
      <trkpt lat="45.34643" lon="6.69465">
        <ele>2016.9195008</ele>
        <time>2020-10-18T07:03:08.009Z</time>
      </trkpt>
      <trkpt lat="45.34638" lon="6.6946">
        <ele>2022.96780032</ele>
        <time>2020-10-18T07:03:26.009Z</time>
      </trkpt>
      <trkpt lat="45.3463" lon="6.69463">
        <ele>2024.85170048</ele>
        <time>2020-10-18T07:03:39.009Z</time>
      </trkpt>
      <trkpt lat="45.34622" lon="6.69455">
        <ele>2028.48390016</ele>
        <time>2020-10-18T07:04:01.009Z</time>
      </trkpt>
      <trkpt lat="45.34626" lon="6.69443">
        <ele>2029</ele>
        <time>2020-10-18T07:07:26.009Z</time>
      </trkpt>
      <trkpt lat="45.34626" lon="6.69427">
        <ele>2030.56780032</ele>
        <time>2020-10-18T07:07:34.009Z</time>
      </trkpt>
      <trkpt lat="45.34626" lon="6.69412">
        <ele>2031.88390016</ele>
        <time>2020-10-18T07:07:45.009Z</time>
      </trkpt>
      <trkpt lat="45.3462" lon="6.69403">
        <ele>2034.73560064</ele>
        <time>2020-10-18T07:07:53.009Z</time>
      </trkpt>
      <trkpt lat="45.34614" lon="6.69391">
        <ele>2037.36780032</ele>
        <time>2020-10-18T07:08:03.009Z</time>
      </trkpt>
      <trkpt lat="45.34607" lon="6.69382">
        <ele>2038.96780032</ele>
        <time>2020-10-18T07:08:11.009Z</time>
      </trkpt>
      <trkpt lat="45.346" lon="6.69372">
        <ele>2040.38390016</ele>
        <time>2020-10-18T07:08:20.009Z</time>
      </trkpt>
      <trkpt lat="45.34593" lon="6.6936">
        <ele>2041.48390016</ele>
        <time>2020-10-18T07:08:31.009Z</time>
      </trkpt>
      <trkpt lat="45.34588" lon="6.69347">
        <ele>2042.96780032</ele>
        <time>2020-10-18T07:08:41.009Z</time>
      </trkpt>
      <trkpt lat="45.34585" lon="6.69336">
        <ele>2044.56780032</ele>
        <time>2020-10-18T07:08:49.009Z</time>
      </trkpt>
      <trkpt lat="45.34587" lon="6.69322">
        <ele>2047.15170048</ele>
        <time>2020-10-18T07:09:00.009Z</time>
      </trkpt>
      <trkpt lat="45.34587" lon="6.69308">
        <ele>2049.18390016</ele>
        <time>2020-10-18T07:09:08.009Z</time>
      </trkpt>
      <trkpt lat="45.34584" lon="6.69296">
        <ele>2050.18390016</ele>
        <time>2020-10-18T07:09:18.009Z</time>
      </trkpt>
      <trkpt lat="45.34581" lon="6.69285">
        <ele>2050.88390016</ele>
        <time>2020-10-18T07:09:25.009Z</time>
      </trkpt>
      <trkpt lat="45.34579" lon="6.69271">
        <ele>2051.98390016</ele>
        <time>2020-10-18T07:09:36.009Z</time>
      </trkpt>
      <trkpt lat="45.34578" lon="6.6926">
        <ele>2054.35170048</ele>
        <time>2020-10-18T07:09:44.009Z</time>
      </trkpt>
      <trkpt lat="45.34576" lon="6.69249">
        <ele>2057.05170048</ele>
        <time>2020-10-18T07:09:53.009Z</time>
      </trkpt>
      <trkpt lat="45.34573" lon="6.6924">
        <ele>2058.76780032</ele>
        <time>2020-10-18T07:10:00.009Z</time>
      </trkpt>
      <trkpt lat="45.34567" lon="6.69228">
        <ele>2062.05170048</ele>
        <time>2020-10-18T07:10:13.009Z</time>
      </trkpt>
      <trkpt lat="45.34557" lon="6.69222">
        <ele>2065.05170048</ele>
        <time>2020-10-18T07:10:23.009Z</time>
      </trkpt>
      <trkpt lat="45.3455" lon="6.69215">
        <ele>2066.96780032</ele>
        <time>2020-10-18T07:10:31.009Z</time>
      </trkpt>
      <trkpt lat="45.34547" lon="6.69212">
        <ele>2067.56780032</ele>
        <time>2020-10-18T07:10:34.009Z</time>
      </trkpt>
      <trkpt lat="45.34545" lon="6.69209">
        <ele>2068.25170048</ele>
        <time>2020-10-18T07:10:37.009Z</time>
      </trkpt>
      <trkpt lat="45.34544" lon="6.69206">
        <ele>2069.15170048</ele>
        <time>2020-10-18T07:10:40.009Z</time>
      </trkpt>
      <trkpt lat="45.34539" lon="6.692">
        <ele>2071.28390016</ele>
        <time>2020-10-18T07:10:49.009Z</time>
      </trkpt>
      <trkpt lat="45.34537" lon="6.69199">
        <ele>2071.58390016</ele>
        <time>2020-10-18T07:10:52.009Z</time>
      </trkpt>
      <trkpt lat="45.3453" lon="6.69195">
        <ele>2072</ele>
        <time>2020-10-18T07:10:59.009Z</time>
      </trkpt>
      <trkpt lat="45.3452" lon="6.69193">
        <ele>2072.78390016</ele>
        <time>2020-10-18T07:11:14.009Z</time>
      </trkpt>
      <trkpt lat="45.3451" lon="6.69189">
        <ele>2075.13560064</ele>
        <time>2020-10-18T07:11:29.009Z</time>
      </trkpt>
      <trkpt lat="45.345" lon="6.69185">
        <ele>2078.76780032</ele>
        <time>2020-10-18T07:11:40.009Z</time>
      </trkpt>
      <trkpt lat="45.34494" lon="6.69172">
        <ele>2081.45170048</ele>
        <time>2020-10-18T07:11:51.009Z</time>
      </trkpt>
      <trkpt lat="45.3449" lon="6.6916">
        <ele>2083.76780032</ele>
        <time>2020-10-18T07:12:00.009Z</time>
      </trkpt>
      <trkpt lat="45.34486" lon="6.69149">
        <ele>2085.38390016</ele>
        <time>2020-10-18T07:12:10.009Z</time>
      </trkpt>
      <trkpt lat="45.34479" lon="6.69137">
        <ele>2087.15170048</ele>
        <time>2020-10-18T07:12:20.009Z</time>
      </trkpt>
      <trkpt lat="45.34475" lon="6.69129">
        <ele>2088.31609984</ele>
        <time>2020-10-18T07:12:33.009Z</time>
      </trkpt>
      <trkpt lat="45.34469" lon="6.69117">
        <ele>2091.36780032</ele>
        <time>2020-10-18T07:13:33.009Z</time>
      </trkpt>
      <trkpt lat="45.34464" lon="6.69104">
        <ele>2094.05170048</ele>
        <time>2020-10-18T07:13:43.009Z</time>
      </trkpt>
      <trkpt lat="45.3446" lon="6.69092">
        <ele>2095</ele>
        <time>2020-10-18T07:13:52.009Z</time>
      </trkpt>
      <trkpt lat="45.34455" lon="6.69081">
        <ele>2095.48390016</ele>
        <time>2020-10-18T07:14:01.009Z</time>
      </trkpt>
      <trkpt lat="45.3445" lon="6.69071">
        <ele>2096.56780032</ele>
        <time>2020-10-18T07:14:09.009Z</time>
      </trkpt>
      <trkpt lat="45.34445" lon="6.69061">
        <ele>2098.16780032</ele>
        <time>2020-10-18T07:14:17.009Z</time>
      </trkpt>
      <trkpt lat="45.34439" lon="6.69052">
        <ele>2099.76780032</ele>
        <time>2020-10-18T07:14:25.009Z</time>
      </trkpt>
      <trkpt lat="45.34434" lon="6.69042">
        <ele>2101.36780032</ele>
        <time>2020-10-18T07:14:33.009Z</time>
      </trkpt>
      <trkpt lat="45.34428" lon="6.69033">
        <ele>2102.96780032</ele>
        <time>2020-10-18T07:14:41.009Z</time>
      </trkpt>
      <trkpt lat="45.34422" lon="6.69024">
        <ele>2104.76780032</ele>
        <time>2020-10-18T07:14:50.009Z</time>
      </trkpt>
      <trkpt lat="45.34415" lon="6.69014">
        <ele>2106.38390016</ele>
        <time>2020-10-18T07:15:00.009Z</time>
      </trkpt>
      <trkpt lat="45.34409" lon="6.69005">
        <ele>2107.76780032</ele>
        <time>2020-10-18T07:15:10.009Z</time>
      </trkpt>
      <trkpt lat="45.34401" lon="6.68995">
        <ele>2110.45170048</ele>
        <time>2020-10-18T07:15:21.009Z</time>
      </trkpt>
      <trkpt lat="45.34395" lon="6.68983">
        <ele>2114.73560064</ele>
        <time>2020-10-18T07:15:33.009Z</time>
      </trkpt>
      <trkpt lat="45.34389" lon="6.6897">
        <ele>2119.13560064</ele>
        <time>2020-10-18T07:15:44.009Z</time>
      </trkpt>
      <trkpt lat="45.34384" lon="6.68956">
        <ele>2122.65170048</ele>
        <time>2020-10-18T07:15:55.009Z</time>
      </trkpt>
      <trkpt lat="45.34378" lon="6.68944">
        <ele>2124.76780032</ele>
        <time>2020-10-18T07:16:05.009Z</time>
      </trkpt>
      <trkpt lat="45.34374" lon="6.6893">
        <ele>2125.88390016</ele>
        <time>2020-10-18T07:16:15.009Z</time>
      </trkpt>
      <trkpt lat="45.34382" lon="6.68923">
        <ele>2128.96780032</ele>
        <time>2020-10-18T07:16:36.009Z</time>
      </trkpt>
      <trkpt lat="45.34381" lon="6.68908">
        <ele>2130.16780032</ele>
        <time>2020-10-18T07:16:57.009Z</time>
      </trkpt>
      <trkpt lat="45.34392" lon="6.68907">
        <ele>2132.36780032</ele>
        <time>2020-10-18T07:17:08.009Z</time>
      </trkpt>
      <trkpt lat="45.34402" lon="6.68914">
        <ele>2134.25170048</ele>
        <time>2020-10-18T07:17:17.009Z</time>
      </trkpt>
      <trkpt lat="45.34412" lon="6.68919">
        <ele>2136.95170048</ele>
        <time>2020-10-18T07:17:26.009Z</time>
      </trkpt>
      <trkpt lat="45.34422" lon="6.68921">
        <ele>2137.88390016</ele>
        <time>2020-10-18T07:17:35.009Z</time>
      </trkpt>
      <trkpt lat="45.34432" lon="6.68923">
        <ele>2139.76780032</ele>
        <time>2020-10-18T07:17:45.009Z</time>
      </trkpt>
      <trkpt lat="45.34442" lon="6.68921">
        <ele>2141.56780032</ele>
        <time>2020-10-18T07:17:54.009Z</time>
      </trkpt>
      <trkpt lat="45.34452" lon="6.68923">
        <ele>2143.76780032</ele>
        <time>2020-10-18T07:18:05.009Z</time>
      </trkpt>
      <trkpt lat="45.34462" lon="6.68927">
        <ele>2144.88390016</ele>
        <time>2020-10-18T07:18:15.009Z</time>
      </trkpt>
      <trkpt lat="45.34473" lon="6.68931">
        <ele>2146.76780032</ele>
        <time>2020-10-18T07:18:25.009Z</time>
      </trkpt>
      <trkpt lat="45.34483" lon="6.68935">
        <ele>2149.35170048</ele>
        <time>2020-10-18T07:18:34.009Z</time>
      </trkpt>
      <trkpt lat="45.34492" lon="6.68939">
        <ele>2150.78390016</ele>
        <time>2020-10-18T07:18:44.009Z</time>
      </trkpt>
      <trkpt lat="45.34502" lon="6.68945">
        <ele>2152.36780032</ele>
        <time>2020-10-18T07:18:53.009Z</time>
      </trkpt>
      <trkpt lat="45.3451" lon="6.68951">
        <ele>2153.78390016</ele>
        <time>2020-10-18T07:19:04.009Z</time>
      </trkpt>
      <trkpt lat="45.3452" lon="6.68956">
        <ele>2155.76780032</ele>
        <time>2020-10-18T07:19:15.009Z</time>
      </trkpt>
      <trkpt lat="45.34529" lon="6.68959">
        <ele>2157.76780032</ele>
        <time>2020-10-18T07:19:25.009Z</time>
      </trkpt>
      <trkpt lat="45.34538" lon="6.68965">
        <ele>2159.96780032</ele>
        <time>2020-10-18T07:19:41.009Z</time>
      </trkpt>
      <trkpt lat="45.34547" lon="6.68972">
        <ele>2162.36780032</ele>
        <time>2020-10-18T07:19:53.009Z</time>
      </trkpt>
      <trkpt lat="45.34556" lon="6.68978">
        <ele>2163.98390016</ele>
        <time>2020-10-18T07:20:06.009Z</time>
      </trkpt>
      <trkpt lat="45.34566" lon="6.68983">
        <ele>2165.55170048</ele>
        <time>2020-10-18T07:20:18.009Z</time>
      </trkpt>
      <trkpt lat="45.34574" lon="6.68991">
        <ele>2168.55170048</ele>
        <time>2020-10-18T07:20:28.009Z</time>
      </trkpt>
      <trkpt lat="45.34582" lon="6.69001">
        <ele>2171.18390016</ele>
        <time>2020-10-18T07:20:38.009Z</time>
      </trkpt>
      <trkpt lat="45.34589" lon="6.69012">
        <ele>2172.56780032</ele>
        <time>2020-10-18T07:20:49.009Z</time>
      </trkpt>
      <trkpt lat="45.34596" lon="6.69023">
        <ele>2174.76780032</ele>
        <time>2020-10-18T07:21:00.009Z</time>
      </trkpt>
      <trkpt lat="45.34603" lon="6.69031">
        <ele>2177.16780032</ele>
        <time>2020-10-18T07:21:12.009Z</time>
      </trkpt>
      <trkpt lat="45.34609" lon="6.69041">
        <ele>2178.18390016</ele>
        <time>2020-10-18T07:21:28.009Z</time>
      </trkpt>
      <trkpt lat="45.34616" lon="6.69051">
        <ele>2179</ele>
        <time>2020-10-18T07:21:40.009Z</time>
      </trkpt>
      <trkpt lat="45.34624" lon="6.6906">
        <ele>2179.58390016</ele>
        <time>2020-10-18T07:21:52.009Z</time>
      </trkpt>
      <trkpt lat="45.34633" lon="6.69065">
        <ele>2180.68390016</ele>
        <time>2020-10-18T07:22:03.009Z</time>
      </trkpt>
      <trkpt lat="45.34643" lon="6.69065">
        <ele>2182.16780032</ele>
        <time>2020-10-18T07:22:12.009Z</time>
      </trkpt>
      <trkpt lat="45.34652" lon="6.69074">
        <ele>2183.48390016</ele>
        <time>2020-10-18T07:22:21.009Z</time>
      </trkpt>
      <trkpt lat="45.3466" lon="6.69081">
        <ele>2185.16780032</ele>
        <time>2020-10-18T07:22:32.009Z</time>
      </trkpt>
      <trkpt lat="45.34669" lon="6.69089">
        <ele>2189.36780032</ele>
        <time>2020-10-18T07:22:48.009Z</time>
      </trkpt>
      <trkpt lat="45.34678" lon="6.69095">
        <ele>2192.16780032</ele>
        <time>2020-10-18T07:23:02.009Z</time>
      </trkpt>
      <trkpt lat="45.34686" lon="6.69094">
        <ele>2193.38390016</ele>
        <time>2020-10-18T07:23:10.009Z</time>
      </trkpt>
      <trkpt lat="45.34696" lon="6.69091">
        <ele>2194.76780032</ele>
        <time>2020-10-18T07:23:20.009Z</time>
      </trkpt>
      <trkpt lat="45.34705" lon="6.69088">
        <ele>2196.38390016</ele>
        <time>2020-10-18T07:23:30.009Z</time>
      </trkpt>
      <trkpt lat="45.34714" lon="6.69083">
        <ele>2198.16780032</ele>
        <time>2020-10-18T07:23:42.009Z</time>
      </trkpt>
      <trkpt lat="45.34724" lon="6.6908">
        <ele>2200.16780032</ele>
        <time>2020-10-18T07:23:52.009Z</time>
      </trkpt>
      <trkpt lat="45.34733" lon="6.69085">
        <ele>2202.36780032</ele>
        <time>2020-10-18T07:24:03.009Z</time>
      </trkpt>
      <trkpt lat="45.34743" lon="6.69089">
        <ele>2204.36780032</ele>
        <time>2020-10-18T07:24:13.009Z</time>
      </trkpt>
      <trkpt lat="45.34753" lon="6.69095">
        <ele>2206.56780032</ele>
        <time>2020-10-18T07:24:24.009Z</time>
      </trkpt>
      <trkpt lat="45.34764" lon="6.69094">
        <ele>2207.98390016</ele>
        <time>2020-10-18T07:24:36.009Z</time>
      </trkpt>
      <trkpt lat="45.34775" lon="6.69095">
        <ele>2208.96780032</ele>
        <time>2020-10-18T07:25:01.009Z</time>
      </trkpt>
      <trkpt lat="45.34783" lon="6.69105">
        <ele>2210.76780032</ele>
        <time>2020-10-18T07:25:10.009Z</time>
      </trkpt>
      <trkpt lat="45.34793" lon="6.69112">
        <ele>2212.85170048</ele>
        <time>2020-10-18T07:25:19.009Z</time>
      </trkpt>
      <trkpt lat="45.34801" lon="6.69121">
        <ele>2215.85170048</ele>
        <time>2020-10-18T07:25:29.009Z</time>
      </trkpt>
      <trkpt lat="45.34812" lon="6.69125">
        <ele>2218.38390016</ele>
        <time>2020-10-18T07:25:40.009Z</time>
      </trkpt>
      <trkpt lat="45.34805" lon="6.69114">
        <ele>2221.55170048</ele>
        <time>2020-10-18T07:25:58.009Z</time>
      </trkpt>
      <trkpt lat="45.348" lon="6.69102">
        <ele>2224.36780032</ele>
        <time>2020-10-18T07:26:08.009Z</time>
      </trkpt>
      <trkpt lat="45.34796" lon="6.69092">
        <ele>2226.36780032</ele>
        <time>2020-10-18T07:26:18.009Z</time>
      </trkpt>
      <trkpt lat="45.34792" lon="6.69081">
        <ele>2228.36780032</ele>
        <time>2020-10-18T07:26:28.009Z</time>
      </trkpt>
      <trkpt lat="45.34789" lon="6.69067">
        <ele>2231.38390016</ele>
        <time>2020-10-18T07:27:10.009Z</time>
      </trkpt>
      <trkpt lat="45.34786" lon="6.69053">
        <ele>2233.16780032</ele>
        <time>2020-10-18T07:27:22.009Z</time>
      </trkpt>
      <trkpt lat="45.34778" lon="6.69044">
        <ele>2234.96780032</ele>
        <time>2020-10-18T07:27:31.009Z</time>
      </trkpt>
      <trkpt lat="45.3477" lon="6.69035">
        <ele>2236.96780032</ele>
        <time>2020-10-18T07:27:41.009Z</time>
      </trkpt>
      <trkpt lat="45.34762" lon="6.69026">
        <ele>2239.16780032</ele>
        <time>2020-10-18T07:27:52.009Z</time>
      </trkpt>
      <trkpt lat="45.34753" lon="6.69019">
        <ele>2240.68390016</ele>
        <time>2020-10-18T07:28:03.009Z</time>
      </trkpt>
      <trkpt lat="45.34744" lon="6.69013">
        <ele>2242.36780032</ele>
        <time>2020-10-18T07:28:13.009Z</time>
      </trkpt>
      <trkpt lat="45.34737" lon="6.69003">
        <ele>2244.36780032</ele>
        <time>2020-10-18T07:28:23.009Z</time>
      </trkpt>
      <trkpt lat="45.34735" lon="6.68988">
        <ele>2245.98390016</ele>
        <time>2020-10-18T07:28:36.009Z</time>
      </trkpt>
      <trkpt lat="45.34729" lon="6.68975">
        <ele>2248.28390016</ele>
        <time>2020-10-18T07:28:49.009Z</time>
      </trkpt>
      <trkpt lat="45.34726" lon="6.68962">
        <ele>2249.38390016</ele>
        <time>2020-10-18T07:29:00.009Z</time>
      </trkpt>
      <trkpt lat="45.3472" lon="6.68951">
        <ele>2250.76780032</ele>
        <time>2020-10-18T07:29:10.009Z</time>
      </trkpt>
      <trkpt lat="45.34713" lon="6.68941">
        <ele>2252.78390016</ele>
        <time>2020-10-18T07:29:24.009Z</time>
      </trkpt>
      <trkpt lat="45.34708" lon="6.68928">
        <ele>2253.88390016</ele>
        <time>2020-10-18T07:29:35.009Z</time>
      </trkpt>
      <trkpt lat="45.34703" lon="6.68916">
        <ele>2255.96780032</ele>
        <time>2020-10-18T07:29:46.009Z</time>
      </trkpt>
      <trkpt lat="45.34699" lon="6.68902">
        <ele>2257.16780032</ele>
        <time>2020-10-18T07:29:57.009Z</time>
      </trkpt>
      <trkpt lat="45.34709" lon="6.68901">
        <ele>2259.96780032</ele>
        <time>2020-10-18T07:30:11.009Z</time>
      </trkpt>
      <trkpt lat="45.34718" lon="6.68907">
        <ele>2262.36780032</ele>
        <time>2020-10-18T07:30:23.009Z</time>
      </trkpt>
      <trkpt lat="45.34726" lon="6.68915">
        <ele>2263.88390016</ele>
        <time>2020-10-18T07:30:35.009Z</time>
      </trkpt>
      <trkpt lat="45.34735" lon="6.68924">
        <ele>2265.96780032</ele>
        <time>2020-10-18T07:30:46.009Z</time>
      </trkpt>
      <trkpt lat="45.34744" lon="6.68931">
        <ele>2269.53560064</ele>
        <time>2020-10-18T07:30:55.009Z</time>
      </trkpt>
      <trkpt lat="45.34753" lon="6.68935">
        <ele>2270.88390016</ele>
        <time>2020-10-18T07:31:05.009Z</time>
      </trkpt>
      <trkpt lat="45.34762" lon="6.6894">
        <ele>2272.96780032</ele>
        <time>2020-10-18T07:31:16.009Z</time>
      </trkpt>
      <trkpt lat="45.34773" lon="6.68943">
        <ele>2274.18390016</ele>
        <time>2020-10-18T07:31:28.009Z</time>
      </trkpt>
      <trkpt lat="45.34783" lon="6.68945">
        <ele>2275.76780032</ele>
        <time>2020-10-18T07:31:40.009Z</time>
      </trkpt>
      <trkpt lat="45.34792" lon="6.68952">
        <ele>2278.56780032</ele>
        <time>2020-10-18T07:31:54.009Z</time>
      </trkpt>
      <trkpt lat="45.34802" lon="6.68955">
        <ele>2279.68390016</ele>
        <time>2020-10-18T07:32:03.009Z</time>
      </trkpt>
      <trkpt lat="45.34812" lon="6.68955">
        <ele>2280.78390016</ele>
        <time>2020-10-18T07:32:14.009Z</time>
      </trkpt>
      <trkpt lat="45.34821" lon="6.68957">
        <ele>2281.68390016</ele>
        <time>2020-10-18T07:32:23.009Z</time>
      </trkpt>
      <trkpt lat="45.3483" lon="6.68961">
        <ele>2282.58390016</ele>
        <time>2020-10-18T07:32:32.009Z</time>
      </trkpt>
      <trkpt lat="45.34838" lon="6.68967">
        <ele>2285.05170048</ele>
        <time>2020-10-18T07:32:43.009Z</time>
      </trkpt>
      <trkpt lat="45.34847" lon="6.68974">
        <ele>2287.56780032</ele>
        <time>2020-10-18T07:32:54.009Z</time>
      </trkpt>
      <trkpt lat="45.34857" lon="6.68978">
        <ele>2288.98390016</ele>
        <time>2020-10-18T07:33:06.009Z</time>
      </trkpt>
      <trkpt lat="45.34847" lon="6.68969">
        <ele>2290</ele>
        <time>2020-10-18T07:36:04.009Z</time>
      </trkpt>
      <trkpt lat="45.34855" lon="6.68958">
        <ele>2293</ele>
        <time>2020-10-18T07:36:30.009Z</time>
      </trkpt>
      <trkpt lat="45.34862" lon="6.68948">
        <ele>2294.15170048</ele>
        <time>2020-10-18T07:36:40.009Z</time>
      </trkpt>
      <trkpt lat="45.34869" lon="6.68938">
        <ele>2297.16780032</ele>
        <time>2020-10-18T07:36:52.009Z</time>
      </trkpt>
      <trkpt lat="45.3486" lon="6.68931">
        <ele>2303.36780032</ele>
        <time>2020-10-18T07:37:23.009Z</time>
      </trkpt>
      <trkpt lat="45.34853" lon="6.68922">
        <ele>2308.16780032</ele>
        <time>2020-10-18T07:37:37.009Z</time>
      </trkpt>
      <trkpt lat="45.34847" lon="6.68913">
        <ele>2310.28390016</ele>
        <time>2020-10-18T07:37:49.009Z</time>
      </trkpt>
      <trkpt lat="45.34838" lon="6.68916">
        <ele>2311.38390016</ele>
        <time>2020-10-18T07:38:00.009Z</time>
      </trkpt>
      <trkpt lat="45.34831" lon="6.68907">
        <ele>2312.76780032</ele>
        <time>2020-10-18T07:38:10.009Z</time>
      </trkpt>
      <trkpt lat="45.34824" lon="6.68898">
        <ele>2314.28390016</ele>
        <time>2020-10-18T07:38:19.009Z</time>
      </trkpt>
      <trkpt lat="45.34816" lon="6.68893">
        <ele>2315.36780032</ele>
        <time>2020-10-18T07:38:28.009Z</time>
      </trkpt>
      <trkpt lat="45.34809" lon="6.68886">
        <ele>2317.18390016</ele>
        <time>2020-10-18T07:38:38.009Z</time>
      </trkpt>
      <trkpt lat="45.34804" lon="6.68875">
        <ele>2318.38390016</ele>
        <time>2020-10-18T07:38:50.009Z</time>
      </trkpt>
      <trkpt lat="45.34806" lon="6.6887">
        <ele>2319.88390016</ele>
        <time>2020-10-18T07:39:05.009Z</time>
      </trkpt>
      <trkpt lat="45.34813" lon="6.68859">
        <ele>2319.88390016</ele>
        <time>2020-10-18T07:39:35.009Z</time>
      </trkpt>
      <trkpt lat="45.34823" lon="6.68857">
        <ele>2324.75170048</ele>
        <time>2020-10-18T07:39:52.009Z</time>
      </trkpt>
      <trkpt lat="45.34834" lon="6.68855">
        <ele>2326.58390016</ele>
        <time>2020-10-18T07:40:02.009Z</time>
      </trkpt>
      <trkpt lat="45.34844" lon="6.68853">
        <ele>2328.16780032</ele>
        <time>2020-10-18T07:40:12.009Z</time>
      </trkpt>
      <trkpt lat="45.34854" lon="6.68853">
        <ele>2330.36780032</ele>
        <time>2020-10-18T07:40:23.009Z</time>
      </trkpt>
      <trkpt lat="45.34863" lon="6.68846">
        <ele>2331.78390016</ele>
        <time>2020-10-18T07:40:34.009Z</time>
      </trkpt>
      <trkpt lat="45.34871" lon="6.68835">
        <ele>2332.98390016</ele>
        <time>2020-10-18T07:40:46.009Z</time>
      </trkpt>
      <trkpt lat="45.3488" lon="6.6883">
        <ele>2335.36780032</ele>
        <time>2020-10-18T07:41:03.009Z</time>
      </trkpt>
      <trkpt lat="45.34891" lon="6.68831">
        <ele>2337.56780032</ele>
        <time>2020-10-18T07:41:14.009Z</time>
      </trkpt>
      <trkpt lat="45.34901" lon="6.6883">
        <ele>2339.56780032</ele>
        <time>2020-10-18T07:41:24.009Z</time>
      </trkpt>
      <trkpt lat="45.34911" lon="6.68832">
        <ele>2342.65170048</ele>
        <time>2020-10-18T07:41:35.009Z</time>
      </trkpt>
      <trkpt lat="45.34906" lon="6.6882">
        <ele>2348.16780032</ele>
        <time>2020-10-18T07:42:07.009Z</time>
      </trkpt>
      <trkpt lat="45.34916" lon="6.68815">
        <ele>2352.76780032</ele>
        <time>2020-10-18T07:42:35.009Z</time>
      </trkpt>
      <trkpt lat="45.34926" lon="6.68819">
        <ele>2353.98390016</ele>
        <time>2020-10-18T07:42:46.009Z</time>
      </trkpt>
      <trkpt lat="45.34935" lon="6.68826">
        <ele>2356.16780032</ele>
        <time>2020-10-18T07:42:57.009Z</time>
      </trkpt>
      <trkpt lat="45.34943" lon="6.68836">
        <ele>2358.28390016</ele>
        <time>2020-10-18T07:43:09.009Z</time>
      </trkpt>
      <trkpt lat="45.3495" lon="6.68845">
        <ele>2360.45170048</ele>
        <time>2020-10-18T07:43:21.009Z</time>
      </trkpt>
      <trkpt lat="45.34959" lon="6.68853">
        <ele>2362.68390016</ele>
        <time>2020-10-18T07:43:33.009Z</time>
      </trkpt>
      <trkpt lat="45.34967" lon="6.68856">
        <ele>2363.78390016</ele>
        <time>2020-10-18T07:43:44.009Z</time>
      </trkpt>
      <trkpt lat="45.34978" lon="6.68859">
        <ele>2364.98390016</ele>
        <time>2020-10-18T07:43:56.009Z</time>
      </trkpt>
      <trkpt lat="45.34988" lon="6.68859">
        <ele>2366.38390016</ele>
        <time>2020-10-18T07:44:10.009Z</time>
      </trkpt>
      <trkpt lat="45.34998" lon="6.68864">
        <ele>2367.88390016</ele>
        <time>2020-10-18T07:44:25.009Z</time>
      </trkpt>
      <trkpt lat="45.35005" lon="6.68875">
        <ele>2370.08390016</ele>
        <time>2020-10-18T07:44:37.009Z</time>
      </trkpt>
      <trkpt lat="45.35015" lon="6.68877">
        <ele>2371.55170048</ele>
        <time>2020-10-18T07:44:48.009Z</time>
      </trkpt>
      <trkpt lat="45.35024" lon="6.68885">
        <ele>2375.45170048</ele>
        <time>2020-10-18T07:45:01.009Z</time>
      </trkpt>
      <trkpt lat="45.35031" lon="6.68895">
        <ele>2378.16780032</ele>
        <time>2020-10-18T07:45:12.009Z</time>
      </trkpt>
      <trkpt lat="45.35029" lon="6.68882">
        <ele>2380</ele>
        <time>2020-10-18T07:45:33.009Z</time>
      </trkpt>
      <trkpt lat="45.35028" lon="6.68868">
        <ele>2381.96780032</ele>
        <time>2020-10-18T07:45:46.009Z</time>
      </trkpt>
      <trkpt lat="45.35021" lon="6.68859">
        <ele>2384.96780032</ele>
        <time>2020-10-18T07:46:01.009Z</time>
      </trkpt>
      <trkpt lat="45.35017" lon="6.6885">
        <ele>2386.48390016</ele>
        <time>2020-10-18T07:46:11.009Z</time>
      </trkpt>
      <trkpt lat="45.35018" lon="6.68838">
        <ele>2387</ele>
        <time>2020-10-18T07:46:23.009Z</time>
      </trkpt>
      <trkpt lat="45.35022" lon="6.68828">
        <ele>2388.76780032</ele>
        <time>2020-10-18T07:46:35.009Z</time>
      </trkpt>
      <trkpt lat="45.35029" lon="6.68817">
        <ele>2390.56780032</ele>
        <time>2020-10-18T07:46:49.009Z</time>
      </trkpt>
      <trkpt lat="45.35033" lon="6.68807">
        <ele>2392.48390016</ele>
        <time>2020-10-18T07:47:01.009Z</time>
      </trkpt>
      <trkpt lat="45.35037" lon="6.68797">
        <ele>2393.96780032</ele>
        <time>2020-10-18T07:47:11.009Z</time>
      </trkpt>
      <trkpt lat="45.35043" lon="6.68789">
        <ele>2395.6832171615</ele>
        <time>2020-10-18T07:47:23.009Z</time>
      </trkpt>
      <trkpt lat="45.35049" lon="6.68781">
        <ele>2396.6835838451</ele>
        <time>2020-10-18T07:47:33.009Z</time>
      </trkpt>
      <trkpt lat="45.35058" lon="6.68773">
        <ele>2397.88390016</ele>
        <time>2020-10-18T07:47:45.009Z</time>
      </trkpt>
      <trkpt lat="45.35064" lon="6.68767">
        <ele>2398</ele>
        <time>2020-10-18T07:47:54.009Z</time>
      </trkpt>
      <trkpt lat="45.35068" lon="6.68758">
        <ele>2400.18390016</ele>
        <time>2020-10-18T07:48:08.009Z</time>
      </trkpt>
      <trkpt lat="45.3507" lon="6.68753">
        <ele>2402.88390016</ele>
        <time>2020-10-18T07:48:45.009Z</time>
      </trkpt>
      <trkpt lat="45.35079" lon="6.68747">
        <ele>2401.36780032</ele>
        <time>2020-10-18T07:48:58.009Z</time>
      </trkpt>
      <trkpt lat="45.35083" lon="6.6876">
        <ele>2401</ele>
        <time>2020-10-18T07:49:30.009Z</time>
      </trkpt>
      <trkpt lat="45.35089" lon="6.68747">
        <ele>2403.61609984</ele>
        <time>2020-10-18T07:50:30.009Z</time>
      </trkpt>
      <trkpt lat="45.35095" lon="6.68735">
        <ele>2403.48390016</ele>
        <time>2020-10-18T07:50:41.009Z</time>
      </trkpt>
      <trkpt lat="45.35102" lon="6.68724">
        <ele>2404.536636819</ele>
        <time>2020-10-18T07:50:52.009Z</time>
      </trkpt>
      <trkpt lat="45.35112" lon="6.68723">
        <ele>2405.88390016</ele>
        <time>2020-10-18T07:51:05.009Z</time>
      </trkpt>
      <trkpt lat="45.3512" lon="6.68724">
        <ele>2405.68390016</ele>
        <time>2020-10-18T07:51:23.009Z</time>
      </trkpt>
      <trkpt lat="45.35128" lon="6.68716">
        <ele>2407.96780032</ele>
        <time>2020-10-18T07:51:41.009Z</time>
      </trkpt>
      <trkpt lat="45.35137" lon="6.68713">
        <ele>2410.56780032</ele>
        <time>2020-10-18T07:51:54.009Z</time>
      </trkpt>
      <trkpt lat="45.3514" lon="6.68709">
        <ele>2411.68390016</ele>
        <time>2020-10-18T07:52:03.009Z</time>
      </trkpt>
      <trkpt lat="45.35131" lon="6.68705">
        <ele>2415.25170048</ele>
        <time>2020-10-18T07:52:17.009Z</time>
      </trkpt>
      <trkpt lat="45.35126" lon="6.68695">
        <ele>2418.38390016</ele>
        <time>2020-10-18T07:52:30.009Z</time>
      </trkpt>
      <trkpt lat="45.35127" lon="6.68681">
        <ele>2421.1837165023</ele>
        <time>2020-10-18T07:52:48.009Z</time>
      </trkpt>
      <trkpt lat="45.35129" lon="6.6867">
        <ele>2422.2831835729</ele>
        <time>2020-10-18T07:52:59.009Z</time>
      </trkpt>
      <trkpt lat="45.35135" lon="6.68658">
        <ele>2424.56780032</ele>
        <time>2020-10-18T07:53:14.009Z</time>
      </trkpt>
      <trkpt lat="45.35143" lon="6.6865">
        <ele>2426.16780032</ele>
        <time>2020-10-18T07:53:27.009Z</time>
      </trkpt>
      <trkpt lat="45.35152" lon="6.68643">
        <ele>2428.96780032</ele>
        <time>2020-10-18T07:53:41.009Z</time>
      </trkpt>
      <trkpt lat="45.35162" lon="6.68638">
        <ele>2430</ele>
        <time>2020-10-18T07:53:53.009Z</time>
      </trkpt>
      <trkpt lat="45.35171" lon="6.68633">
        <ele>2432.36780032</ele>
        <time>2020-10-18T07:54:13.009Z</time>
      </trkpt>
      <trkpt lat="45.35177" lon="6.68628">
        <ele>2433.88390016</ele>
        <time>2020-10-18T07:54:25.009Z</time>
      </trkpt>
      <trkpt lat="45.35185" lon="6.68619">
        <ele>2436.28390016</ele>
        <time>2020-10-18T07:54:39.009Z</time>
      </trkpt>
      <trkpt lat="45.35192" lon="6.68612">
        <ele>2442.36780032</ele>
        <time>2020-10-18T07:55:03.009Z</time>
      </trkpt>
      <trkpt lat="45.35198" lon="6.68599">
        <ele>2446.76780032</ele>
        <time>2020-10-18T07:55:40.009Z</time>
      </trkpt>
      <trkpt lat="45.35202" lon="6.68591">
        <ele>2448.56780032</ele>
        <time>2020-10-18T07:55:49.009Z</time>
      </trkpt>
      <trkpt lat="45.35206" lon="6.68583">
        <ele>2450</ele>
        <time>2020-10-18T07:55:58.009Z</time>
      </trkpt>
      <trkpt lat="45.35212" lon="6.68576">
        <ele>2450</ele>
        <time>2020-10-18T07:56:08.009Z</time>
      </trkpt>
      <trkpt lat="45.35218" lon="6.68572">
        <ele>2451.56780032</ele>
        <time>2020-10-18T07:56:24.009Z</time>
      </trkpt>
      <trkpt lat="45.3522" lon="6.68568">
        <ele>2452.38390016</ele>
        <time>2020-10-18T07:56:30.009Z</time>
      </trkpt>
      <trkpt lat="45.35224" lon="6.68561">
        <ele>2453</ele>
        <time>2020-10-18T07:56:37.009Z</time>
      </trkpt>
      <trkpt lat="45.35231" lon="6.68552">
        <ele>2453.36780032</ele>
        <time>2020-10-18T07:56:48.009Z</time>
      </trkpt>
      <trkpt lat="45.3524" lon="6.68546">
        <ele>2455.76780032</ele>
        <time>2020-10-18T07:57:00.009Z</time>
      </trkpt>
      <trkpt lat="45.3525" lon="6.68543">
        <ele>2458.96780032</ele>
        <time>2020-10-18T07:57:16.009Z</time>
      </trkpt>
      <trkpt lat="45.3526" lon="6.68535">
        <ele>2461.28390016</ele>
        <time>2020-10-18T07:57:29.009Z</time>
      </trkpt>
      <trkpt lat="45.35269" lon="6.68529">
        <ele>2462.48390016</ele>
        <time>2020-10-18T07:57:41.009Z</time>
      </trkpt>
      <trkpt lat="45.3528" lon="6.68527">
        <ele>2464.28390016</ele>
        <time>2020-10-18T07:59:19.009Z</time>
      </trkpt>
      <trkpt lat="45.35289" lon="6.68521">
        <ele>2465.68390016</ele>
        <time>2020-10-18T07:59:33.009Z</time>
      </trkpt>
      <trkpt lat="45.35294" lon="6.68508">
        <ele>2468.96780032</ele>
        <time>2020-10-18T07:59:56.009Z</time>
      </trkpt>
      <trkpt lat="45.35291" lon="6.68494">
        <ele>2470.48390016</ele>
        <time>2020-10-18T08:00:11.009Z</time>
      </trkpt>
      <trkpt lat="45.35301" lon="6.68498">
        <ele>2473.56780032</ele>
        <time>2020-10-18T08:00:29.009Z</time>
      </trkpt>
      <trkpt lat="45.35308" lon="6.68486">
        <ele>2480.16780032</ele>
        <time>2020-10-18T08:01:02.009Z</time>
      </trkpt>
      <trkpt lat="45.35312" lon="6.68473">
        <ele>2483.05170048</ele>
        <time>2020-10-18T08:01:13.009Z</time>
      </trkpt>
      <trkpt lat="45.35316" lon="6.6846">
        <ele>2487.16780032</ele>
        <time>2020-10-18T08:01:27.009Z</time>
      </trkpt>
      <trkpt lat="45.35317" lon="6.68445">
        <ele>2489.38390016</ele>
        <time>2020-10-18T08:01:40.009Z</time>
      </trkpt>
      <trkpt lat="45.35326" lon="6.68453">
        <ele>2489</ele>
        <time>2020-10-18T08:02:06.009Z</time>
      </trkpt>
      <trkpt lat="45.3533" lon="6.68467">
        <ele>2489.36780032</ele>
        <time>2020-10-18T08:02:18.009Z</time>
      </trkpt>
      <trkpt lat="45.35338" lon="6.68477">
        <ele>2491.98390016</ele>
        <time>2020-10-18T08:02:36.009Z</time>
      </trkpt>
      <trkpt lat="45.35346" lon="6.68487">
        <ele>2494.28390016</ele>
        <time>2020-10-18T08:02:49.009Z</time>
      </trkpt>
      <trkpt lat="45.35354" lon="6.68496">
        <ele>2496.93560064</ele>
        <time>2020-10-18T08:03:01.009Z</time>
      </trkpt>
      <trkpt lat="45.35352" lon="6.68481">
        <ele>2500.56780032</ele>
        <time>2020-10-18T08:03:19.009Z</time>
      </trkpt>
      <trkpt lat="45.35351" lon="6.68467">
        <ele>2504.05170048</ele>
        <time>2020-10-18T08:03:33.009Z</time>
      </trkpt>
      <trkpt lat="45.35357" lon="6.68456">
        <ele>2503</ele>
        <time>2020-10-18T08:04:30.009Z</time>
      </trkpt>
      <trkpt lat="45.35356" lon="6.68441">
        <ele>2505.76780032</ele>
        <time>2020-10-18T08:04:55.009Z</time>
      </trkpt>
      <trkpt lat="45.35354" lon="6.68427">
        <ele>2508.36780032</ele>
        <time>2020-10-18T08:05:08.009Z</time>
      </trkpt>
      <trkpt lat="45.35354" lon="6.68413">
        <ele>2513.13560064</ele>
        <time>2020-10-18T08:05:24.009Z</time>
      </trkpt>
      <trkpt lat="45.35352" lon="6.68399">
        <ele>2517.93560064</ele>
        <time>2020-10-18T08:05:36.009Z</time>
      </trkpt>
      <trkpt lat="45.35351" lon="6.68384">
        <ele>2518.85170048</ele>
        <time>2020-10-18T08:05:59.009Z</time>
      </trkpt>
      <trkpt lat="45.35344" lon="6.68377">
        <ele>2522.76780032</ele>
        <time>2020-10-18T08:06:15.009Z</time>
      </trkpt>
      <trkpt lat="45.3534" lon="6.68364">
        <ele>2525</ele>
        <time>2020-10-18T08:06:33.009Z</time>
      </trkpt>
      <trkpt lat="45.35336" lon="6.68351">
        <ele>2527</ele>
        <time>2020-10-18T08:07:37.009Z</time>
      </trkpt>
      <trkpt lat="45.35337" lon="6.68336">
        <ele>2527.25170048</ele>
        <time>2020-10-18T08:07:47.009Z</time>
      </trkpt>
      <trkpt lat="45.35336" lon="6.68321">
        <ele>2529.35170048</ele>
        <time>2020-10-18T08:07:54.009Z</time>
      </trkpt>
      <trkpt lat="45.35333" lon="6.68307">
        <ele>2533.85170048</ele>
        <time>2020-10-18T08:08:09.009Z</time>
      </trkpt>
      <trkpt lat="45.35333" lon="6.68293">
        <ele>2535</ele>
        <time>2020-10-18T08:08:53.009Z</time>
      </trkpt>
      <trkpt lat="45.35331" lon="6.68296">
        <ele>2537</ele>
        <time>2020-10-18T08:14:37.009Z</time>
      </trkpt>
      <trkpt lat="45.35333" lon="6.68292">
        <ele>2537</ele>
        <time>2020-10-18T08:15:20.009Z</time>
      </trkpt>
      <trkpt lat="45.35342" lon="6.68287">
        <ele>2536.61609984</ele>
        <time>2020-10-18T08:15:33.009Z</time>
      </trkpt>
      <trkpt lat="45.35351" lon="6.68278">
        <ele>2535.41609984</ele>
        <time>2020-10-18T08:15:45.009Z</time>
      </trkpt>
      <trkpt lat="45.3536" lon="6.68271">
        <ele>2533.63219968</ele>
        <time>2020-10-18T08:15:56.009Z</time>
      </trkpt>
      <trkpt lat="45.35363" lon="6.68261">
        <ele>2532.23219968</ele>
        <time>2020-10-18T08:16:03.009Z</time>
      </trkpt>
      <trkpt lat="45.35371" lon="6.6825">
        <ele>2530.71609984</ele>
        <time>2020-10-18T08:16:12.009Z</time>
      </trkpt>
      <trkpt lat="45.3538" lon="6.68251">
        <ele>2530.01609984</ele>
        <time>2020-10-18T08:16:19.009Z</time>
      </trkpt>
      <trkpt lat="45.35388" lon="6.68253">
        <ele>2530</ele>
        <time>2020-10-18T08:16:28.009Z</time>
      </trkpt>
      <trkpt lat="45.35397" lon="6.68256">
        <ele>2528.91609984</ele>
        <time>2020-10-18T08:16:40.009Z</time>
      </trkpt>
      <trkpt lat="45.35405" lon="6.68255">
        <ele>2527.61609984</ele>
        <time>2020-10-18T08:16:53.009Z</time>
      </trkpt>
      <trkpt lat="45.35413" lon="6.68251">
        <ele>2526.61609984</ele>
        <time>2020-10-18T08:17:03.009Z</time>
      </trkpt>
      <trkpt lat="45.3542" lon="6.68245">
        <ele>2525.43219968</ele>
        <time>2020-10-18T08:17:12.009Z</time>
      </trkpt>
      <trkpt lat="45.35429" lon="6.68241">
        <ele>2523.91609984</ele>
        <time>2020-10-18T08:17:20.009Z</time>
      </trkpt>
      <trkpt lat="45.35436" lon="6.68239">
        <ele>2523.11609984</ele>
        <time>2020-10-18T08:17:28.009Z</time>
      </trkpt>
      <trkpt lat="45.35444" lon="6.68233">
        <ele>2523</ele>
        <time>2020-10-18T08:17:44.009Z</time>
      </trkpt>
      <trkpt lat="45.35452" lon="6.68225">
        <ele>2522.41609984</ele>
        <time>2020-10-18T08:17:55.009Z</time>
      </trkpt>
      <trkpt lat="45.3546" lon="6.68216">
        <ele>2521.83219968</ele>
        <time>2020-10-18T08:18:10.009Z</time>
      </trkpt>
      <trkpt lat="45.35469" lon="6.6821">
        <ele>2518.83219968</ele>
        <time>2020-10-18T08:18:25.009Z</time>
      </trkpt>
      <trkpt lat="45.35478" lon="6.68205">
        <ele>2515.94829952</ele>
        <time>2020-10-18T08:18:36.009Z</time>
      </trkpt>
      <trkpt lat="45.35487" lon="6.68198">
        <ele>2512.94829952</ele>
        <time>2020-10-18T08:18:46.009Z</time>
      </trkpt>
      <trkpt lat="45.35497" lon="6.68194">
        <ele>2511.41609984</ele>
        <time>2020-10-18T08:18:55.009Z</time>
      </trkpt>
      <trkpt lat="45.35506" lon="6.68194">
        <ele>2511</ele>
        <time>2020-10-18T08:19:03.009Z</time>
      </trkpt>
      <trkpt lat="45.35513" lon="6.68193">
        <ele>2510.91609984</ele>
        <time>2020-10-18T08:19:10.009Z</time>
      </trkpt>
      <trkpt lat="45.35521" lon="6.68193">
        <ele>2510.11609984</ele>
        <time>2020-10-18T08:19:18.009Z</time>
      </trkpt>
      <trkpt lat="45.3553" lon="6.68193">
        <ele>2509.01609984</ele>
        <time>2020-10-18T08:19:29.009Z</time>
      </trkpt>
      <trkpt lat="45.35541" lon="6.68193">
        <ele>2505.51609984</ele>
        <time>2020-10-18T08:21:14.009Z</time>
      </trkpt>
      <trkpt lat="45.35552" lon="6.68191">
        <ele>2504</ele>
        <time>2020-10-18T08:21:56.009Z</time>
      </trkpt>
      <trkpt lat="45.35562" lon="6.68185">
        <ele>2504</ele>
        <time>2020-10-18T08:22:08.009Z</time>
      </trkpt>
      <trkpt lat="45.35571" lon="6.6818">
        <ele>2504</ele>
        <time>2020-10-18T08:22:20.009Z</time>
      </trkpt>
      <trkpt lat="45.35581" lon="6.68183">
        <ele>2503.81609984</ele>
        <time>2020-10-18T08:22:31.009Z</time>
      </trkpt>
      <trkpt lat="45.35589" lon="6.68184">
        <ele>2502</ele>
        <time>2020-10-18T08:22:56.009Z</time>
      </trkpt>
      <trkpt lat="45.356" lon="6.68181">
        <ele>2503.41609984</ele>
        <time>2020-10-18T08:24:15.009Z</time>
      </trkpt>
      <trkpt lat="45.35608" lon="6.68181">
        <ele>2503</ele>
        <time>2020-10-18T08:24:24.009Z</time>
      </trkpt>
      <trkpt lat="45.35617" lon="6.68184">
        <ele>2503</ele>
        <time>2020-10-18T08:24:38.009Z</time>
      </trkpt>
      <trkpt lat="45.35627" lon="6.68185">
        <ele>2504</ele>
        <time>2020-10-18T08:24:51.009Z</time>
      </trkpt>
      <trkpt lat="45.35638" lon="6.68185">
        <ele>2500.34829952</ele>
        <time>2020-10-18T08:25:38.009Z</time>
      </trkpt>
      <trkpt lat="45.35649" lon="6.68184">
        <ele>2498.43219968</ele>
        <time>2020-10-18T08:25:47.009Z</time>
      </trkpt>
      <trkpt lat="45.35659" lon="6.68182">
        <ele>2498.68390016</ele>
        <time>2020-10-18T08:25:56.009Z</time>
      </trkpt>
      <trkpt lat="45.35667" lon="6.68178">
        <ele>2499</ele>
        <time>2020-10-18T08:26:03.009Z</time>
      </trkpt>
      <trkpt lat="45.35677" lon="6.68175">
        <ele>2498.71609984</ele>
        <time>2020-10-18T08:26:12.009Z</time>
      </trkpt>
      <trkpt lat="45.35687" lon="6.68173">
        <ele>2498</ele>
        <time>2020-10-18T08:26:21.009Z</time>
      </trkpt>
      <trkpt lat="45.35697" lon="6.6817">
        <ele>2496.43219968</ele>
        <time>2020-10-18T08:26:37.009Z</time>
      </trkpt>
      <trkpt lat="45.35708" lon="6.68168">
        <ele>2493.11609984</ele>
        <time>2020-10-18T08:27:18.009Z</time>
      </trkpt>
      <trkpt lat="45.35718" lon="6.68169">
        <ele>2493.78390016</ele>
        <time>2020-10-18T08:27:27.009Z</time>
      </trkpt>
      <trkpt lat="45.35726" lon="6.6817">
        <ele>2494</ele>
        <time>2020-10-18T08:27:33.009Z</time>
      </trkpt>
      <trkpt lat="45.35736" lon="6.68173">
        <ele>2495.3671668794</ele>
        <time>2020-10-18T08:27:46.009Z</time>
      </trkpt>
      <trkpt lat="45.35746" lon="6.68173">
        <ele>2496.58390016</ele>
        <time>2020-10-18T08:27:55.009Z</time>
      </trkpt>
      <trkpt lat="45.35757" lon="6.68174">
        <ele>2497.78390016</ele>
        <time>2020-10-18T08:28:07.009Z</time>
      </trkpt>
      <trkpt lat="45.35767" lon="6.68171">
        <ele>2498.48390016</ele>
        <time>2020-10-18T08:28:24.009Z</time>
      </trkpt>
      <trkpt lat="45.35777" lon="6.68173">
        <ele>2498.41609984</ele>
        <time>2020-10-18T08:28:35.009Z</time>
      </trkpt>
      <trkpt lat="45.35785" lon="6.68174">
        <ele>2498</ele>
        <time>2020-10-18T08:29:03.009Z</time>
      </trkpt>
      <trkpt lat="45.35794" lon="6.68166">
        <ele>2495.61609984</ele>
        <time>2020-10-18T08:29:53.009Z</time>
      </trkpt>
      <trkpt lat="45.35805" lon="6.68161">
        <ele>2495.48390016</ele>
        <time>2020-10-18T08:30:04.009Z</time>
      </trkpt>
      <trkpt lat="45.35814" lon="6.68158">
        <ele>2494.01609984</ele>
        <time>2020-10-18T08:30:49.009Z</time>
      </trkpt>
      <trkpt lat="45.35825" lon="6.68159">
        <ele>2493.11609984</ele>
        <time>2020-10-18T08:30:58.009Z</time>
      </trkpt>
      <trkpt lat="45.35836" lon="6.68158">
        <ele>2493</ele>
        <time>2020-10-18T08:31:07.009Z</time>
      </trkpt>
      <trkpt lat="45.35845" lon="6.68163">
        <ele>2492.11609984</ele>
        <time>2020-10-18T08:31:18.009Z</time>
      </trkpt>
      <trkpt lat="45.35855" lon="6.68159">
        <ele>2491.11609984</ele>
        <time>2020-10-18T08:31:48.009Z</time>
      </trkpt>
      <trkpt lat="45.35866" lon="6.6816">
        <ele>2490.31609984</ele>
        <time>2020-10-18T08:31:56.009Z</time>
      </trkpt>
      <trkpt lat="45.35874" lon="6.68169">
        <ele>2488.03219968</ele>
        <time>2020-10-18T08:32:09.009Z</time>
      </trkpt>
      <trkpt lat="45.35884" lon="6.68176">
        <ele>2487</ele>
        <time>2020-10-18T08:32:20.009Z</time>
      </trkpt>
      <trkpt lat="45.35894" lon="6.68173">
        <ele>2486.91609984</ele>
        <time>2020-10-18T08:32:30.009Z</time>
      </trkpt>
      <trkpt lat="45.35904" lon="6.68167">
        <ele>2486.11609984</ele>
        <time>2020-10-18T08:32:38.009Z</time>
      </trkpt>
      <trkpt lat="45.35911" lon="6.68157">
        <ele>2481.8340354761</ele>
        <time>2020-10-18T08:33:00.009Z</time>
      </trkpt>
      <trkpt lat="45.3592" lon="6.6815">
        <ele>2480</ele>
        <time>2020-10-18T08:33:11.009Z</time>
      </trkpt>
      <trkpt lat="45.35929" lon="6.68144">
        <ele>2480</ele>
        <time>2020-10-18T08:33:24.009Z</time>
      </trkpt>
      <trkpt lat="45.35937" lon="6.68136">
        <ele>2479.31609984</ele>
        <time>2020-10-18T08:33:36.009Z</time>
      </trkpt>
      <trkpt lat="45.35947" lon="6.68135">
        <ele>2479</ele>
        <time>2020-10-18T08:33:48.009Z</time>
      </trkpt>
      <trkpt lat="45.35955" lon="6.68135">
        <ele>2478.88390016</ele>
        <time>2020-10-18T08:36:18.009Z</time>
      </trkpt>
      <trkpt lat="45.35963" lon="6.68126">
        <ele>2474.83219968</ele>
        <time>2020-10-18T08:41:35.009Z</time>
      </trkpt>
      <trkpt lat="45.35972" lon="6.68118">
        <ele>2472.46439936</ele>
        <time>2020-10-18T08:41:43.009Z</time>
      </trkpt>
      <trkpt lat="45.3598" lon="6.68108">
        <ele>2469.71609984</ele>
        <time>2020-10-18T08:41:52.009Z</time>
      </trkpt>
      <trkpt lat="45.35987" lon="6.68097">
        <ele>2468.44829952</ele>
        <time>2020-10-18T08:42:01.009Z</time>
      </trkpt>
      <trkpt lat="45.35995" lon="6.68087">
        <ele>2465.74829952</ele>
        <time>2020-10-18T08:42:10.009Z</time>
      </trkpt>
      <trkpt lat="45.36003" lon="6.68077">
        <ele>2463.04829952</ele>
        <time>2020-10-18T08:42:19.009Z</time>
      </trkpt>
      <trkpt lat="45.36011" lon="6.68067">
        <ele>2460.34829952</ele>
        <time>2020-10-18T08:42:28.009Z</time>
      </trkpt>
      <trkpt lat="45.36021" lon="6.68061">
        <ele>2459.21609984</ele>
        <time>2020-10-18T08:42:37.009Z</time>
      </trkpt>
      <trkpt lat="45.36029" lon="6.68052">
        <ele>2457.83219968</ele>
        <time>2020-10-18T08:42:55.009Z</time>
      </trkpt>
      <trkpt lat="45.36034" lon="6.68064">
        <ele>2463.83219968</ele>
        <time>2020-10-18T08:44:30.009Z</time>
      </trkpt>
      <trkpt lat="45.36038" lon="6.68077">
        <ele>2461</ele>
        <time>2020-10-18T08:44:54.009Z</time>
      </trkpt>
      <trkpt lat="45.36036" lon="6.68063">
        <ele>2462.18390016</ele>
        <time>2020-10-18T08:46:21.009Z</time>
      </trkpt>
      <trkpt lat="45.3603" lon="6.68052">
        <ele>2462.98390016</ele>
        <time>2020-10-18T08:46:29.009Z</time>
      </trkpt>
      <trkpt lat="45.36038" lon="6.68043">
        <ele>2462.21609984</ele>
        <time>2020-10-18T08:47:57.009Z</time>
      </trkpt>
      <trkpt lat="45.36048" lon="6.68038">
        <ele>2462.88390016</ele>
        <time>2020-10-18T08:48:08.009Z</time>
      </trkpt>
      <trkpt lat="45.36054" lon="6.68027">
        <ele>2464.51609984</ele>
        <time>2020-10-18T08:48:24.009Z</time>
      </trkpt>
      <trkpt lat="45.36058" lon="6.6802">
        <ele>2465.15170048</ele>
        <time>2020-10-18T08:48:33.009Z</time>
      </trkpt>
      <trkpt lat="45.36063" lon="6.68007">
        <ele>2467.68390016</ele>
        <time>2020-10-18T08:48:46.009Z</time>
      </trkpt>
      <trkpt lat="45.36071" lon="6.67997">
        <ele>2468.98390016</ele>
        <time>2020-10-18T08:48:59.009Z</time>
      </trkpt>
      <trkpt lat="45.36078" lon="6.67987">
        <ele>2470</ele>
        <time>2020-10-18T08:49:13.009Z</time>
      </trkpt>
      <trkpt lat="45.36086" lon="6.67977">
        <ele>2470.58390016</ele>
        <time>2020-10-18T08:49:25.009Z</time>
      </trkpt>
      <trkpt lat="45.36094" lon="6.67969">
        <ele>2471.68390016</ele>
        <time>2020-10-18T08:49:36.009Z</time>
      </trkpt>
      <trkpt lat="45.36098" lon="6.67964">
        <ele>2471.61609984</ele>
        <time>2020-10-18T08:50:03.009Z</time>
      </trkpt>
      <trkpt lat="45.36098" lon="6.67964">
        <ele>2472.0012147167</ele>
        <time>2020-10-18T08:50:28.009Z</time>
      </trkpt>
      <trkpt lat="45.36093" lon="6.67962">
        <ele>2474</ele>
        <time>2020-10-18T08:56:29.009Z</time>
      </trkpt>
      <trkpt lat="45.36096" lon="6.67961">
        <ele>2474</ele>
        <time>2020-10-18T08:56:33.009Z</time>
      </trkpt>
      <trkpt lat="45.36104" lon="6.67952">
        <ele>2475.08390016</ele>
        <time>2020-10-18T08:56:48.009Z</time>
      </trkpt>
      <trkpt lat="45.36112" lon="6.67943">
        <ele>2476.4834162796</ele>
        <time>2020-10-18T08:57:02.009Z</time>
      </trkpt>
      <trkpt lat="45.36121" lon="6.67937">
        <ele>2477.6835834397</ele>
        <time>2020-10-18T08:57:14.009Z</time>
      </trkpt>
      <trkpt lat="45.3613" lon="6.6793">
        <ele>2478</ele>
        <time>2020-10-18T08:57:24.009Z</time>
      </trkpt>
      <trkpt lat="45.36139" lon="6.67922">
        <ele>2478</ele>
        <time>2020-10-18T08:57:34.009Z</time>
      </trkpt>
      <trkpt lat="45.36149" lon="6.67916">
        <ele>2478</ele>
        <time>2020-10-18T08:57:45.009Z</time>
      </trkpt>
      <trkpt lat="45.36157" lon="6.67908">
        <ele>2478</ele>
        <time>2020-10-18T08:57:57.009Z</time>
      </trkpt>
      <trkpt lat="45.36168" lon="6.67903">
        <ele>2478.48390016</ele>
        <time>2020-10-18T08:58:12.009Z</time>
      </trkpt>
      <trkpt lat="45.36178" lon="6.67898">
        <ele>2479</ele>
        <time>2020-10-18T08:58:22.009Z</time>
      </trkpt>
      <trkpt lat="45.36188" lon="6.67892">
        <ele>2479</ele>
        <time>2020-10-18T08:58:33.009Z</time>
      </trkpt>
      <trkpt lat="45.36196" lon="6.67885">
        <ele>2479</ele>
        <time>2020-10-18T08:58:45.009Z</time>
      </trkpt>
      <trkpt lat="45.36207" lon="6.67884">
        <ele>2479.88390016</ele>
        <time>2020-10-18T08:58:56.009Z</time>
      </trkpt>
      <trkpt lat="45.36216" lon="6.67878">
        <ele>2480</ele>
        <time>2020-10-18T08:59:07.009Z</time>
      </trkpt>
      <trkpt lat="45.36223" lon="6.67868">
        <ele>2480</ele>
        <time>2020-10-18T08:59:19.009Z</time>
      </trkpt>
      <trkpt lat="45.36232" lon="6.67861">
        <ele>2480.16780032</ele>
        <time>2020-10-18T08:59:28.009Z</time>
      </trkpt>
      <trkpt lat="45.36238" lon="6.67849">
        <ele>2482.16780032</ele>
        <time>2020-10-18T08:59:38.009Z</time>
      </trkpt>
      <trkpt lat="45.36241" lon="6.67835">
        <ele>2484.18390016</ele>
        <time>2020-10-18T08:59:49.009Z</time>
      </trkpt>
      <trkpt lat="45.36248" lon="6.67824">
        <ele>2485</ele>
        <time>2020-10-18T08:59:59.009Z</time>
      </trkpt>
      <trkpt lat="45.36257" lon="6.67817">
        <ele>2485.0652042449</ele>
        <time>2020-10-18T09:00:08.009Z</time>
      </trkpt>
      <trkpt lat="45.36261" lon="6.67811">
        <ele>2486</ele>
        <time>2020-10-18T09:00:33.009Z</time>
      </trkpt>
      <trkpt lat="45.3627" lon="6.67805">
        <ele>2486</ele>
        <time>2020-10-18T09:00:45.009Z</time>
      </trkpt>
      <trkpt lat="45.36279" lon="6.67797">
        <ele>2486</ele>
        <time>2020-10-18T09:00:54.009Z</time>
      </trkpt>
      <trkpt lat="45.36288" lon="6.67789">
        <ele>2486.78390016</ele>
        <time>2020-10-18T09:01:05.009Z</time>
      </trkpt>
      <trkpt lat="45.36298" lon="6.67785">
        <ele>2489.18390016</ele>
        <time>2020-10-18T09:01:19.009Z</time>
      </trkpt>
      <trkpt lat="45.36308" lon="6.67781">
        <ele>2489.71609984</ele>
        <time>2020-10-18T09:01:30.009Z</time>
      </trkpt>
      <trkpt lat="45.36319" lon="6.6778">
        <ele>2489.18390016</ele>
        <time>2020-10-18T09:01:39.009Z</time>
      </trkpt>
      <trkpt lat="45.3633" lon="6.67778">
        <ele>2489.71609984</ele>
        <time>2020-10-18T09:01:50.009Z</time>
      </trkpt>
      <trkpt lat="45.3634" lon="6.67778">
        <ele>2489</ele>
        <time>2020-10-18T09:01:58.009Z</time>
      </trkpt>
      <trkpt lat="45.3635" lon="6.67776">
        <ele>2489</ele>
        <time>2020-10-18T09:02:06.009Z</time>
      </trkpt>
      <trkpt lat="45.3636" lon="6.6777">
        <ele>2489</ele>
        <time>2020-10-18T09:02:23.009Z</time>
      </trkpt>
      <trkpt lat="45.36369" lon="6.67765">
        <ele>2488.41609984</ele>
        <time>2020-10-18T09:02:33.009Z</time>
      </trkpt>
      <trkpt lat="45.36379" lon="6.67762">
        <ele>2488</ele>
        <time>2020-10-18T09:02:43.009Z</time>
      </trkpt>
      <trkpt lat="45.3639" lon="6.67757">
        <ele>2488</ele>
        <time>2020-10-18T09:02:53.009Z</time>
      </trkpt>
      <trkpt lat="45.36399" lon="6.67751">
        <ele>2488</ele>
        <time>2020-10-18T09:03:03.009Z</time>
      </trkpt>
      <trkpt lat="45.36408" lon="6.67749">
        <ele>2487.51609984</ele>
        <time>2020-10-18T09:03:12.009Z</time>
      </trkpt>
      <trkpt lat="45.36418" lon="6.67747">
        <ele>2487</ele>
        <time>2020-10-18T09:03:23.009Z</time>
      </trkpt>
      <trkpt lat="45.36428" lon="6.67746">
        <ele>2487</ele>
        <time>2020-10-18T09:03:36.009Z</time>
      </trkpt>
      <trkpt lat="45.36438" lon="6.67739">
        <ele>2488</ele>
        <time>2020-10-18T09:03:48.009Z</time>
      </trkpt>
      <trkpt lat="45.36447" lon="6.67735">
        <ele>2488</ele>
        <time>2020-10-18T09:04:01.009Z</time>
      </trkpt>
      <trkpt lat="45.36457" lon="6.6774">
        <ele>2487</ele>
        <time>2020-10-18T09:04:48.009Z</time>
      </trkpt>
      <trkpt lat="45.36461" lon="6.67753">
        <ele>2487</ele>
        <time>2020-10-18T09:05:02.009Z</time>
      </trkpt>
      <trkpt lat="45.36471" lon="6.67756">
        <ele>2486.51609984</ele>
        <time>2020-10-18T09:05:12.009Z</time>
      </trkpt>
      <trkpt lat="45.36481" lon="6.67758">
        <ele>2485.51609984</ele>
        <time>2020-10-18T09:05:22.009Z</time>
      </trkpt>
      <trkpt lat="45.36491" lon="6.67754">
        <ele>2484.21609984</ele>
        <time>2020-10-18T09:05:35.009Z</time>
      </trkpt>
      <trkpt lat="45.36502" lon="6.67753">
        <ele>2482.83219968</ele>
        <time>2020-10-18T09:05:43.009Z</time>
      </trkpt>
      <trkpt lat="45.36512" lon="6.67751">
        <ele>2481.51609984</ele>
        <time>2020-10-18T09:05:52.009Z</time>
      </trkpt>
      <trkpt lat="45.36523" lon="6.67748">
        <ele>2480.51609984</ele>
        <time>2020-10-18T09:06:02.009Z</time>
      </trkpt>
      <trkpt lat="45.36533" lon="6.67745">
        <ele>2480</ele>
        <time>2020-10-18T09:06:11.009Z</time>
      </trkpt>
      <trkpt lat="45.36543" lon="6.67741">
        <ele>2479.43219968</ele>
        <time>2020-10-18T09:06:20.009Z</time>
      </trkpt>
      <trkpt lat="45.36553" lon="6.67739">
        <ele>2477.81609984</ele>
        <time>2020-10-18T09:06:29.009Z</time>
      </trkpt>
      <trkpt lat="45.36563" lon="6.67737">
        <ele>2476.81609984</ele>
        <time>2020-10-18T09:06:39.009Z</time>
      </trkpt>
      <trkpt lat="45.36574" lon="6.67736">
        <ele>2475.83219968</ele>
        <time>2020-10-18T09:06:48.009Z</time>
      </trkpt>
      <trkpt lat="45.36584" lon="6.67736">
        <ele>2473.83219968</ele>
        <time>2020-10-18T09:06:58.009Z</time>
      </trkpt>
      <trkpt lat="45.36595" lon="6.67735">
        <ele>2472.03219968</ele>
        <time>2020-10-18T09:07:07.009Z</time>
      </trkpt>
      <trkpt lat="45.36606" lon="6.67737">
        <ele>2468.86439936</ele>
        <time>2020-10-18T09:07:15.009Z</time>
      </trkpt>
      <trkpt lat="45.36616" lon="6.67737">
        <ele>2467.31609984</ele>
        <time>2020-10-18T09:07:24.009Z</time>
      </trkpt>
      <trkpt lat="45.36626" lon="6.67735">
        <ele>2465.83219968</ele>
        <time>2020-10-18T09:07:33.009Z</time>
      </trkpt>
      <trkpt lat="45.36636" lon="6.67736">
        <ele>2464.03219968</ele>
        <time>2020-10-18T09:07:42.009Z</time>
      </trkpt>
      <trkpt lat="45.36647" lon="6.67738">
        <ele>2462.51609984</ele>
        <time>2020-10-18T09:07:52.009Z</time>
      </trkpt>
      <trkpt lat="45.36657" lon="6.67739">
        <ele>2462.58390016</ele>
        <time>2020-10-18T09:08:03.009Z</time>
      </trkpt>
      <trkpt lat="45.36667" lon="6.67742">
        <ele>2461.24829952</ele>
        <time>2020-10-18T09:08:13.009Z</time>
      </trkpt>
      <trkpt lat="45.36675" lon="6.67751">
        <ele>2459.51609984</ele>
        <time>2020-10-18T09:08:22.009Z</time>
      </trkpt>
      <trkpt lat="45.36681" lon="6.67762">
        <ele>2458.23219968</ele>
        <time>2020-10-18T09:08:31.009Z</time>
      </trkpt>
      <trkpt lat="45.3669" lon="6.67769">
        <ele>2456.23219968</ele>
        <time>2020-10-18T09:08:41.009Z</time>
      </trkpt>
      <trkpt lat="45.367" lon="6.67771">
        <ele>2455</ele>
        <time>2020-10-18T09:08:50.009Z</time>
      </trkpt>
      <trkpt lat="45.36711" lon="6.6777">
        <ele>2454.61609984</ele>
        <time>2020-10-18T09:09:01.009Z</time>
      </trkpt>
      <trkpt lat="45.36721" lon="6.67767">
        <ele>2453.81609984</ele>
        <time>2020-10-18T09:09:09.009Z</time>
      </trkpt>
      <trkpt lat="45.36731" lon="6.67763">
        <ele>2453</ele>
        <time>2020-10-18T09:09:18.009Z</time>
      </trkpt>
      <trkpt lat="45.36741" lon="6.67759">
        <ele>2452.74829952</ele>
        <time>2020-10-18T09:09:28.009Z</time>
      </trkpt>
      <trkpt lat="45.36751" lon="6.67759">
        <ele>2450.04829952</ele>
        <time>2020-10-18T09:09:37.009Z</time>
      </trkpt>
      <trkpt lat="45.36761" lon="6.67752">
        <ele>2450</ele>
        <time>2020-10-18T09:09:47.009Z</time>
      </trkpt>
      <trkpt lat="45.3677" lon="6.67745">
        <ele>2450</ele>
        <time>2020-10-18T09:09:57.009Z</time>
      </trkpt>
      <trkpt lat="45.3678" lon="6.6774">
        <ele>2449</ele>
        <time>2020-10-18T09:10:08.009Z</time>
      </trkpt>
      <trkpt lat="45.36791" lon="6.6774">
        <ele>2449</ele>
        <time>2020-10-18T09:10:21.009Z</time>
      </trkpt>
      <trkpt lat="45.36801" lon="6.67744">
        <ele>2448.61609984</ele>
        <time>2020-10-18T09:10:31.009Z</time>
      </trkpt>
      <trkpt lat="45.36811" lon="6.67747">
        <ele>2447.43219968</ele>
        <time>2020-10-18T09:10:40.009Z</time>
      </trkpt>
      <trkpt lat="45.36822" lon="6.67753">
        <ele>2445.43219968</ele>
        <time>2020-10-18T09:10:50.009Z</time>
      </trkpt>
      <trkpt lat="45.36831" lon="6.67758">
        <ele>2443.63219968</ele>
        <time>2020-10-18T09:10:59.009Z</time>
      </trkpt>
      <trkpt lat="45.36841" lon="6.67759">
        <ele>2442</ele>
        <time>2020-10-18T09:11:10.009Z</time>
      </trkpt>
      <trkpt lat="45.36847" lon="6.67762">
        <ele>2441</ele>
        <time>2020-10-18T09:12:01.009Z</time>
      </trkpt>
      <trkpt lat="45.36855" lon="6.67752">
        <ele>2437.51609984</ele>
        <time>2020-10-18T09:17:32.009Z</time>
      </trkpt>
      <trkpt lat="45.36864" lon="6.67743">
        <ele>2436.51609984</ele>
        <time>2020-10-18T09:17:42.009Z</time>
      </trkpt>
      <trkpt lat="45.36871" lon="6.67732">
        <ele>2436</ele>
        <time>2020-10-18T09:17:54.009Z</time>
      </trkpt>
      <trkpt lat="45.36876" lon="6.6772">
        <ele>2436.68390016</ele>
        <time>2020-10-18T09:18:04.009Z</time>
      </trkpt>
      <trkpt lat="45.36882" lon="6.67707">
        <ele>2437</ele>
        <time>2020-10-18T09:18:17.009Z</time>
      </trkpt>
      <trkpt lat="45.36891" lon="6.67703">
        <ele>2435.23219968</ele>
        <time>2020-10-18T09:18:26.009Z</time>
      </trkpt>
      <trkpt lat="45.36902" lon="6.67699">
        <ele>2434.21609984</ele>
        <time>2020-10-18T09:18:35.009Z</time>
      </trkpt>
      <trkpt lat="45.36912" lon="6.67696">
        <ele>2434</ele>
        <time>2020-10-18T09:18:45.009Z</time>
      </trkpt>
      <trkpt lat="45.36921" lon="6.67689">
        <ele>2433.91609984</ele>
        <time>2020-10-18T09:18:58.009Z</time>
      </trkpt>
      <trkpt lat="45.36931" lon="6.67686">
        <ele>2433.01609984</ele>
        <time>2020-10-18T09:19:07.009Z</time>
      </trkpt>
      <trkpt lat="45.36942" lon="6.67688">
        <ele>2433</ele>
        <time>2020-10-18T09:19:16.009Z</time>
      </trkpt>
      <trkpt lat="45.36953" lon="6.67686">
        <ele>2432.11609984</ele>
        <time>2020-10-18T09:19:26.009Z</time>
      </trkpt>
      <trkpt lat="45.36963" lon="6.67682">
        <ele>2431.83219968</ele>
        <time>2020-10-18T09:19:38.009Z</time>
      </trkpt>
      <trkpt lat="45.36974" lon="6.67684">
        <ele>2430.03219968</ele>
        <time>2020-10-18T09:19:47.009Z</time>
      </trkpt>
      <trkpt lat="45.36983" lon="6.67687">
        <ele>2430</ele>
        <time>2020-10-18T09:19:55.009Z</time>
      </trkpt>
      <trkpt lat="45.36994" lon="6.67686">
        <ele>2427.0804992</ele>
        <time>2020-10-18T09:20:03.009Z</time>
      </trkpt>
      <trkpt lat="45.37004" lon="6.67681">
        <ele>2423.84829952</ele>
        <time>2020-10-18T09:20:11.009Z</time>
      </trkpt>
      <trkpt lat="45.37013" lon="6.67675">
        <ele>2421.44829952</ele>
        <time>2020-10-18T09:20:19.009Z</time>
      </trkpt>
      <trkpt lat="45.37017" lon="6.67664">
        <ele>2418.71609984</ele>
        <time>2020-10-18T09:20:30.009Z</time>
      </trkpt>
      <trkpt lat="45.37014" lon="6.67636">
        <ele>2419.12580096</ele>
        <time>2020-10-18T09:21:08.009Z</time>
      </trkpt>
      <trkpt lat="45.37006" lon="6.67626">
        <ele>2421.1284994064</ele>
        <time>2020-10-18T09:21:18.009Z</time>
      </trkpt>
      <trkpt lat="45.37013" lon="6.67644">
        <ele>2422.5585295825</ele>
        <time>2020-10-18T09:21:25.009Z</time>
      </trkpt>
      <trkpt lat="45.37015" lon="6.67658">
        <ele>2421.54829952</ele>
        <time>2020-10-18T09:21:32.009Z</time>
      </trkpt>
      <trkpt lat="45.37022" lon="6.6767">
        <ele>2420</ele>
        <time>2020-10-18T09:21:42.009Z</time>
      </trkpt>
      <trkpt lat="45.37033" lon="6.6767">
        <ele>2419.71609984</ele>
        <time>2020-10-18T09:21:50.009Z</time>
      </trkpt>
      <trkpt lat="45.37043" lon="6.67667">
        <ele>2418.14829952</ele>
        <time>2020-10-18T09:22:00.009Z</time>
      </trkpt>
      <trkpt lat="45.37054" lon="6.6767">
        <ele>2413.11609984</ele>
        <time>2020-10-18T09:22:36.009Z</time>
      </trkpt>
      <trkpt lat="45.37063" lon="6.67677">
        <ele>2410.01609984</ele>
        <time>2020-10-18T09:22:57.009Z</time>
      </trkpt>
      <trkpt lat="45.37071" lon="6.67677">
        <ele>2406</ele>
        <time>2020-10-18T09:23:08.009Z</time>
      </trkpt>
      <trkpt lat="45.37082" lon="6.67675">
        <ele>2402.23219968</ele>
        <time>2020-10-18T09:23:46.009Z</time>
      </trkpt>
      <trkpt lat="45.37093" lon="6.67677">
        <ele>2402.98390016</ele>
        <time>2020-10-18T09:23:57.009Z</time>
      </trkpt>
      <trkpt lat="45.37102" lon="6.67679">
        <ele>2403</ele>
        <time>2020-10-18T09:24:06.009Z</time>
      </trkpt>
      <trkpt lat="45.37113" lon="6.67684">
        <ele>2403</ele>
        <time>2020-10-18T09:24:17.009Z</time>
      </trkpt>
      <trkpt lat="45.37123" lon="6.67687">
        <ele>2403</ele>
        <time>2020-10-18T09:24:27.009Z</time>
      </trkpt>
      <trkpt lat="45.37133" lon="6.67681">
        <ele>2403</ele>
        <time>2020-10-18T09:24:37.009Z</time>
      </trkpt>
      <trkpt lat="45.37136" lon="6.67667">
        <ele>2403</ele>
        <time>2020-10-18T09:24:46.009Z</time>
      </trkpt>
      <trkpt lat="45.37144" lon="6.67658">
        <ele>2403</ele>
        <time>2020-10-18T09:24:56.009Z</time>
      </trkpt>
      <trkpt lat="45.37152" lon="6.6765">
        <ele>2403</ele>
        <time>2020-10-18T09:25:06.009Z</time>
      </trkpt>
      <trkpt lat="45.37163" lon="6.67647">
        <ele>2403</ele>
        <time>2020-10-18T09:25:16.009Z</time>
      </trkpt>
      <trkpt lat="45.37173" lon="6.67645">
        <ele>2402.21609984</ele>
        <time>2020-10-18T09:25:25.009Z</time>
      </trkpt>
      <trkpt lat="45.37184" lon="6.67645">
        <ele>2402</ele>
        <time>2020-10-18T09:25:35.009Z</time>
      </trkpt>
      <trkpt lat="45.37194" lon="6.67644">
        <ele>2402</ele>
        <time>2020-10-18T09:25:46.009Z</time>
      </trkpt>
      <trkpt lat="45.37204" lon="6.67642">
        <ele>2402</ele>
        <time>2020-10-18T09:25:58.009Z</time>
      </trkpt>
      <trkpt lat="45.37214" lon="6.67637">
        <ele>2401.51609984</ele>
        <time>2020-10-18T09:26:12.009Z</time>
      </trkpt>
      <trkpt lat="45.3722" lon="6.67624">
        <ele>2401</ele>
        <time>2020-10-18T09:26:21.009Z</time>
      </trkpt>
      <trkpt lat="45.37225" lon="6.67612">
        <ele>2400.71609984</ele>
        <time>2020-10-18T09:26:30.009Z</time>
      </trkpt>
      <trkpt lat="45.37233" lon="6.67604">
        <ele>2400.18390016</ele>
        <time>2020-10-18T09:26:39.009Z</time>
      </trkpt>
      <trkpt lat="45.3724" lon="6.67596">
        <ele>2400.91609984</ele>
        <time>2020-10-18T09:26:48.009Z</time>
      </trkpt>
      <trkpt lat="45.3725" lon="6.67588">
        <ele>2399.81609984</ele>
        <time>2020-10-18T09:26:59.009Z</time>
      </trkpt>
      <trkpt lat="45.37258" lon="6.6758">
        <ele>2399</ele>
        <time>2020-10-18T09:27:09.009Z</time>
      </trkpt>
      <trkpt lat="45.37263" lon="6.67568">
        <ele>2401.38390016</ele>
        <time>2020-10-18T09:27:31.009Z</time>
      </trkpt>
      <trkpt lat="45.37268" lon="6.67555">
        <ele>2402.78390016</ele>
        <time>2020-10-18T09:27:45.009Z</time>
      </trkpt>
      <trkpt lat="45.37278" lon="6.67555">
        <ele>2402.01609984</ele>
        <time>2020-10-18T09:29:47.009Z</time>
      </trkpt>
      <trkpt lat="45.37289" lon="6.67554">
        <ele>2401.11609984</ele>
        <time>2020-10-18T09:29:56.009Z</time>
      </trkpt>
      <trkpt lat="45.373" lon="6.67555">
        <ele>2401</ele>
        <time>2020-10-18T09:30:05.009Z</time>
      </trkpt>
      <trkpt lat="45.3731" lon="6.67554">
        <ele>2400.21609984</ele>
        <time>2020-10-18T09:30:15.009Z</time>
      </trkpt>
      <trkpt lat="45.3732" lon="6.6755">
        <ele>2400</ele>
        <time>2020-10-18T09:30:25.009Z</time>
      </trkpt>
      <trkpt lat="45.37327" lon="6.67546">
        <ele>2404</ele>
        <time>2020-10-18T09:37:37.009Z</time>
      </trkpt>
      <trkpt lat="45.3732" lon="6.67549">
        <ele>2404</ele>
        <time>2020-10-18T09:37:53.009Z</time>
      </trkpt>
      <trkpt lat="45.37312" lon="6.67554">
        <ele>2403.41609984</ele>
        <time>2020-10-18T09:38:03.009Z</time>
      </trkpt>
      <trkpt lat="45.37304" lon="6.67557">
        <ele>2402.71609984</ele>
        <time>2020-10-18T09:38:10.009Z</time>
      </trkpt>
      <trkpt lat="45.37297" lon="6.67559">
        <ele>2402.11609984</ele>
        <time>2020-10-18T09:38:16.009Z</time>
      </trkpt>
      <trkpt lat="45.37288" lon="6.67558">
        <ele>2401.91609984</ele>
        <time>2020-10-18T09:38:28.009Z</time>
      </trkpt>
      <trkpt lat="45.37278" lon="6.6756">
        <ele>2401</ele>
        <time>2020-10-18T09:38:41.009Z</time>
      </trkpt>
      <trkpt lat="45.3727" lon="6.67549">
        <ele>2401.71609984</ele>
        <time>2020-10-18T09:39:00.009Z</time>
      </trkpt>
      <trkpt lat="45.37268" lon="6.67541">
        <ele>2401.11609984</ele>
        <time>2020-10-18T09:39:06.009Z</time>
      </trkpt>
      <trkpt lat="45.37264" lon="6.67532">
        <ele>2401</ele>
        <time>2020-10-18T09:39:13.009Z</time>
      </trkpt>
      <trkpt lat="45.37258" lon="6.67521">
        <ele>2401</ele>
        <time>2020-10-18T09:39:23.009Z</time>
      </trkpt>
      <trkpt lat="45.37254" lon="6.6751">
        <ele>2401</ele>
        <time>2020-10-18T09:40:03.009Z</time>
      </trkpt>
      <trkpt lat="45.37263" lon="6.67507">
        <ele>2401.91609984</ele>
        <time>2020-10-18T09:40:38.009Z</time>
      </trkpt>
      <trkpt lat="45.3727" lon="6.67498">
        <ele>2401</ele>
        <time>2020-10-18T09:41:07.009Z</time>
      </trkpt>
      <trkpt lat="45.37276" lon="6.67485">
        <ele>2402.08390016</ele>
        <time>2020-10-18T09:41:18.009Z</time>
      </trkpt>
      <trkpt lat="45.37276" lon="6.67471">
        <ele>2402.71609984</ele>
        <time>2020-10-18T09:41:30.009Z</time>
      </trkpt>
      <trkpt lat="45.37268" lon="6.67468">
        <ele>2402</ele>
        <time>2020-10-18T09:41:38.009Z</time>
      </trkpt>
      <trkpt lat="45.3726" lon="6.67464">
        <ele>2401.41609984</ele>
        <time>2020-10-18T09:41:53.009Z</time>
      </trkpt>
      <trkpt lat="45.37251" lon="6.67462">
        <ele>2401</ele>
        <time>2020-10-18T09:42:04.009Z</time>
      </trkpt>
      <trkpt lat="45.37241" lon="6.67459">
        <ele>2402.36780032</ele>
        <time>2020-10-18T09:42:19.009Z</time>
      </trkpt>
      <trkpt lat="45.37231" lon="6.67458">
        <ele>2404</ele>
        <time>2020-10-18T09:42:34.009Z</time>
      </trkpt>
      <trkpt lat="45.37223" lon="6.6746">
        <ele>2405</ele>
        <time>2020-10-18T09:42:48.009Z</time>
      </trkpt>
      <trkpt lat="45.37217" lon="6.67455">
        <ele>2405.58390016</ele>
        <time>2020-10-18T09:43:03.009Z</time>
      </trkpt>
      <trkpt lat="45.37211" lon="6.67445">
        <ele>2410.76780032</ele>
        <time>2020-10-18T09:43:21.009Z</time>
      </trkpt>
      <trkpt lat="45.37205" lon="6.67432">
        <ele>2413.48390016</ele>
        <time>2020-10-18T09:43:42.009Z</time>
      </trkpt>
      <trkpt lat="45.37201" lon="6.6742">
        <ele>2414.68390016</ele>
        <time>2020-10-18T09:43:54.009Z</time>
      </trkpt>
      <trkpt lat="45.37194" lon="6.6741">
        <ele>2415</ele>
        <time>2020-10-18T09:44:07.009Z</time>
      </trkpt>
      <trkpt lat="45.37188" lon="6.67399">
        <ele>2418.35170048</ele>
        <time>2020-10-18T09:44:25.009Z</time>
      </trkpt>
      <trkpt lat="45.37182" lon="6.67396">
        <ele>2419.78390016</ele>
        <time>2020-10-18T09:44:35.009Z</time>
      </trkpt>
      <trkpt lat="45.37172" lon="6.67393">
        <ele>2422.65170048</ele>
        <time>2020-10-18T09:44:46.009Z</time>
      </trkpt>
      <trkpt lat="45.37164" lon="6.67389">
        <ele>2423</ele>
        <time>2020-10-18T09:45:02.009Z</time>
      </trkpt>
      <trkpt lat="45.37153" lon="6.67388">
        <ele>2427</ele>
        <time>2020-10-18T09:45:58.009Z</time>
      </trkpt>
      <trkpt lat="45.37143" lon="6.67387">
        <ele>2427.36780032</ele>
        <time>2020-10-18T09:46:09.009Z</time>
      </trkpt>
      <trkpt lat="45.37135" lon="6.67386">
        <ele>2429.38390016</ele>
        <time>2020-10-18T09:46:21.009Z</time>
      </trkpt>
      <trkpt lat="45.37127" lon="6.67386">
        <ele>2430.48390016</ele>
        <time>2020-10-18T09:46:32.009Z</time>
      </trkpt>
      <trkpt lat="45.37119" lon="6.67387">
        <ele>2432.36780032</ele>
        <time>2020-10-18T09:46:44.009Z</time>
      </trkpt>
      <trkpt lat="45.37112" lon="6.67394">
        <ele>2434</ele>
        <time>2020-10-18T09:47:23.009Z</time>
      </trkpt>
      <trkpt lat="45.37106" lon="6.67401">
        <ele>2434</ele>
        <time>2020-10-18T09:47:34.009Z</time>
      </trkpt>
      <trkpt lat="45.37099" lon="6.67409">
        <ele>2434</ele>
        <time>2020-10-18T09:47:42.009Z</time>
      </trkpt>
      <trkpt lat="45.37089" lon="6.67413">
        <ele>2434</ele>
        <time>2020-10-18T09:47:53.009Z</time>
      </trkpt>
      <trkpt lat="45.3708" lon="6.67413">
        <ele>2434</ele>
        <time>2020-10-18T09:48:03.009Z</time>
      </trkpt>
      <trkpt lat="45.37074" lon="6.67416">
        <ele>2434</ele>
        <time>2020-10-18T09:48:11.009Z</time>
      </trkpt>
      <trkpt lat="45.37068" lon="6.67419">
        <ele>2434.08390016</ele>
        <time>2020-10-18T09:48:18.009Z</time>
      </trkpt>
      <trkpt lat="45.37058" lon="6.67423">
        <ele>2435</ele>
        <time>2020-10-18T09:48:29.009Z</time>
      </trkpt>
      <trkpt lat="45.37052" lon="6.67425">
        <ele>2435</ele>
        <time>2020-10-18T09:48:39.009Z</time>
      </trkpt>
      <trkpt lat="45.37045" lon="6.67423">
        <ele>2435.48390016</ele>
        <time>2020-10-18T09:48:52.009Z</time>
      </trkpt>
      <trkpt lat="45.37035" lon="6.67425">
        <ele>2438.56780032</ele>
        <time>2020-10-18T09:49:15.009Z</time>
      </trkpt>
      <trkpt lat="45.37025" lon="6.67429">
        <ele>2441.18390016</ele>
        <time>2020-10-18T09:49:39.009Z</time>
      </trkpt>
      <trkpt lat="45.37014" lon="6.67427">
        <ele>2442.78390016</ele>
        <time>2020-10-18T09:49:55.009Z</time>
      </trkpt>
      <trkpt lat="45.37004" lon="6.6743">
        <ele>2444.36780032</ele>
        <time>2020-10-18T09:50:09.009Z</time>
      </trkpt>
      <trkpt lat="45.36995" lon="6.67437">
        <ele>2446.18390016</ele>
        <time>2020-10-18T09:50:19.009Z</time>
      </trkpt>
      <trkpt lat="45.36984" lon="6.6744">
        <ele>2447.48390016</ele>
        <time>2020-10-18T09:50:32.009Z</time>
      </trkpt>
      <trkpt lat="45.36974" lon="6.6744">
        <ele>2448.18390016</ele>
        <time>2020-10-18T09:50:49.009Z</time>
      </trkpt>
      <trkpt lat="45.36966" lon="6.67442">
        <ele>2449.48390016</ele>
        <time>2020-10-18T09:51:02.009Z</time>
      </trkpt>
      <trkpt lat="45.36957" lon="6.67443">
        <ele>2450.16780032</ele>
        <time>2020-10-18T09:51:18.009Z</time>
      </trkpt>
      <trkpt lat="45.3695" lon="6.67448">
        <ele>2452.56780032</ele>
        <time>2020-10-18T09:51:30.009Z</time>
      </trkpt>
      <trkpt lat="45.36943" lon="6.67451">
        <ele>2456.45170048</ele>
        <time>2020-10-18T09:51:52.009Z</time>
      </trkpt>
      <trkpt lat="45.36937" lon="6.67456">
        <ele>2458.68390016</ele>
        <time>2020-10-18T09:52:04.009Z</time>
      </trkpt>
      <trkpt lat="45.3693" lon="6.67461">
        <ele>2460.85170048</ele>
        <time>2020-10-18T09:52:20.009Z</time>
      </trkpt>
      <trkpt lat="45.36923" lon="6.67462">
        <ele>2464.36780032</ele>
        <time>2020-10-18T09:52:34.009Z</time>
      </trkpt>
      <trkpt lat="45.36916" lon="6.67461">
        <ele>2465.76780032</ele>
        <time>2020-10-18T09:52:51.009Z</time>
      </trkpt>
      <trkpt lat="45.36906" lon="6.67464">
        <ele>2469.28390016</ele>
        <time>2020-10-18T09:53:10.009Z</time>
      </trkpt>
      <trkpt lat="45.36898" lon="6.67463">
        <ele>2471.96780032</ele>
        <time>2020-10-18T09:53:27.009Z</time>
      </trkpt>
      <trkpt lat="45.36891" lon="6.67453">
        <ele>2476.8761323457</ele>
        <time>2020-10-18T09:56:42.009Z</time>
      </trkpt>
      <trkpt lat="45.36881" lon="6.6746">
        <ele>2473.96780032</ele>
        <time>2020-10-18T09:59:27.009Z</time>
      </trkpt>
      <trkpt lat="45.36874" lon="6.67464">
        <ele>2474</ele>
        <time>2020-10-18T09:59:36.009Z</time>
      </trkpt>
      <trkpt lat="45.36865" lon="6.67472">
        <ele>2474.71609984</ele>
        <time>2020-10-18T09:59:50.009Z</time>
      </trkpt>
      <trkpt lat="45.36858" lon="6.67481">
        <ele>2475.36780032</ele>
        <time>2020-10-18T10:00:04.009Z</time>
      </trkpt>
      <trkpt lat="45.36848" lon="6.67486">
        <ele>2477.96780032</ele>
        <time>2020-10-18T10:00:22.009Z</time>
      </trkpt>
      <trkpt lat="45.36837" lon="6.67488">
        <ele>2480.56780032</ele>
        <time>2020-10-18T10:00:35.009Z</time>
      </trkpt>
      <trkpt lat="45.36827" lon="6.67488">
        <ele>2482.18390016</ele>
        <time>2020-10-18T10:00:49.009Z</time>
      </trkpt>
      <trkpt lat="45.36817" lon="6.6749">
        <ele>2484.76780032</ele>
        <time>2020-10-18T10:01:06.009Z</time>
      </trkpt>
      <trkpt lat="45.36807" lon="6.67493">
        <ele>2487.88390016</ele>
        <time>2020-10-18T10:01:36.009Z</time>
      </trkpt>
      <trkpt lat="45.36797" lon="6.67495">
        <ele>2489.28390016</ele>
        <time>2020-10-18T10:01:50.009Z</time>
      </trkpt>
      <trkpt lat="45.36787" lon="6.67494">
        <ele>2491.18390016</ele>
        <time>2020-10-18T10:02:09.009Z</time>
      </trkpt>
      <trkpt lat="45.36776" lon="6.67495">
        <ele>2494.38390016</ele>
        <time>2020-10-18T10:02:31.009Z</time>
      </trkpt>
      <trkpt lat="45.36768" lon="6.67486">
        <ele>2495.88390016</ele>
        <time>2020-10-18T10:02:46.009Z</time>
      </trkpt>
      <trkpt lat="45.36758" lon="6.67483">
        <ele>2496.98390016</ele>
        <time>2020-10-18T10:02:57.009Z</time>
      </trkpt>
      <trkpt lat="45.36748" lon="6.67482">
        <ele>2497.38390016</ele>
        <time>2020-10-18T10:03:21.009Z</time>
      </trkpt>
      <trkpt lat="45.36738" lon="6.6748">
        <ele>2498</ele>
        <time>2020-10-18T10:03:31.009Z</time>
      </trkpt>
      <trkpt lat="45.36728" lon="6.67475">
        <ele>2498.48390016</ele>
        <time>2020-10-18T10:03:42.009Z</time>
      </trkpt>
      <trkpt lat="45.36717" lon="6.67474">
        <ele>2499.58390016</ele>
        <time>2020-10-18T10:03:53.009Z</time>
      </trkpt>
      <trkpt lat="45.36707" lon="6.67475">
        <ele>2499.51609984</ele>
        <time>2020-10-18T10:04:02.009Z</time>
      </trkpt>
      <trkpt lat="45.36697" lon="6.67471">
        <ele>2498.11609984</ele>
        <time>2020-10-18T10:04:16.009Z</time>
      </trkpt>
      <trkpt lat="45.36689" lon="6.67479">
        <ele>2497</ele>
        <time>2020-10-18T10:04:28.009Z</time>
      </trkpt>
      <trkpt lat="45.36679" lon="6.67481">
        <ele>2497</ele>
        <time>2020-10-18T10:04:39.009Z</time>
      </trkpt>
      <trkpt lat="45.36669" lon="6.67481">
        <ele>2496.71609984</ele>
        <time>2020-10-18T10:04:50.009Z</time>
      </trkpt>
      <trkpt lat="45.36659" lon="6.67478">
        <ele>2496.48390016</ele>
        <time>2020-10-18T10:05:02.009Z</time>
      </trkpt>
      <trkpt lat="45.36649" lon="6.67473">
        <ele>2497.56780032</ele>
        <time>2020-10-18T10:05:20.009Z</time>
      </trkpt>
      <trkpt lat="45.36639" lon="6.67472">
        <ele>2500</ele>
        <time>2020-10-18T10:05:54.009Z</time>
      </trkpt>
      <trkpt lat="45.36634" lon="6.67484">
        <ele>2501.56780032</ele>
        <time>2020-10-18T10:06:10.009Z</time>
      </trkpt>
      <trkpt lat="45.36625" lon="6.67492">
        <ele>2504</ele>
        <time>2020-10-18T10:06:31.009Z</time>
      </trkpt>
      <trkpt lat="45.3662" lon="6.67504">
        <ele>2505.98390016</ele>
        <time>2020-10-18T10:06:57.009Z</time>
      </trkpt>
      <trkpt lat="45.36614" lon="6.67516">
        <ele>2509.68390016</ele>
        <time>2020-10-18T10:07:14.009Z</time>
      </trkpt>
      <trkpt lat="45.36606" lon="6.67518">
        <ele>2512.0013753982</ele>
        <time>2020-10-18T10:07:34.009Z</time>
      </trkpt>
      <trkpt lat="45.36604" lon="6.67522">
        <ele>2517</ele>
        <time>2020-10-18T10:26:54.009Z</time>
      </trkpt>
      <trkpt lat="45.36595" lon="6.67526">
        <ele>2516.01609984</ele>
        <time>2020-10-18T10:27:12.009Z</time>
      </trkpt>
      <trkpt lat="45.36585" lon="6.6753">
        <ele>2514.81609984</ele>
        <time>2020-10-18T10:27:24.009Z</time>
      </trkpt>
      <trkpt lat="45.36579" lon="6.67542">
        <ele>2511.43219968</ele>
        <time>2020-10-18T10:27:45.009Z</time>
      </trkpt>
      <trkpt lat="45.36569" lon="6.67545">
        <ele>2509.81609984</ele>
        <time>2020-10-18T10:27:54.009Z</time>
      </trkpt>
      <trkpt lat="45.36558" lon="6.67544">
        <ele>2508.91609984</ele>
        <time>2020-10-18T10:28:03.009Z</time>
      </trkpt>
      <trkpt lat="45.36549" lon="6.6755">
        <ele>2507.43219968</ele>
        <time>2020-10-18T10:28:15.009Z</time>
      </trkpt>
      <trkpt lat="45.3654" lon="6.67557">
        <ele>2505.74829952</ele>
        <time>2020-10-18T10:28:23.009Z</time>
      </trkpt>
      <trkpt lat="45.36531" lon="6.67565">
        <ele>2503</ele>
        <time>2020-10-18T10:28:33.009Z</time>
      </trkpt>
      <trkpt lat="45.36522" lon="6.67572">
        <ele>2502.91609984</ele>
        <time>2020-10-18T10:28:43.009Z</time>
      </trkpt>
      <trkpt lat="45.36513" lon="6.67577">
        <ele>2501.61609984</ele>
        <time>2020-10-18T10:28:56.009Z</time>
      </trkpt>
      <trkpt lat="45.36504" lon="6.67584">
        <ele>2502</ele>
        <time>2020-10-18T10:29:16.009Z</time>
      </trkpt>
      <trkpt lat="45.36495" lon="6.67583">
        <ele>2505.08390016</ele>
        <time>2020-10-18T10:31:53.009Z</time>
      </trkpt>
      <trkpt lat="45.36485" lon="6.67584">
        <ele>2505.25170048</ele>
        <time>2020-10-18T10:32:23.009Z</time>
      </trkpt>
      <trkpt lat="45.36476" lon="6.67592">
        <ele>2508.78390016</ele>
        <time>2020-10-18T10:32:40.009Z</time>
      </trkpt>
      <trkpt lat="45.36468" lon="6.67602">
        <ele>2510.28390016</ele>
        <time>2020-10-18T10:32:55.009Z</time>
      </trkpt>
      <trkpt lat="45.36458" lon="6.67608">
        <ele>2511.38390016</ele>
        <time>2020-10-18T10:33:06.009Z</time>
      </trkpt>
      <trkpt lat="45.36448" lon="6.67612">
        <ele>2512.58390016</ele>
        <time>2020-10-18T10:33:18.009Z</time>
      </trkpt>
      <trkpt lat="45.36442" lon="6.67604">
        <ele>2514.8837839812</ele>
        <time>2020-10-18T10:36:01.009Z</time>
      </trkpt>
      <trkpt lat="45.36435" lon="6.67615">
        <ele>2511.06439936</ele>
        <time>2020-10-18T10:36:12.009Z</time>
      </trkpt>
      <trkpt lat="45.3643" lon="6.67629">
        <ele>2511</ele>
        <time>2020-10-18T10:36:22.009Z</time>
      </trkpt>
      <trkpt lat="45.36435" lon="6.67637">
        <ele>2510.08390016</ele>
        <time>2020-10-18T10:36:33.009Z</time>
      </trkpt>
      <trkpt lat="45.36442" lon="6.67644">
        <ele>2513</ele>
        <time>2020-10-18T10:38:06.009Z</time>
      </trkpt>
      <trkpt lat="45.36446" lon="6.67657">
        <ele>2513.28390016</ele>
        <time>2020-10-18T10:38:15.009Z</time>
      </trkpt>
      <trkpt lat="45.36444" lon="6.6767">
        <ele>2513.31609984</ele>
        <time>2020-10-18T10:38:29.009Z</time>
      </trkpt>
      <trkpt lat="45.36436" lon="6.67673">
        <ele>2512.23219968</ele>
        <time>2020-10-18T10:38:36.009Z</time>
      </trkpt>
      <trkpt lat="45.36429" lon="6.67686">
        <ele>2507.03219968</ele>
        <time>2020-10-18T10:39:02.009Z</time>
      </trkpt>
      <trkpt lat="45.36425" lon="6.67696">
        <ele>2505.24829952</ele>
        <time>2020-10-18T10:39:08.009Z</time>
      </trkpt>
      <trkpt lat="45.36421" lon="6.67707">
        <ele>2503.14829952</ele>
        <time>2020-10-18T10:39:15.009Z</time>
      </trkpt>
      <trkpt lat="45.36416" lon="6.67715">
        <ele>2501.34829952</ele>
        <time>2020-10-18T10:39:21.009Z</time>
      </trkpt>
      <trkpt lat="45.36413" lon="6.67729">
        <ele>2499.23219968</ele>
        <time>2020-10-18T10:39:31.009Z</time>
      </trkpt>
      <trkpt lat="45.36408" lon="6.67743">
        <ele>2497.43219968</ele>
        <time>2020-10-18T10:39:40.009Z</time>
      </trkpt>
      <trkpt lat="45.36399" lon="6.6775">
        <ele>2493.63219968</ele>
        <time>2020-10-18T10:39:54.009Z</time>
      </trkpt>
      <trkpt lat="45.36389" lon="6.67755">
        <ele>2491.81609984</ele>
        <time>2020-10-18T10:40:04.009Z</time>
      </trkpt>
      <trkpt lat="45.36379" lon="6.67759">
        <ele>2491</ele>
        <time>2020-10-18T10:40:16.009Z</time>
      </trkpt>
      <trkpt lat="45.3637" lon="6.67764">
        <ele>2491</ele>
        <time>2020-10-18T10:40:33.009Z</time>
      </trkpt>
      <trkpt lat="45.36361" lon="6.67771">
        <ele>2491</ele>
        <time>2020-10-18T10:40:44.009Z</time>
      </trkpt>
      <trkpt lat="45.36351" lon="6.67776">
        <ele>2491.18390016</ele>
        <time>2020-10-18T10:40:54.009Z</time>
      </trkpt>
      <trkpt lat="45.36342" lon="6.6778">
        <ele>2491</ele>
        <time>2020-10-18T10:41:15.009Z</time>
      </trkpt>
      <trkpt lat="45.36331" lon="6.67779">
        <ele>2491</ele>
        <time>2020-10-18T10:41:26.009Z</time>
      </trkpt>
      <trkpt lat="45.36321" lon="6.67779">
        <ele>2491</ele>
        <time>2020-10-18T10:41:36.009Z</time>
      </trkpt>
      <trkpt lat="45.36312" lon="6.67786">
        <ele>2491</ele>
        <time>2020-10-18T10:41:49.009Z</time>
      </trkpt>
      <trkpt lat="45.36303" lon="6.67794">
        <ele>2491</ele>
        <time>2020-10-18T10:42:00.009Z</time>
      </trkpt>
      <trkpt lat="45.36298" lon="6.67805">
        <ele>2491</ele>
        <time>2020-10-18T10:42:08.009Z</time>
      </trkpt>
      <trkpt lat="45.36298" lon="6.67817">
        <ele>2491.68390016</ele>
        <time>2020-10-18T10:42:19.009Z</time>
      </trkpt>
      <trkpt lat="45.36303" lon="6.6783">
        <ele>2493</ele>
        <time>2020-10-18T10:42:38.009Z</time>
      </trkpt>
      <trkpt lat="45.36296" lon="6.6784">
        <ele>2494</ele>
        <time>2020-10-18T10:43:29.009Z</time>
      </trkpt>
      <trkpt lat="45.36286" lon="6.67833">
        <ele>2493.41609984</ele>
        <time>2020-10-18T10:43:38.009Z</time>
      </trkpt>
      <trkpt lat="45.36278" lon="6.67825">
        <ele>2493</ele>
        <time>2020-10-18T10:43:47.009Z</time>
      </trkpt>
      <trkpt lat="45.36268" lon="6.6783">
        <ele>2491.24829952</ele>
        <time>2020-10-18T10:43:58.009Z</time>
      </trkpt>
      <trkpt lat="45.36257" lon="6.67832">
        <ele>2489.41609984</ele>
        <time>2020-10-18T10:44:08.009Z</time>
      </trkpt>
      <trkpt lat="45.36247" lon="6.67828">
        <ele>2487.83219968</ele>
        <time>2020-10-18T10:44:18.009Z</time>
      </trkpt>
      <trkpt lat="45.36239" lon="6.67839">
        <ele>2486.41609984</ele>
        <time>2020-10-18T10:44:28.009Z</time>
      </trkpt>
      <trkpt lat="45.36235" lon="6.67852">
        <ele>2485.51609984</ele>
        <time>2020-10-18T10:44:37.009Z</time>
      </trkpt>
      <trkpt lat="45.36228" lon="6.67862">
        <ele>2484.23219968</ele>
        <time>2020-10-18T10:44:46.009Z</time>
      </trkpt>
      <trkpt lat="45.36219" lon="6.67871">
        <ele>2483</ele>
        <time>2020-10-18T10:44:56.009Z</time>
      </trkpt>
      <trkpt lat="45.3621" lon="6.67879">
        <ele>2483</ele>
        <time>2020-10-18T10:45:05.009Z</time>
      </trkpt>
      <trkpt lat="45.36201" lon="6.67884">
        <ele>2482.83219968</ele>
        <time>2020-10-18T10:45:13.009Z</time>
      </trkpt>
      <trkpt lat="45.36191" lon="6.67889">
        <ele>2481.03219968</ele>
        <time>2020-10-18T10:45:22.009Z</time>
      </trkpt>
      <trkpt lat="45.36181" lon="6.67894">
        <ele>2480.01609984</ele>
        <time>2020-10-18T10:45:32.009Z</time>
      </trkpt>
      <trkpt lat="45.36172" lon="6.67901">
        <ele>2480</ele>
        <time>2020-10-18T10:45:42.009Z</time>
      </trkpt>
      <trkpt lat="45.36162" lon="6.67903">
        <ele>2481</ele>
        <time>2020-10-18T10:45:54.009Z</time>
      </trkpt>
      <trkpt lat="45.36152" lon="6.67907">
        <ele>2480.91609984</ele>
        <time>2020-10-18T10:46:03.009Z</time>
      </trkpt>
      <trkpt lat="45.36144" lon="6.67916">
        <ele>2480</ele>
        <time>2020-10-18T10:46:13.009Z</time>
      </trkpt>
      <trkpt lat="45.36135" lon="6.67924">
        <ele>2479.91609984</ele>
        <time>2020-10-18T10:46:23.009Z</time>
      </trkpt>
      <trkpt lat="45.36126" lon="6.67931">
        <ele>2478.91609984</ele>
        <time>2020-10-18T10:46:33.009Z</time>
      </trkpt>
      <trkpt lat="45.36116" lon="6.67937">
        <ele>2478.01609984</ele>
        <time>2020-10-18T10:46:42.009Z</time>
      </trkpt>
      <trkpt lat="45.36107" lon="6.67944">
        <ele>2476.81609984</ele>
        <time>2020-10-18T10:46:54.009Z</time>
      </trkpt>
      <trkpt lat="45.36102" lon="6.67955">
        <ele>2475</ele>
        <time>2020-10-18T10:47:31.009Z</time>
      </trkpt>
      <trkpt lat="45.36094" lon="6.67964">
        <ele>2475</ele>
        <time>2020-10-18T10:47:51.009Z</time>
      </trkpt>
      <trkpt lat="45.36086" lon="6.67974">
        <ele>2474.11609984</ele>
        <time>2020-10-18T10:48:01.009Z</time>
      </trkpt>
      <trkpt lat="45.36077" lon="6.67984">
        <ele>2474</ele>
        <time>2020-10-18T10:48:10.009Z</time>
      </trkpt>
      <trkpt lat="45.3607" lon="6.67995">
        <ele>2472.63219968</ele>
        <time>2020-10-18T10:48:19.009Z</time>
      </trkpt>
      <trkpt lat="45.36063" lon="6.68004">
        <ele>2471.41609984</ele>
        <time>2020-10-18T10:48:28.009Z</time>
      </trkpt>
      <trkpt lat="45.36058" lon="6.68014">
        <ele>2470.21609984</ele>
        <time>2020-10-18T10:48:40.009Z</time>
      </trkpt>
      <trkpt lat="45.36061" lon="6.68028">
        <ele>2470.25170048</ele>
        <time>2020-10-18T10:49:03.009Z</time>
      </trkpt>
      <trkpt lat="45.36053" lon="6.68037">
        <ele>2471.61609984</ele>
        <time>2020-10-18T10:54:26.009Z</time>
      </trkpt>
      <trkpt lat="45.36044" lon="6.68042">
        <ele>2471</ele>
        <time>2020-10-18T10:54:33.009Z</time>
      </trkpt>
      <trkpt lat="45.36035" lon="6.68036">
        <ele>2471</ele>
        <time>2020-10-18T10:56:12.009Z</time>
      </trkpt>
      <trkpt lat="45.36028" lon="6.68048">
        <ele>2478.01609984</ele>
        <time>2020-10-18T10:59:02.009Z</time>
      </trkpt>
      <trkpt lat="45.3602" lon="6.68056">
        <ele>2477.01609984</ele>
        <time>2020-10-18T10:59:12.009Z</time>
      </trkpt>
      <trkpt lat="45.36012" lon="6.68066">
        <ele>2476.01609984</ele>
        <time>2020-10-18T10:59:22.009Z</time>
      </trkpt>
      <trkpt lat="45.36005" lon="6.68077">
        <ele>2475</ele>
        <time>2020-10-18T10:59:33.009Z</time>
      </trkpt>
      <trkpt lat="45.35998" lon="6.68085">
        <ele>2475</ele>
        <time>2020-10-18T10:59:44.009Z</time>
      </trkpt>
      <trkpt lat="45.35991" lon="6.68096">
        <ele>2475</ele>
        <time>2020-10-18T10:59:55.009Z</time>
      </trkpt>
      <trkpt lat="45.35985" lon="6.68107">
        <ele>2475.88390016</ele>
        <time>2020-10-18T11:00:11.009Z</time>
      </trkpt>
      <trkpt lat="45.35977" lon="6.68116">
        <ele>2477.48390016</ele>
        <time>2020-10-18T11:00:27.009Z</time>
      </trkpt>
      <trkpt lat="45.35968" lon="6.68124">
        <ele>2478.88390016</ele>
        <time>2020-10-18T11:00:41.009Z</time>
      </trkpt>
      <trkpt lat="45.35959" lon="6.68132">
        <ele>2480.08390016</ele>
        <time>2020-10-18T11:00:53.009Z</time>
      </trkpt>
      <trkpt lat="45.35948" lon="6.68137">
        <ele>2481.252</ele>
        <time>2020-10-18T11:03:53.009Z</time>
      </trkpt>
      <trkpt lat="45.35938" lon="6.6814">
        <ele>2483.652</ele>
        <time>2020-10-18T11:04:01.009Z</time>
      </trkpt>
      <trkpt lat="45.35928" lon="6.68145">
        <ele>2486.052</ele>
        <time>2020-10-18T11:04:09.009Z</time>
      </trkpt>
      <trkpt lat="45.35918" lon="6.68149">
        <ele>2487.968</ele>
        <time>2020-10-18T11:04:17.009Z</time>
      </trkpt>
      <trkpt lat="45.35909" lon="6.68155">
        <ele>2489.568</ele>
        <time>2020-10-18T11:04:25.009Z</time>
      </trkpt>
      <trkpt lat="45.35899" lon="6.68161">
        <ele>2491</ele>
        <time>2020-10-18T11:04:33.009Z</time>
      </trkpt>
      <trkpt lat="45.35891" lon="6.68169">
        <ele>2491</ele>
        <time>2020-10-18T11:04:45.009Z</time>
      </trkpt>
      <trkpt lat="45.35882" lon="6.68174">
        <ele>2489.816</ele>
        <time>2020-10-18T11:05:04.009Z</time>
      </trkpt>
      <trkpt lat="45.35874" lon="6.68171">
        <ele>2488</ele>
        <time>2020-10-18T11:08:07.009Z</time>
      </trkpt>
      <trkpt lat="45.35873" lon="6.68172">
        <ele>2489</ele>
        <time>2020-10-18T11:08:37.009Z</time>
      </trkpt>
      <trkpt lat="45.35874" lon="6.68175">
        <ele>2487</ele>
        <time>2020-10-18T11:11:48.009Z</time>
      </trkpt>
      <trkpt lat="45.35866" lon="6.6818">
        <ele>2486.21609984</ele>
        <time>2020-10-18T11:12:05.009Z</time>
      </trkpt>
      <trkpt lat="45.35856" lon="6.68184">
        <ele>2485</ele>
        <time>2020-10-18T11:12:27.009Z</time>
      </trkpt>
      <trkpt lat="45.35845" lon="6.68187">
        <ele>2486.48390016</ele>
        <time>2020-10-18T11:12:42.009Z</time>
      </trkpt>
      <trkpt lat="45.35835" lon="6.68188">
        <ele>2488</ele>
        <time>2020-10-18T11:12:58.009Z</time>
      </trkpt>
      <trkpt lat="45.35826" lon="6.68193">
        <ele>2488</ele>
        <time>2020-10-18T11:13:17.009Z</time>
      </trkpt>
      <trkpt lat="45.35816" lon="6.68196">
        <ele>2489.48390016</ele>
        <time>2020-10-18T11:13:32.009Z</time>
      </trkpt>
      <trkpt lat="45.35806" lon="6.68201">
        <ele>2492.08390016</ele>
        <time>2020-10-18T11:13:48.009Z</time>
      </trkpt>
      <trkpt lat="45.35796" lon="6.68205">
        <ele>2494.36780032</ele>
        <time>2020-10-18T11:14:04.009Z</time>
      </trkpt>
      <trkpt lat="45.35787" lon="6.68199">
        <ele>2495.78390016</ele>
        <time>2020-10-18T11:14:25.009Z</time>
      </trkpt>
      <trkpt lat="45.35781" lon="6.68188">
        <ele>2496.88390016</ele>
        <time>2020-10-18T11:14:46.009Z</time>
      </trkpt>
      <trkpt lat="45.35776" lon="6.68175">
        <ele>2498.51609984</ele>
        <time>2020-10-18T11:15:22.009Z</time>
      </trkpt>
      <trkpt lat="45.35766" lon="6.68174">
        <ele>2497.01609984</ele>
        <time>2020-10-18T11:15:37.009Z</time>
      </trkpt>
      <trkpt lat="45.35756" lon="6.68173">
        <ele>2497</ele>
        <time>2020-10-18T11:15:48.009Z</time>
      </trkpt>
      <trkpt lat="45.35746" lon="6.68172">
        <ele>2497</ele>
        <time>2020-10-18T11:15:59.009Z</time>
      </trkpt>
      <trkpt lat="45.35736" lon="6.68171">
        <ele>2497.18390016</ele>
        <time>2020-10-18T11:16:09.009Z</time>
      </trkpt>
      <trkpt lat="45.35725" lon="6.68171">
        <ele>2498</ele>
        <time>2020-10-18T11:16:19.009Z</time>
      </trkpt>
      <trkpt lat="45.35714" lon="6.68171">
        <ele>2497.81609984</ele>
        <time>2020-10-18T11:16:29.009Z</time>
      </trkpt>
      <trkpt lat="45.35704" lon="6.6817">
        <ele>2496.81609984</ele>
        <time>2020-10-18T11:16:39.009Z</time>
      </trkpt>
      <trkpt lat="45.35694" lon="6.6817">
        <ele>2495.51609984</ele>
        <time>2020-10-18T11:16:52.009Z</time>
      </trkpt>
      <trkpt lat="45.35684" lon="6.68172">
        <ele>2496</ele>
        <time>2020-10-18T11:17:09.009Z</time>
      </trkpt>
      <trkpt lat="45.35675" lon="6.68174">
        <ele>2496.48390016</ele>
        <time>2020-10-18T11:17:22.009Z</time>
      </trkpt>
      <trkpt lat="45.35664" lon="6.68178">
        <ele>2497.88390016</ele>
        <time>2020-10-18T11:17:36.009Z</time>
      </trkpt>
      <trkpt lat="45.35655" lon="6.68181">
        <ele>2498.18390016</ele>
        <time>2020-10-18T11:17:49.009Z</time>
      </trkpt>
      <trkpt lat="45.35644" lon="6.68183">
        <ele>2499</ele>
        <time>2020-10-18T11:18:04.009Z</time>
      </trkpt>
      <trkpt lat="45.35634" lon="6.68183">
        <ele>2500.96780032</ele>
        <time>2020-10-18T11:18:17.009Z</time>
      </trkpt>
      <trkpt lat="45.35624" lon="6.68184">
        <ele>2502.31609984</ele>
        <time>2020-10-18T11:18:44.009Z</time>
      </trkpt>
      <trkpt lat="45.35613" lon="6.68185">
        <ele>2502</ele>
        <time>2020-10-18T11:18:57.009Z</time>
      </trkpt>
      <trkpt lat="45.35603" lon="6.68182">
        <ele>2502.28390016</ele>
        <time>2020-10-18T11:19:10.009Z</time>
      </trkpt>
      <trkpt lat="45.35593" lon="6.68184">
        <ele>2504.16780032</ele>
        <time>2020-10-18T11:19:23.009Z</time>
      </trkpt>
      <trkpt lat="45.35583" lon="6.68181">
        <ele>2505.68390016</ele>
        <time>2020-10-18T11:19:34.009Z</time>
      </trkpt>
      <trkpt lat="45.35572" lon="6.6818">
        <ele>2506</ele>
        <time>2020-10-18T11:19:45.009Z</time>
      </trkpt>
      <trkpt lat="45.35563" lon="6.68185">
        <ele>2506</ele>
        <time>2020-10-18T11:19:55.009Z</time>
      </trkpt>
      <trkpt lat="45.35554" lon="6.68191">
        <ele>2506</ele>
        <time>2020-10-18T11:20:04.009Z</time>
      </trkpt>
      <trkpt lat="45.35543" lon="6.68193">
        <ele>2505.31609984</ele>
        <time>2020-10-18T11:20:14.009Z</time>
      </trkpt>
      <trkpt lat="45.35533" lon="6.68194">
        <ele>2504.31609984</ele>
        <time>2020-10-18T11:20:24.009Z</time>
      </trkpt>
      <trkpt lat="45.35523" lon="6.68196">
        <ele>2503.41609984</ele>
        <time>2020-10-18T11:20:33.009Z</time>
      </trkpt>
      <trkpt lat="45.35512" lon="6.68197">
        <ele>2503</ele>
        <time>2020-10-18T11:20:43.009Z</time>
      </trkpt>
      <trkpt lat="45.35502" lon="6.68197">
        <ele>2503</ele>
        <time>2020-10-18T11:20:56.009Z</time>
      </trkpt>
      <trkpt lat="45.35492" lon="6.68196">
        <ele>2502</ele>
        <time>2020-10-18T11:21:08.009Z</time>
      </trkpt>
      <trkpt lat="45.35483" lon="6.68201">
        <ele>2502.18390016</ele>
        <time>2020-10-18T11:21:19.009Z</time>
      </trkpt>
      <trkpt lat="45.35475" lon="6.68209">
        <ele>2503.08390016</ele>
        <time>2020-10-18T11:21:38.009Z</time>
      </trkpt>
      <trkpt lat="45.35466" lon="6.68215">
        <ele>2506.18390016</ele>
        <time>2020-10-18T11:21:59.009Z</time>
      </trkpt>
      <trkpt lat="45.35457" lon="6.68221">
        <ele>2508.96780032</ele>
        <time>2020-10-18T11:22:22.009Z</time>
      </trkpt>
      <trkpt lat="45.35449" lon="6.68229">
        <ele>2511</ele>
        <time>2020-10-18T11:22:46.009Z</time>
      </trkpt>
      <trkpt lat="45.3544" lon="6.68237">
        <ele>2513.96780032</ele>
        <time>2020-10-18T11:23:17.009Z</time>
      </trkpt>
      <trkpt lat="45.3543" lon="6.68239">
        <ele>2515.38390016</ele>
        <time>2020-10-18T11:23:31.009Z</time>
      </trkpt>
      <trkpt lat="45.35421" lon="6.68244">
        <ele>2516</ele>
        <time>2020-10-18T11:23:46.009Z</time>
      </trkpt>
      <trkpt lat="45.35412" lon="6.68251">
        <ele>2517.88390016</ele>
        <time>2020-10-18T11:24:06.009Z</time>
      </trkpt>
      <trkpt lat="45.35402" lon="6.68254">
        <ele>2520.71609984</ele>
        <time>2020-10-18T11:24:40.009Z</time>
      </trkpt>
      <trkpt lat="45.35392" lon="6.68252">
        <ele>2520</ele>
        <time>2020-10-18T11:25:04.009Z</time>
      </trkpt>
      <trkpt lat="45.35382" lon="6.6825">
        <ele>2520</ele>
        <time>2020-10-18T11:25:14.009Z</time>
      </trkpt>
      <trkpt lat="45.35372" lon="6.68253">
        <ele>2520.91609984</ele>
        <time>2020-10-18T11:25:28.009Z</time>
      </trkpt>
      <trkpt lat="45.35365" lon="6.68263">
        <ele>2521.98390016</ele>
        <time>2020-10-18T11:25:57.009Z</time>
      </trkpt>
      <trkpt lat="45.35356" lon="6.68271">
        <ele>2527.25170048</ele>
        <time>2020-10-18T11:26:18.009Z</time>
      </trkpt>
      <trkpt lat="45.35348" lon="6.68278">
        <ele>2533.08390016</ele>
        <time>2020-10-18T11:26:58.009Z</time>
      </trkpt>
      <trkpt lat="45.35339" lon="6.68285">
        <ele>2535.36780032</ele>
        <time>2020-10-18T11:27:19.009Z</time>
      </trkpt>
      <trkpt lat="45.35331" lon="6.68293">
        <ele>2538.37894051</ele>
        <time>2020-10-18T11:27:42.009Z</time>
      </trkpt>
      <trkpt lat="45.35327" lon="6.68306">
        <ele>2542</ele>
        <time>2020-10-18T11:30:29.009Z</time>
      </trkpt>
      <trkpt lat="45.3533" lon="6.68319">
        <ele>2541.41609984</ele>
        <time>2020-10-18T11:30:43.009Z</time>
      </trkpt>
      <trkpt lat="45.35333" lon="6.68334">
        <ele>2540.14829952</ele>
        <time>2020-10-18T11:30:50.009Z</time>
      </trkpt>
      <trkpt lat="45.35335" lon="6.68348">
        <ele>2538.04829952</ele>
        <time>2020-10-18T11:30:57.009Z</time>
      </trkpt>
      <trkpt lat="45.35338" lon="6.68362">
        <ele>2536.23219968</ele>
        <time>2020-10-18T11:31:06.009Z</time>
      </trkpt>
      <trkpt lat="45.35343" lon="6.68375">
        <ele>2533.66439936</ele>
        <time>2020-10-18T11:31:18.009Z</time>
      </trkpt>
      <trkpt lat="45.35348" lon="6.68387">
        <ele>2528</ele>
        <time>2020-10-18T11:31:40.009Z</time>
      </trkpt>
      <trkpt lat="45.3535" lon="6.68401">
        <ele>2527.31609984</ele>
        <time>2020-10-18T11:31:54.009Z</time>
      </trkpt>
      <trkpt lat="45.35351" lon="6.68415">
        <ele>2526.51609984</ele>
        <time>2020-10-18T11:32:02.009Z</time>
      </trkpt>
      <trkpt lat="45.35351" lon="6.68429">
        <ele>2524.84829952</ele>
        <time>2020-10-18T11:32:11.009Z</time>
      </trkpt>
      <trkpt lat="45.35351" lon="6.68444">
        <ele>2522.74829952</ele>
        <time>2020-10-18T11:32:18.009Z</time>
      </trkpt>
      <trkpt lat="45.35348" lon="6.68457">
        <ele>2520.64829952</ele>
        <time>2020-10-18T11:32:25.009Z</time>
      </trkpt>
      <trkpt lat="45.35346" lon="6.68473">
        <ele>2518.63219968</ele>
        <time>2020-10-18T11:32:34.009Z</time>
      </trkpt>
      <trkpt lat="45.35348" lon="6.68487">
        <ele>2516.84829952</ele>
        <time>2020-10-18T11:32:41.009Z</time>
      </trkpt>
      <trkpt lat="45.35338" lon="6.68489">
        <ele>2512.66439936</ele>
        <time>2020-10-18T11:32:53.009Z</time>
      </trkpt>
      <trkpt lat="45.3533" lon="6.6848">
        <ele>2510.63219968</ele>
        <time>2020-10-18T11:32:59.009Z</time>
      </trkpt>
      <trkpt lat="45.3532" lon="6.68488">
        <ele>2507.23219968</ele>
        <time>2020-10-18T11:33:16.009Z</time>
      </trkpt>
      <trkpt lat="45.3531" lon="6.68488">
        <ele>2504.66439936</ele>
        <time>2020-10-18T11:33:23.009Z</time>
      </trkpt>
      <trkpt lat="45.35299" lon="6.6849">
        <ele>2498.44829952</ele>
        <time>2020-10-18T11:33:39.009Z</time>
      </trkpt>
      <trkpt lat="45.35289" lon="6.68493">
        <ele>2495.0804992</ele>
        <time>2020-10-18T11:33:49.009Z</time>
      </trkpt>
      <trkpt lat="45.35288" lon="6.68507">
        <ele>2489.06439936</ele>
        <time>2020-10-18T11:34:02.009Z</time>
      </trkpt>
      <trkpt lat="45.35285" lon="6.68522">
        <ele>2484.69659904</ele>
        <time>2020-10-18T11:34:11.009Z</time>
      </trkpt>
      <trkpt lat="45.35276" lon="6.68529">
        <ele>2480.74829952</ele>
        <time>2020-10-18T11:34:18.009Z</time>
      </trkpt>
      <trkpt lat="45.35266" lon="6.68534">
        <ele>2478.64829952</ele>
        <time>2020-10-18T11:34:25.009Z</time>
      </trkpt>
      <trkpt lat="45.35257" lon="6.68541">
        <ele>2475.94829952</ele>
        <time>2020-10-18T11:34:34.009Z</time>
      </trkpt>
      <trkpt lat="45.35247" lon="6.68546">
        <ele>2473.46439936</ele>
        <time>2020-10-18T11:34:41.009Z</time>
      </trkpt>
      <trkpt lat="45.35237" lon="6.68548">
        <ele>2470.74829952</ele>
        <time>2020-10-18T11:34:48.009Z</time>
      </trkpt>
      <trkpt lat="45.35226" lon="6.68553">
        <ele>2468.34829952</ele>
        <time>2020-10-18T11:34:56.009Z</time>
      </trkpt>
      <trkpt lat="45.35218" lon="6.68564">
        <ele>2465.26439936</ele>
        <time>2020-10-18T11:35:04.009Z</time>
      </trkpt>
      <trkpt lat="45.3521" lon="6.68575">
        <ele>2461.5804992</ele>
        <time>2020-10-18T11:35:12.009Z</time>
      </trkpt>
      <trkpt lat="45.35203" lon="6.68586">
        <ele>2458.14829952</ele>
        <time>2020-10-18T11:35:20.009Z</time>
      </trkpt>
      <trkpt lat="45.35197" lon="6.68597">
        <ele>2455.74829952</ele>
        <time>2020-10-18T11:35:28.009Z</time>
      </trkpt>
      <trkpt lat="45.3519" lon="6.6861">
        <ele>2453.34829952</ele>
        <time>2020-10-18T11:35:36.009Z</time>
      </trkpt>
      <trkpt lat="45.35184" lon="6.68621">
        <ele>2446.43219968</ele>
        <time>2020-10-18T11:36:25.009Z</time>
      </trkpt>
      <trkpt lat="45.35176" lon="6.68631">
        <ele>2445.03219968</ele>
        <time>2020-10-18T11:36:32.009Z</time>
      </trkpt>
      <trkpt lat="45.35167" lon="6.68638">
        <ele>2443.63219968</ele>
        <time>2020-10-18T11:36:39.009Z</time>
      </trkpt>
      <trkpt lat="45.35157" lon="6.68645">
        <ele>2442.23219968</ele>
        <time>2020-10-18T11:36:46.009Z</time>
      </trkpt>
      <trkpt lat="45.35147" lon="6.68647">
        <ele>2440.43219968</ele>
        <time>2020-10-18T11:36:55.009Z</time>
      </trkpt>
      <trkpt lat="45.35137" lon="6.68653">
        <ele>2438.54829952</ele>
        <time>2020-10-18T11:37:02.009Z</time>
      </trkpt>
      <trkpt lat="45.35129" lon="6.68663">
        <ele>2435.86439936</ele>
        <time>2020-10-18T11:37:10.009Z</time>
      </trkpt>
      <trkpt lat="45.35126" lon="6.68678">
        <ele>2431.46439936</ele>
        <time>2020-10-18T11:37:21.009Z</time>
      </trkpt>
      <trkpt lat="45.35125" lon="6.68693">
        <ele>2428.23219968</ele>
        <time>2020-10-18T11:37:31.009Z</time>
      </trkpt>
      <trkpt lat="45.35118" lon="6.68704">
        <ele>2426.14829952</ele>
        <time>2020-10-18T11:37:40.009Z</time>
      </trkpt>
      <trkpt lat="45.35115" lon="6.68719">
        <ele>2421.66439936</ele>
        <time>2020-10-18T11:37:53.009Z</time>
      </trkpt>
      <trkpt lat="45.35107" lon="6.68721">
        <ele>2418.84829952</ele>
        <time>2020-10-18T11:38:01.009Z</time>
      </trkpt>
      <trkpt lat="45.35103" lon="6.68722">
        <ele>2417.64829952</ele>
        <time>2020-10-18T11:38:05.009Z</time>
      </trkpt>
      <trkpt lat="45.35094" lon="6.68729">
        <ele>2415.83219968</ele>
        <time>2020-10-18T11:38:13.009Z</time>
      </trkpt>
      <trkpt lat="45.35086" lon="6.68737">
        <ele>2413.54829952</ele>
        <time>2020-10-18T11:38:22.009Z</time>
      </trkpt>
      <trkpt lat="45.35081" lon="6.68749">
        <ele>2411.23219968</ele>
        <time>2020-10-18T11:38:31.009Z</time>
      </trkpt>
      <trkpt lat="45.3508" lon="6.68754">
        <ele>2410.63219968</ele>
        <time>2020-10-18T11:38:34.009Z</time>
      </trkpt>
      <trkpt lat="45.35079" lon="6.68758">
        <ele>2408.23219968</ele>
        <time>2020-10-18T11:38:46.009Z</time>
      </trkpt>
      <trkpt lat="45.35083" lon="6.68758">
        <ele>2407</ele>
        <time>2020-10-18T11:39:18.009Z</time>
      </trkpt>
      <trkpt lat="45.35074" lon="6.68751">
        <ele>2405.63219968</ele>
        <time>2020-10-18T11:39:34.009Z</time>
      </trkpt>
      <trkpt lat="45.35064" lon="6.68757">
        <ele>2404.41609984</ele>
        <time>2020-10-18T11:39:43.009Z</time>
      </trkpt>
      <trkpt lat="45.35057" lon="6.68768">
        <ele>2403.61609984</ele>
        <time>2020-10-18T11:39:51.009Z</time>
      </trkpt>
      <trkpt lat="45.35049" lon="6.68777">
        <ele>2403</ele>
        <time>2020-10-18T11:39:59.009Z</time>
      </trkpt>
      <trkpt lat="45.35043" lon="6.68785">
        <ele>2403</ele>
        <time>2020-10-18T11:40:06.009Z</time>
      </trkpt>
      <trkpt lat="45.35037" lon="6.68795">
        <ele>2403</ele>
        <time>2020-10-18T11:40:14.009Z</time>
      </trkpt>
      <trkpt lat="45.35029" lon="6.68806">
        <ele>2402.51609984</ele>
        <time>2020-10-18T11:40:22.009Z</time>
      </trkpt>
      <trkpt lat="45.35027" lon="6.68821">
        <ele>2402</ele>
        <time>2020-10-18T11:40:31.009Z</time>
      </trkpt>
      <trkpt lat="45.35018" lon="6.68827">
        <ele>2399.31609984</ele>
        <time>2020-10-18T11:42:14.009Z</time>
      </trkpt>
      <trkpt lat="45.35013" lon="6.68841">
        <ele>2398.41609984</ele>
        <time>2020-10-18T11:42:23.009Z</time>
      </trkpt>
      <trkpt lat="45.35017" lon="6.68855">
        <ele>2397.03219968</ele>
        <time>2020-10-18T11:42:32.009Z</time>
      </trkpt>
      <trkpt lat="45.35025" lon="6.68865">
        <ele>2394.5804992</ele>
        <time>2020-10-18T11:42:40.009Z</time>
      </trkpt>
      <trkpt lat="45.35029" lon="6.6888">
        <ele>2390.74829952</ele>
        <time>2020-10-18T11:42:48.009Z</time>
      </trkpt>
      <trkpt lat="45.35031" lon="6.68895">
        <ele>2388.34829952</ele>
        <time>2020-10-18T11:42:56.009Z</time>
      </trkpt>
      <trkpt lat="45.35022" lon="6.68888">
        <ele>2384.74829952</ele>
        <time>2020-10-18T11:43:08.009Z</time>
      </trkpt>
      <trkpt lat="45.35011" lon="6.68882">
        <ele>2382.64829952</ele>
        <time>2020-10-18T11:43:15.009Z</time>
      </trkpt>
      <trkpt lat="45.35001" lon="6.68877">
        <ele>2380.24829952</ele>
        <time>2020-10-18T11:43:23.009Z</time>
      </trkpt>
      <trkpt lat="45.34993" lon="6.68866">
        <ele>2378.14829952</ele>
        <time>2020-10-18T11:43:30.009Z</time>
      </trkpt>
      <trkpt lat="45.34983" lon="6.68861">
        <ele>2375.74829952</ele>
        <time>2020-10-18T11:43:38.009Z</time>
      </trkpt>
      <trkpt lat="45.34973" lon="6.68862">
        <ele>2373.34829952</ele>
        <time>2020-10-18T11:43:46.009Z</time>
      </trkpt>
      <trkpt lat="45.34965" lon="6.68859">
        <ele>2371.63219968</ele>
        <time>2020-10-18T11:43:54.009Z</time>
      </trkpt>
      <trkpt lat="45.34956" lon="6.68856">
        <ele>2370.71609984</ele>
        <time>2020-10-18T11:44:00.009Z</time>
      </trkpt>
      <trkpt lat="45.34949" lon="6.68852">
        <ele>2370.21609984</ele>
        <time>2020-10-18T11:44:05.009Z</time>
      </trkpt>
      <trkpt lat="45.34941" lon="6.68842">
        <ele>2365.26439936</ele>
        <time>2020-10-18T11:44:39.009Z</time>
      </trkpt>
      <trkpt lat="45.34934" lon="6.68831">
        <ele>2362.86439936</ele>
        <time>2020-10-18T11:44:45.009Z</time>
      </trkpt>
      <trkpt lat="45.34926" lon="6.68822">
        <ele>2361.23219968</ele>
        <time>2020-10-18T11:44:51.009Z</time>
      </trkpt>
      <trkpt lat="45.34915" lon="6.68818">
        <ele>2360.03219968</ele>
        <time>2020-10-18T11:44:57.009Z</time>
      </trkpt>
      <trkpt lat="45.34905" lon="6.68814">
        <ele>2358.83219968</ele>
        <time>2020-10-18T11:45:03.009Z</time>
      </trkpt>
      <trkpt lat="45.34897" lon="6.68812">
        <ele>2356.86439936</ele>
        <time>2020-10-18T11:45:10.009Z</time>
      </trkpt>
      <trkpt lat="45.34888" lon="6.6882">
        <ele>2352.84829952</ele>
        <time>2020-10-18T11:45:21.009Z</time>
      </trkpt>
      <trkpt lat="45.34879" lon="6.68825">
        <ele>2350.26439936</ele>
        <time>2020-10-18T11:45:29.009Z</time>
      </trkpt>
      <trkpt lat="45.3487" lon="6.68833">
        <ele>2345.84829952</ele>
        <time>2020-10-18T11:45:41.009Z</time>
      </trkpt>
      <trkpt lat="45.34863" lon="6.68844">
        <ele>2344.04829952</ele>
        <time>2020-10-18T11:45:47.009Z</time>
      </trkpt>
      <trkpt lat="45.34855" lon="6.68854">
        <ele>2342.54829952</ele>
        <time>2020-10-18T11:45:52.009Z</time>
      </trkpt>
      <trkpt lat="45.34846" lon="6.68858">
        <ele>2341.04829952</ele>
        <time>2020-10-18T11:45:57.009Z</time>
      </trkpt>
      <trkpt lat="45.34836" lon="6.68856">
        <ele>2339.54829952</ele>
        <time>2020-10-18T11:46:02.009Z</time>
      </trkpt>
      <trkpt lat="45.34826" lon="6.68859">
        <ele>2337.74829952</ele>
        <time>2020-10-18T11:46:08.009Z</time>
      </trkpt>
      <trkpt lat="45.34815" lon="6.68859">
        <ele>2335.64829952</ele>
        <time>2020-10-18T11:46:15.009Z</time>
      </trkpt>
      <trkpt lat="45.3481" lon="6.68852">
        <ele>2333.5804992</ele>
        <time>2020-10-18T11:46:20.009Z</time>
      </trkpt>
      <trkpt lat="45.34805" lon="6.68866">
        <ele>2329.23219968</ele>
        <time>2020-10-18T11:46:31.009Z</time>
      </trkpt>
      <trkpt lat="45.348" lon="6.68875">
        <ele>2328.03219968</ele>
        <time>2020-10-18T11:46:37.009Z</time>
      </trkpt>
      <trkpt lat="45.34805" lon="6.68881">
        <ele>2326.06439936</ele>
        <time>2020-10-18T11:46:42.009Z</time>
      </trkpt>
      <trkpt lat="45.34814" lon="6.68888">
        <ele>2322.83219968</ele>
        <time>2020-10-18T11:47:13.009Z</time>
      </trkpt>
      <trkpt lat="45.34822" lon="6.68895">
        <ele>2321.44829952</ele>
        <time>2020-10-18T11:47:19.009Z</time>
      </trkpt>
      <trkpt lat="45.3483" lon="6.68906">
        <ele>2319.34829952</ele>
        <time>2020-10-18T11:47:26.009Z</time>
      </trkpt>
      <trkpt lat="45.34839" lon="6.68911">
        <ele>2317.83219968</ele>
        <time>2020-10-18T11:47:33.009Z</time>
      </trkpt>
      <trkpt lat="45.34848" lon="6.68908">
        <ele>2316.74829952</ele>
        <time>2020-10-18T11:47:38.009Z</time>
      </trkpt>
      <trkpt lat="45.34852" lon="6.68919">
        <ele>2314.34829952</ele>
        <time>2020-10-18T11:47:46.009Z</time>
      </trkpt>
      <trkpt lat="45.3486" lon="6.68929">
        <ele>2311.66439936</ele>
        <time>2020-10-18T11:47:53.009Z</time>
      </trkpt>
      <trkpt lat="45.34869" lon="6.6893">
        <ele>2309.71609984</ele>
        <time>2020-10-18T11:48:00.009Z</time>
      </trkpt>
      <trkpt lat="45.34877" lon="6.68935">
        <ele>2309.21609984</ele>
        <time>2020-10-18T11:48:05.009Z</time>
      </trkpt>
      <trkpt lat="45.34868" lon="6.68942">
        <ele>2307.83219968</ele>
        <time>2020-10-18T11:48:13.009Z</time>
      </trkpt>
      <trkpt lat="45.34861" lon="6.68952">
        <ele>2307</ele>
        <time>2020-10-18T11:48:18.009Z</time>
      </trkpt>
      <trkpt lat="45.34852" lon="6.68963">
        <ele>2307</ele>
        <time>2020-10-18T11:48:25.009Z</time>
      </trkpt>
      <trkpt lat="45.34841" lon="6.68964">
        <ele>2306.03219968</ele>
        <time>2020-10-18T11:48:32.009Z</time>
      </trkpt>
      <trkpt lat="45.34846" lon="6.68972">
        <ele>2301.46439936</ele>
        <time>2020-10-18T11:48:46.009Z</time>
      </trkpt>
      <trkpt lat="45.34836" lon="6.68974">
        <ele>2296.24829952</ele>
        <time>2020-10-18T11:49:03.009Z</time>
      </trkpt>
      <trkpt lat="45.34826" lon="6.68966">
        <ele>2293.84829952</ele>
        <time>2020-10-18T11:49:11.009Z</time>
      </trkpt>
      <trkpt lat="45.34816" lon="6.68962">
        <ele>2292.34829952</ele>
        <time>2020-10-18T11:49:16.009Z</time>
      </trkpt>
      <trkpt lat="45.34805" lon="6.6896">
        <ele>2290.54829952</ele>
        <time>2020-10-18T11:49:22.009Z</time>
      </trkpt>
      <trkpt lat="45.34795" lon="6.68959">
        <ele>2289.04829952</ele>
        <time>2020-10-18T11:49:27.009Z</time>
      </trkpt>
      <trkpt lat="45.34785" lon="6.68954">
        <ele>2287.83219968</ele>
        <time>2020-10-18T11:49:33.009Z</time>
      </trkpt>
      <trkpt lat="45.34775" lon="6.68949">
        <ele>2285.54829952</ele>
        <time>2020-10-18T11:49:42.009Z</time>
      </trkpt>
      <trkpt lat="45.34764" lon="6.68947">
        <ele>2283.0804992</ele>
        <time>2020-10-18T11:49:49.009Z</time>
      </trkpt>
      <trkpt lat="45.34754" lon="6.68943">
        <ele>2279.0804992</ele>
        <time>2020-10-18T11:49:57.009Z</time>
      </trkpt>
      <trkpt lat="45.34744" lon="6.68937">
        <ele>2277.63219968</ele>
        <time>2020-10-18T11:50:04.009Z</time>
      </trkpt>
      <trkpt lat="45.34734" lon="6.6893">
        <ele>2276.23219968</ele>
        <time>2020-10-18T11:50:11.009Z</time>
      </trkpt>
      <trkpt lat="45.34724" lon="6.68922">
        <ele>2274.74829952</ele>
        <time>2020-10-18T11:50:18.009Z</time>
      </trkpt>
      <trkpt lat="45.34716" lon="6.68912">
        <ele>2272.64829952</ele>
        <time>2020-10-18T11:50:25.009Z</time>
      </trkpt>
      <trkpt lat="45.34707" lon="6.68904">
        <ele>2270.54829952</ele>
        <time>2020-10-18T11:50:32.009Z</time>
      </trkpt>
      <trkpt lat="45.34697" lon="6.68898">
        <ele>2268.14829952</ele>
        <time>2020-10-18T11:50:40.009Z</time>
      </trkpt>
      <trkpt lat="45.347" lon="6.68911">
        <ele>2265.14829952</ele>
        <time>2020-10-18T11:50:50.009Z</time>
      </trkpt>
      <trkpt lat="45.34704" lon="6.6892">
        <ele>2263.64829952</ele>
        <time>2020-10-18T11:50:55.009Z</time>
      </trkpt>
      <trkpt lat="45.34709" lon="6.68929">
        <ele>2262.43219968</ele>
        <time>2020-10-18T11:51:00.009Z</time>
      </trkpt>
      <trkpt lat="45.34712" lon="6.68939">
        <ele>2261.43219968</ele>
        <time>2020-10-18T11:51:05.009Z</time>
      </trkpt>
      <trkpt lat="45.34717" lon="6.68949">
        <ele>2259.84829952</ele>
        <time>2020-10-18T11:51:11.009Z</time>
      </trkpt>
      <trkpt lat="45.34722" lon="6.68957">
        <ele>2258.34829952</ele>
        <time>2020-10-18T11:51:16.009Z</time>
      </trkpt>
      <trkpt lat="45.34726" lon="6.68968">
        <ele>2256.54829952</ele>
        <time>2020-10-18T11:51:22.009Z</time>
      </trkpt>
      <trkpt lat="45.34731" lon="6.68976">
        <ele>2255.04829952</ele>
        <time>2020-10-18T11:51:27.009Z</time>
      </trkpt>
      <trkpt lat="45.34733" lon="6.68988">
        <ele>2254.31609984</ele>
        <time>2020-10-18T11:51:34.009Z</time>
      </trkpt>
      <trkpt lat="45.34735" lon="6.68997">
        <ele>2253.14829952</ele>
        <time>2020-10-18T11:51:40.009Z</time>
      </trkpt>
      <trkpt lat="45.34742" lon="6.69007">
        <ele>2251.04829952</ele>
        <time>2020-10-18T11:51:47.009Z</time>
      </trkpt>
      <trkpt lat="45.34751" lon="6.69014">
        <ele>2248.94829952</ele>
        <time>2020-10-18T11:51:54.009Z</time>
      </trkpt>
      <trkpt lat="45.3476" lon="6.69022">
        <ele>2246.84829952</ele>
        <time>2020-10-18T11:52:01.009Z</time>
      </trkpt>
      <trkpt lat="45.34768" lon="6.69032">
        <ele>2244.83219968</ele>
        <time>2020-10-18T11:52:08.009Z</time>
      </trkpt>
      <trkpt lat="45.34776" lon="6.69043">
        <ele>2243.23219968</ele>
        <time>2020-10-18T11:52:16.009Z</time>
      </trkpt>
      <trkpt lat="45.34784" lon="6.69054">
        <ele>2241.24829952</ele>
        <time>2020-10-18T11:52:23.009Z</time>
      </trkpt>
      <trkpt lat="45.34788" lon="6.69068">
        <ele>2239.71609984</ele>
        <time>2020-10-18T11:52:30.009Z</time>
      </trkpt>
      <trkpt lat="45.34791" lon="6.69082">
        <ele>2238.74829952</ele>
        <time>2020-10-18T11:52:38.009Z</time>
      </trkpt>
      <trkpt lat="45.34795" lon="6.69095">
        <ele>2235.83219968</ele>
        <time>2020-10-18T11:52:48.009Z</time>
      </trkpt>
      <trkpt lat="45.34799" lon="6.69106">
        <ele>2234.43219968</ele>
        <time>2020-10-18T11:52:55.009Z</time>
      </trkpt>
      <trkpt lat="45.34803" lon="6.69116">
        <ele>2232.86439936</ele>
        <time>2020-10-18T11:53:00.009Z</time>
      </trkpt>
      <trkpt lat="45.3481" lon="6.6912">
        <ele>2230</ele>
        <time>2020-10-18T11:53:10.009Z</time>
      </trkpt>
      <trkpt lat="45.34801" lon="6.69126">
        <ele>2227.81609984</ele>
        <time>2020-10-18T11:53:39.009Z</time>
      </trkpt>
      <trkpt lat="45.34792" lon="6.69118">
        <ele>2227.11609984</ele>
        <time>2020-10-18T11:53:46.009Z</time>
      </trkpt>
      <trkpt lat="45.34782" lon="6.6911">
        <ele>2226.03219968</ele>
        <time>2020-10-18T11:53:52.009Z</time>
      </trkpt>
      <trkpt lat="45.34772" lon="6.69101">
        <ele>2224.74829952</ele>
        <time>2020-10-18T11:53:58.009Z</time>
      </trkpt>
      <trkpt lat="45.34765" lon="6.69095">
        <ele>2223.24829952</ele>
        <time>2020-10-18T11:54:03.009Z</time>
      </trkpt>
      <trkpt lat="45.34754" lon="6.69098">
        <ele>2220.46439936</ele>
        <time>2020-10-18T11:54:11.009Z</time>
      </trkpt>
      <trkpt lat="45.34744" lon="6.69097">
        <ele>2217.74829952</ele>
        <time>2020-10-18T11:54:18.009Z</time>
      </trkpt>
      <trkpt lat="45.34734" lon="6.69091">
        <ele>2215.64829952</ele>
        <time>2020-10-18T11:54:25.009Z</time>
      </trkpt>
      <trkpt lat="45.34724" lon="6.69086">
        <ele>2213.54829952</ele>
        <time>2020-10-18T11:54:32.009Z</time>
      </trkpt>
      <trkpt lat="45.34719" lon="6.69084">
        <ele>2212.04829952</ele>
        <time>2020-10-18T11:54:37.009Z</time>
      </trkpt>
      <trkpt lat="45.34713" lon="6.69085">
        <ele>2210.84829952</ele>
        <time>2020-10-18T11:54:41.009Z</time>
      </trkpt>
      <trkpt lat="45.34706" lon="6.6909">
        <ele>2209.34829952</ele>
        <time>2020-10-18T11:54:46.009Z</time>
      </trkpt>
      <trkpt lat="45.34699" lon="6.69096">
        <ele>2207.84829952</ele>
        <time>2020-10-18T11:54:51.009Z</time>
      </trkpt>
      <trkpt lat="45.34691" lon="6.69099">
        <ele>2206.34829952</ele>
        <time>2020-10-18T11:54:56.009Z</time>
      </trkpt>
      <trkpt lat="45.34681" lon="6.69101">
        <ele>2204.54829952</ele>
        <time>2020-10-18T11:55:02.009Z</time>
      </trkpt>
      <trkpt lat="45.3467" lon="6.69101">
        <ele>2202.44829952</ele>
        <time>2020-10-18T11:55:09.009Z</time>
      </trkpt>
      <trkpt lat="45.34662" lon="6.69092">
        <ele>2200.34829952</ele>
        <time>2020-10-18T11:55:16.009Z</time>
      </trkpt>
      <trkpt lat="45.34652" lon="6.69085">
        <ele>2197.66439936</ele>
        <time>2020-10-18T11:55:23.009Z</time>
      </trkpt>
      <trkpt lat="45.34644" lon="6.69078">
        <ele>2195.81609984</ele>
        <time>2020-10-18T11:55:29.009Z</time>
      </trkpt>
      <trkpt lat="45.34635" lon="6.6907">
        <ele>2195.01609984</ele>
        <time>2020-10-18T11:55:37.009Z</time>
      </trkpt>
      <trkpt lat="45.34625" lon="6.69069">
        <ele>2192.94829952</ele>
        <time>2020-10-18T11:55:44.009Z</time>
      </trkpt>
      <trkpt lat="45.34616" lon="6.69061">
        <ele>2190.84829952</ele>
        <time>2020-10-18T11:55:51.009Z</time>
      </trkpt>
      <trkpt lat="45.34609" lon="6.69054">
        <ele>2189.04829952</ele>
        <time>2020-10-18T11:55:57.009Z</time>
      </trkpt>
      <trkpt lat="45.34603" lon="6.69045">
        <ele>2186.94829952</ele>
        <time>2020-10-18T11:56:04.009Z</time>
      </trkpt>
      <trkpt lat="45.34597" lon="6.69035">
        <ele>2185.71609984</ele>
        <time>2020-10-18T11:56:10.009Z</time>
      </trkpt>
      <trkpt lat="45.34591" lon="6.69029">
        <ele>2185.01609984</ele>
        <time>2020-10-18T11:56:17.009Z</time>
      </trkpt>
      <trkpt lat="45.34584" lon="6.69021">
        <ele>2182.66439936</ele>
        <time>2020-10-18T11:56:23.009Z</time>
      </trkpt>
      <trkpt lat="45.34578" lon="6.69009">
        <ele>2180.71609984</ele>
        <time>2020-10-18T11:56:30.009Z</time>
      </trkpt>
      <trkpt lat="45.34572" lon="6.69">
        <ele>2180.21609984</ele>
        <time>2020-10-18T11:56:35.009Z</time>
      </trkpt>
      <trkpt lat="45.34566" lon="6.68993">
        <ele>2179.14829952</ele>
        <time>2020-10-18T11:56:40.009Z</time>
      </trkpt>
      <trkpt lat="45.34556" lon="6.68986">
        <ele>2177.04829952</ele>
        <time>2020-10-18T11:56:47.009Z</time>
      </trkpt>
      <trkpt lat="45.34548" lon="6.68981">
        <ele>2175.24829952</ele>
        <time>2020-10-18T11:56:53.009Z</time>
      </trkpt>
      <trkpt lat="45.34541" lon="6.68978">
        <ele>2173.66439936</ele>
        <time>2020-10-18T11:56:58.009Z</time>
      </trkpt>
      <trkpt lat="45.34534" lon="6.68971">
        <ele>2171.26439936</ele>
        <time>2020-10-18T11:57:04.009Z</time>
      </trkpt>
      <trkpt lat="45.34528" lon="6.68966">
        <ele>2169.44829952</ele>
        <time>2020-10-18T11:57:09.009Z</time>
      </trkpt>
      <trkpt lat="45.34521" lon="6.68961">
        <ele>2167.64829952</ele>
        <time>2020-10-18T11:57:15.009Z</time>
      </trkpt>
      <trkpt lat="45.34513" lon="6.68959">
        <ele>2166.14829952</ele>
        <time>2020-10-18T11:57:20.009Z</time>
      </trkpt>
      <trkpt lat="45.34506" lon="6.68956">
        <ele>2164.64829952</ele>
        <time>2020-10-18T11:57:25.009Z</time>
      </trkpt>
      <trkpt lat="45.34499" lon="6.68952">
        <ele>2163.43219968</ele>
        <time>2020-10-18T11:57:30.009Z</time>
      </trkpt>
      <trkpt lat="45.34493" lon="6.68948">
        <ele>2162.43219968</ele>
        <time>2020-10-18T11:57:35.009Z</time>
      </trkpt>
      <trkpt lat="45.34483" lon="6.68944">
        <ele>2160.54829952</ele>
        <time>2020-10-18T11:57:42.009Z</time>
      </trkpt>
      <trkpt lat="45.34475" lon="6.68942">
        <ele>2159.04829952</ele>
        <time>2020-10-18T11:57:47.009Z</time>
      </trkpt>
      <trkpt lat="45.34466" lon="6.68937">
        <ele>2157.63219968</ele>
        <time>2020-10-18T11:57:54.009Z</time>
      </trkpt>
      <trkpt lat="45.34456" lon="6.68932">
        <ele>2155.84829952</ele>
        <time>2020-10-18T11:58:01.009Z</time>
      </trkpt>
      <trkpt lat="45.34445" lon="6.68929">
        <ele>2153.74829952</ele>
        <time>2020-10-18T11:58:08.009Z</time>
      </trkpt>
      <trkpt lat="45.34435" lon="6.68928">
        <ele>2151.64829952</ele>
        <time>2020-10-18T11:58:15.009Z</time>
      </trkpt>
      <trkpt lat="45.34424" lon="6.6893">
        <ele>2149.24829952</ele>
        <time>2020-10-18T11:58:23.009Z</time>
      </trkpt>
      <trkpt lat="45.34413" lon="6.68926">
        <ele>2147.43219968</ele>
        <time>2020-10-18T11:58:30.009Z</time>
      </trkpt>
      <trkpt lat="45.34403" lon="6.68926">
        <ele>2146.03219968</ele>
        <time>2020-10-18T11:58:37.009Z</time>
      </trkpt>
      <trkpt lat="45.34393" lon="6.68921">
        <ele>2144.63219968</ele>
        <time>2020-10-18T11:58:44.009Z</time>
      </trkpt>
      <trkpt lat="45.34384" lon="6.68915">
        <ele>2143.23219968</ele>
        <time>2020-10-18T11:58:51.009Z</time>
      </trkpt>
      <trkpt lat="45.34378" lon="6.68908">
        <ele>2141.5804992</ele>
        <time>2020-10-18T11:58:58.009Z</time>
      </trkpt>
      <trkpt lat="45.34386" lon="6.68917">
        <ele>2134.63219968</ele>
        <time>2020-10-18T11:59:24.009Z</time>
      </trkpt>
      <trkpt lat="45.34376" lon="6.68922">
        <ele>2133.41609984</ele>
        <time>2020-10-18T11:59:33.009Z</time>
      </trkpt>
      <trkpt lat="45.34366" lon="6.68916">
        <ele>2132.43219968</ele>
        <time>2020-10-18T11:59:40.009Z</time>
      </trkpt>
      <trkpt lat="45.34368" lon="6.68931">
        <ele>2129.61609984</ele>
        <time>2020-10-18T12:00:01.009Z</time>
      </trkpt>
      <trkpt lat="45.34372" lon="6.68945">
        <ele>2127.61609984</ele>
        <time>2020-10-18T12:00:21.009Z</time>
      </trkpt>
      <trkpt lat="45.34377" lon="6.68959">
        <ele>2126.83219968</ele>
        <time>2020-10-18T12:00:28.009Z</time>
      </trkpt>
      <trkpt lat="45.34383" lon="6.68971">
        <ele>2125.43219968</ele>
        <time>2020-10-18T12:00:35.009Z</time>
      </trkpt>
      <trkpt lat="45.3439" lon="6.68984">
        <ele>2124.03219968</ele>
        <time>2020-10-18T12:00:42.009Z</time>
      </trkpt>
      <trkpt lat="45.34397" lon="6.68997">
        <ele>2122.63219968</ele>
        <time>2020-10-18T12:00:49.009Z</time>
      </trkpt>
      <trkpt lat="45.34407" lon="6.69006">
        <ele>2121.43219968</ele>
        <time>2020-10-18T12:00:55.009Z</time>
      </trkpt>
      <trkpt lat="45.34416" lon="6.69015">
        <ele>2119.84829952</ele>
        <time>2020-10-18T12:01:01.009Z</time>
      </trkpt>
      <trkpt lat="45.34424" lon="6.69025">
        <ele>2118.04829952</ele>
        <time>2020-10-18T12:01:07.009Z</time>
      </trkpt>
      <trkpt lat="45.3443" lon="6.69032">
        <ele>2112</ele>
        <time>2020-10-18T12:01:42.009Z</time>
      </trkpt>
      <trkpt lat="45.34434" lon="6.69047">
        <ele>2110.23219968</ele>
        <time>2020-10-18T12:02:06.009Z</time>
      </trkpt>
      <trkpt lat="45.34441" lon="6.69057">
        <ele>2109.03219968</ele>
        <time>2020-10-18T12:02:12.009Z</time>
      </trkpt>
      <trkpt lat="45.34445" lon="6.6907">
        <ele>2107.91609984</ele>
        <time>2020-10-18T12:02:18.009Z</time>
      </trkpt>
      <trkpt lat="45.34453" lon="6.69081">
        <ele>2107.31609984</ele>
        <time>2020-10-18T12:02:24.009Z</time>
      </trkpt>
      <trkpt lat="45.34458" lon="6.69093">
        <ele>2106.61609984</ele>
        <time>2020-10-18T12:02:31.009Z</time>
      </trkpt>
      <trkpt lat="45.34462" lon="6.69106">
        <ele>2105.74829952</ele>
        <time>2020-10-18T12:02:38.009Z</time>
      </trkpt>
      <trkpt lat="45.34469" lon="6.69119">
        <ele>2103.64829952</ele>
        <time>2020-10-18T12:02:45.009Z</time>
      </trkpt>
      <trkpt lat="45.34474" lon="6.69133">
        <ele>2100.66439936</ele>
        <time>2020-10-18T12:02:53.009Z</time>
      </trkpt>
      <trkpt lat="45.3448" lon="6.69145">
        <ele>2098.14829952</ele>
        <time>2020-10-18T12:03:00.009Z</time>
      </trkpt>
      <trkpt lat="45.34485" lon="6.69158">
        <ele>2095.83219968</ele>
        <time>2020-10-18T12:03:08.009Z</time>
      </trkpt>
      <trkpt lat="45.34489" lon="6.69172">
        <ele>2094.23219968</ele>
        <time>2020-10-18T12:03:16.009Z</time>
      </trkpt>
      <trkpt lat="45.34499" lon="6.6918">
        <ele>2092.83219968</ele>
        <time>2020-10-18T12:03:23.009Z</time>
      </trkpt>
      <trkpt lat="45.3451" lon="6.69184">
        <ele>2091.51609984</ele>
        <time>2020-10-18T12:03:32.009Z</time>
      </trkpt>
      <trkpt lat="45.3452" lon="6.69187">
        <ele>2089.0341673998</ele>
        <time>2020-10-18T12:03:47.009Z</time>
      </trkpt>
      <trkpt lat="45.3453" lon="6.69192">
        <ele>2086.3486485032</ele>
        <time>2020-10-18T12:03:56.009Z</time>
      </trkpt>
      <trkpt lat="45.34538" lon="6.69201">
        <ele>2083.26439936</ele>
        <time>2020-10-18T12:04:04.009Z</time>
      </trkpt>
      <trkpt lat="45.34547" lon="6.6921">
        <ele>2080.84829952</ele>
        <time>2020-10-18T12:04:11.009Z</time>
      </trkpt>
      <trkpt lat="45.34557" lon="6.69216">
        <ele>2078.5804992</ele>
        <time>2020-10-18T12:04:18.009Z</time>
      </trkpt>
      <trkpt lat="45.34566" lon="6.69223">
        <ele>2074.0804992</ele>
        <time>2020-10-18T12:04:27.009Z</time>
      </trkpt>
      <trkpt lat="45.34571" lon="6.69236">
        <ele>2070.0804992</ele>
        <time>2020-10-18T12:04:35.009Z</time>
      </trkpt>
      <trkpt lat="45.34574" lon="6.69249">
        <ele>2068.03219968</ele>
        <time>2020-10-18T12:04:42.009Z</time>
      </trkpt>
      <trkpt lat="45.34576" lon="6.69265">
        <ele>2065.86439936</ele>
        <time>2020-10-18T12:04:50.009Z</time>
      </trkpt>
      <trkpt lat="45.34577" lon="6.6928">
        <ele>2062.83219968</ele>
        <time>2020-10-18T12:04:58.009Z</time>
      </trkpt>
      <trkpt lat="45.34579" lon="6.69294">
        <ele>2061.43219968</ele>
        <time>2020-10-18T12:05:05.009Z</time>
      </trkpt>
      <trkpt lat="45.34582" lon="6.69309">
        <ele>2059.63219968</ele>
        <time>2020-10-18T12:05:14.009Z</time>
      </trkpt>
      <trkpt lat="45.34581" lon="6.69324">
        <ele>2057.46439936</ele>
        <time>2020-10-18T12:05:21.009Z</time>
      </trkpt>
      <trkpt lat="45.34581" lon="6.69339">
        <ele>2054.63219968</ele>
        <time>2020-10-18T12:05:29.009Z</time>
      </trkpt>
      <trkpt lat="45.34585" lon="6.69352">
        <ele>2053.03219968</ele>
        <time>2020-10-18T12:05:37.009Z</time>
      </trkpt>
      <trkpt lat="45.34592" lon="6.69364">
        <ele>2052.21609984</ele>
        <time>2020-10-18T12:05:45.009Z</time>
      </trkpt>
      <trkpt lat="45.346" lon="6.69375">
        <ele>2051.03219968</ele>
        <time>2020-10-18T12:05:52.009Z</time>
      </trkpt>
      <trkpt lat="45.34608" lon="6.69386">
        <ele>2049.63219968</ele>
        <time>2020-10-18T12:05:59.009Z</time>
      </trkpt>
      <trkpt lat="45.34615" lon="6.69396">
        <ele>2048.43219968</ele>
        <time>2020-10-18T12:06:05.009Z</time>
      </trkpt>
      <trkpt lat="45.34619" lon="6.6941">
        <ele>2046.24829952</ele>
        <time>2020-10-18T12:06:13.009Z</time>
      </trkpt>
      <trkpt lat="45.34617" lon="6.69425">
        <ele>2044.63219968</ele>
        <time>2020-10-18T12:06:19.009Z</time>
      </trkpt>
      <trkpt lat="45.34616" lon="6.69441">
        <ele>2043.23219968</ele>
        <time>2020-10-18T12:06:26.009Z</time>
      </trkpt>
      <trkpt lat="45.34615" lon="6.69456">
        <ele>2040.66439936</ele>
        <time>2020-10-18T12:06:33.009Z</time>
      </trkpt>
      <trkpt lat="45.34622" lon="6.69463">
        <ele>2035</ele>
        <time>2020-10-18T12:07:24.009Z</time>
      </trkpt>
      <trkpt lat="45.3463" lon="6.69454">
        <ele>2030.03219968</ele>
        <time>2020-10-18T12:08:07.009Z</time>
      </trkpt>
      <trkpt lat="45.3464" lon="6.69458">
        <ele>2029.41609984</ele>
        <time>2020-10-18T12:08:43.009Z</time>
      </trkpt>
      <trkpt lat="45.34646" lon="6.69468">
        <ele>2026.66439936</ele>
        <time>2020-10-18T12:08:53.009Z</time>
      </trkpt>
      <trkpt lat="45.3464" lon="6.6948">
        <ele>2024.23219968</ele>
        <time>2020-10-18T12:09:01.009Z</time>
      </trkpt>
      <trkpt lat="45.34628" lon="6.69488">
        <ele>2022.91609984</ele>
        <time>2020-10-18T12:09:08.009Z</time>
      </trkpt>
      <trkpt lat="45.34619" lon="6.69486">
        <ele>2022.31609984</ele>
        <time>2020-10-18T12:09:14.009Z</time>
      </trkpt>
      <trkpt lat="45.34628" lon="6.69488">
        <ele>2019.24829952</ele>
        <time>2020-10-18T12:09:33.009Z</time>
      </trkpt>
      <trkpt lat="45.34639" lon="6.6949">
        <ele>2016.6325674653</ele>
        <time>2020-10-18T12:09:49.009Z</time>
      </trkpt>
      <trkpt lat="45.34648" lon="6.69498">
        <ele>2015.233967408</ele>
        <time>2020-10-18T12:09:56.009Z</time>
      </trkpt>
      <trkpt lat="45.34658" lon="6.69501">
        <ele>2014.1162161677</ele>
        <time>2020-10-18T12:10:06.009Z</time>
      </trkpt>
      <trkpt lat="45.34665" lon="6.69511">
        <ele>2013.41609984</ele>
        <time>2020-10-18T12:10:13.009Z</time>
      </trkpt>
      <trkpt lat="45.34658" lon="6.69521">
        <ele>2009.63219968</ele>
        <time>2020-10-18T12:10:34.009Z</time>
      </trkpt>
      <trkpt lat="45.34659" lon="6.69536">
        <ele>2008.51609984</ele>
        <time>2020-10-18T12:10:42.009Z</time>
      </trkpt>
      <trkpt lat="45.34662" lon="6.69551">
        <ele>2007.61609984</ele>
        <time>2020-10-18T12:10:51.009Z</time>
      </trkpt>
      <trkpt lat="45.34665" lon="6.69565">
        <ele>2006.91609984</ele>
        <time>2020-10-18T12:10:58.009Z</time>
      </trkpt>
      <trkpt lat="45.34671" lon="6.69576">
        <ele>2006.11609984</ele>
        <time>2020-10-18T12:11:06.009Z</time>
      </trkpt>
      <trkpt lat="45.34678" lon="6.69588">
        <ele>2004.83219968</ele>
        <time>2020-10-18T12:11:13.009Z</time>
      </trkpt>
      <trkpt lat="45.34684" lon="6.696">
        <ele>2003.43219968</ele>
        <time>2020-10-18T12:11:20.009Z</time>
      </trkpt>
      <trkpt lat="45.34695" lon="6.69598">
        <ele>2002.03219968</ele>
        <time>2020-10-18T12:11:27.009Z</time>
      </trkpt>
      <trkpt lat="45.34705" lon="6.69601">
        <ele>1998.83219968</ele>
        <time>2020-10-18T12:11:38.009Z</time>
      </trkpt>
      <trkpt lat="45.34716" lon="6.69605">
        <ele>1997</ele>
        <time>2020-10-18T12:11:51.009Z</time>
      </trkpt>
      <trkpt lat="45.34726" lon="6.69608">
        <ele>1996.63219968</ele>
        <time>2020-10-18T12:11:59.009Z</time>
      </trkpt>
      <trkpt lat="45.34737" lon="6.69606">
        <ele>1994.44829952</ele>
        <time>2020-10-18T12:12:09.009Z</time>
      </trkpt>
      <trkpt lat="45.34745" lon="6.69615">
        <ele>1991.23219968</ele>
        <time>2020-10-18T12:12:21.009Z</time>
      </trkpt>
      <trkpt lat="45.34755" lon="6.69616">
        <ele>1989.83219968</ele>
        <time>2020-10-18T12:12:28.009Z</time>
      </trkpt>
      <trkpt lat="45.34765" lon="6.69618">
        <ele>1988.63219968</ele>
        <time>2020-10-18T12:12:34.009Z</time>
      </trkpt>
      <trkpt lat="45.34776" lon="6.69619">
        <ele>1986.63219968</ele>
        <time>2020-10-18T12:12:44.009Z</time>
      </trkpt>
      <trkpt lat="45.34786" lon="6.69612">
        <ele>1985.11609984</ele>
        <time>2020-10-18T12:12:56.009Z</time>
      </trkpt>
      <trkpt lat="45.34794" lon="6.69603">
        <ele>1981.63219968</ele>
        <time>2020-10-18T12:13:09.009Z</time>
      </trkpt>
      <trkpt lat="45.34804" lon="6.69605">
        <ele>1978.54829952</ele>
        <time>2020-10-18T12:13:22.009Z</time>
      </trkpt>
      <trkpt lat="45.34815" lon="6.69606">
        <ele>1974.34829952</ele>
        <time>2020-10-18T12:13:36.009Z</time>
      </trkpt>
      <trkpt lat="45.34824" lon="6.69612">
        <ele>1972.03219968</ele>
        <time>2020-10-18T12:13:47.009Z</time>
      </trkpt>
      <trkpt lat="45.34815" lon="6.69621">
        <ele>1964.63219968</ele>
        <time>2020-10-18T12:14:04.009Z</time>
      </trkpt>
      <trkpt lat="45.34824" lon="6.69626">
        <ele>1959.23219968</ele>
        <time>2020-10-18T12:14:26.009Z</time>
      </trkpt>
      <trkpt lat="45.34835" lon="6.69636">
        <ele>1955.49659904</ele>
        <time>2020-10-18T12:14:33.009Z</time>
      </trkpt>
      <trkpt lat="45.34845" lon="6.69638">
        <ele>1954.29659904</ele>
        <time>2020-10-18T12:14:35.009Z</time>
      </trkpt>
      <trkpt lat="45.34856" lon="6.69643">
        <ele>1952.14829952</ele>
        <time>2020-10-18T12:14:40.009Z</time>
      </trkpt>
      <trkpt lat="45.34845" lon="6.69646">
        <ele>1946.74829952</ele>
        <time>2020-10-18T12:14:58.009Z</time>
      </trkpt>
      <trkpt lat="45.34834" lon="6.69647">
        <ele>1943.74829952</ele>
        <time>2020-10-18T12:15:08.009Z</time>
      </trkpt>
      <trkpt lat="45.3483" lon="6.69652">
        <ele>1941.04829952</ele>
        <time>2020-10-18T12:15:17.009Z</time>
      </trkpt>
      <trkpt lat="45.3484" lon="6.69659">
        <ele>1941</ele>
        <time>2020-10-18T12:15:32.009Z</time>
      </trkpt>
      <trkpt lat="45.34849" lon="6.69665">
        <ele>1941</ele>
        <time>2020-10-18T12:15:42.009Z</time>
      </trkpt>
      <trkpt lat="45.34839" lon="6.69668">
        <ele>1940.31609984</ele>
        <time>2020-10-18T12:15:54.009Z</time>
      </trkpt>
      <trkpt lat="45.34829" lon="6.69668">
        <ele>1940</ele>
        <time>2020-10-18T12:16:01.009Z</time>
      </trkpt>
      <trkpt lat="45.34819" lon="6.69669">
        <ele>1940</ele>
        <time>2020-10-18T12:16:10.009Z</time>
      </trkpt>
      <trkpt lat="45.34828" lon="6.69676">
        <ele>1940</ele>
        <time>2020-10-18T12:16:20.009Z</time>
      </trkpt>
      <trkpt lat="45.34836" lon="6.69684">
        <ele>1940</ele>
        <time>2020-10-18T12:16:26.009Z</time>
      </trkpt>
      <trkpt lat="45.34846" lon="6.6969">
        <ele>1940</ele>
        <time>2020-10-18T12:16:33.009Z</time>
      </trkpt>
      <trkpt lat="45.34856" lon="6.69699">
        <ele>1940.48390016</ele>
        <time>2020-10-18T12:16:42.009Z</time>
      </trkpt>
      <trkpt lat="45.34848" lon="6.69708">
        <ele>1940.71609984</ele>
        <time>2020-10-18T12:17:00.009Z</time>
      </trkpt>
      <trkpt lat="45.34838" lon="6.69715">
        <ele>1940.01609984</ele>
        <time>2020-10-18T12:17:07.009Z</time>
      </trkpt>
      <trkpt lat="45.34827" lon="6.69718">
        <ele>1939.41609984</ele>
        <time>2020-10-18T12:17:13.009Z</time>
      </trkpt>
      <trkpt lat="45.34815" lon="6.69718">
        <ele>1938.81609984</ele>
        <time>2020-10-18T12:17:19.009Z</time>
      </trkpt>
      <trkpt lat="45.34804" lon="6.69714">
        <ele>1938.11609984</ele>
        <time>2020-10-18T12:17:26.009Z</time>
      </trkpt>
      <trkpt lat="45.34794" lon="6.69711">
        <ele>1938</ele>
        <time>2020-10-18T12:17:36.009Z</time>
      </trkpt>
      <trkpt lat="45.34788" lon="6.6971">
        <ele>1936</ele>
        <time>2020-10-18T12:17:48.009Z</time>
      </trkpt>
      <trkpt lat="45.34797" lon="6.69717">
        <ele>1935.71609984</ele>
        <time>2020-10-18T12:18:00.009Z</time>
      </trkpt>
      <trkpt lat="45.34805" lon="6.69726">
        <ele>1935</ele>
        <time>2020-10-18T12:18:08.009Z</time>
      </trkpt>
      <trkpt lat="45.34813" lon="6.69735">
        <ele>1935</ele>
        <time>2020-10-18T12:18:16.009Z</time>
      </trkpt>
      <trkpt lat="45.34821" lon="6.69744">
        <ele>1935</ele>
        <time>2020-10-18T12:18:24.009Z</time>
      </trkpt>
      <trkpt lat="45.34827" lon="6.69757">
        <ele>1935</ele>
        <time>2020-10-18T12:18:31.009Z</time>
      </trkpt>
      <trkpt lat="45.3483" lon="6.69772">
        <ele>1935</ele>
        <time>2020-10-18T12:18:38.009Z</time>
      </trkpt>
      <trkpt lat="45.34834" lon="6.69786">
        <ele>1935</ele>
        <time>2020-10-18T12:18:45.009Z</time>
      </trkpt>
      <trkpt lat="45.34834" lon="6.69801">
        <ele>1935</ele>
        <time>2020-10-18T12:18:50.009Z</time>
      </trkpt>
      <trkpt lat="45.34835" lon="6.69816">
        <ele>1935</ele>
        <time>2020-10-18T12:18:57.009Z</time>
      </trkpt>
      <trkpt lat="45.34825" lon="6.69816">
        <ele>1936</ele>
        <time>2020-10-18T12:19:13.009Z</time>
      </trkpt>
      <trkpt lat="45.3482" lon="6.69803">
        <ele>1935.63219968</ele>
        <time>2020-10-18T12:19:19.009Z</time>
      </trkpt>
      <trkpt lat="45.34813" lon="6.69791">
        <ele>1934.23219968</ele>
        <time>2020-10-18T12:19:26.009Z</time>
      </trkpt>
      <trkpt lat="45.34803" lon="6.69791">
        <ele>1932.83219968</ele>
        <time>2020-10-18T12:19:33.009Z</time>
      </trkpt>
      <trkpt lat="45.34793" lon="6.69791">
        <ele>1931.44829952</ele>
        <time>2020-10-18T12:19:39.009Z</time>
      </trkpt>
      <trkpt lat="45.34783" lon="6.69787">
        <ele>1929.04829952</ele>
        <time>2020-10-18T12:19:47.009Z</time>
      </trkpt>
      <trkpt lat="45.34773" lon="6.69782">
        <ele>1926.94829952</ele>
        <time>2020-10-18T12:19:54.009Z</time>
      </trkpt>
      <trkpt lat="45.34762" lon="6.6978">
        <ele>1925.61609984</ele>
        <time>2020-10-18T12:20:01.009Z</time>
      </trkpt>
      <trkpt lat="45.34752" lon="6.69781">
        <ele>1925</ele>
        <time>2020-10-18T12:20:08.009Z</time>
      </trkpt>
      <trkpt lat="45.34742" lon="6.6979">
        <ele>1925</ele>
        <time>2020-10-18T12:20:15.009Z</time>
      </trkpt>
      <trkpt lat="45.34732" lon="6.69797">
        <ele>1925.48390016</ele>
        <time>2020-10-18T12:20:22.009Z</time>
      </trkpt>
      <trkpt lat="45.34725" lon="6.69807">
        <ele>1926.38390016</ele>
        <time>2020-10-18T12:20:31.009Z</time>
      </trkpt>
      <trkpt lat="45.34735" lon="6.69809">
        <ele>1931</ele>
        <time>2020-10-18T12:21:09.009Z</time>
      </trkpt>
      <trkpt lat="45.3474" lon="6.69821">
        <ele>1930.81609984</ele>
        <time>2020-10-18T12:21:19.009Z</time>
      </trkpt>
      <trkpt lat="45.34747" lon="6.69831">
        <ele>1930.21609984</ele>
        <time>2020-10-18T12:21:25.009Z</time>
      </trkpt>
      <trkpt lat="45.34756" lon="6.69837">
        <ele>1929.66439936</ele>
        <time>2020-10-18T12:21:28.009Z</time>
      </trkpt>
      <trkpt lat="45.34766" lon="6.69845">
        <ele>1928.06439936</ele>
        <time>2020-10-18T12:21:32.009Z</time>
      </trkpt>
      <trkpt lat="45.34774" lon="6.69854">
        <ele>1926.06439936</ele>
        <time>2020-10-18T12:21:37.009Z</time>
      </trkpt>
      <trkpt lat="45.3478" lon="6.69867">
        <ele>1924.83219968</ele>
        <time>2020-10-18T12:21:43.009Z</time>
      </trkpt>
      <trkpt lat="45.3478" lon="6.69883">
        <ele>1923.81609984</ele>
        <time>2020-10-18T12:21:49.009Z</time>
      </trkpt>
      <trkpt lat="45.34779" lon="6.69899">
        <ele>1923.11609984</ele>
        <time>2020-10-18T12:21:56.009Z</time>
      </trkpt>
      <trkpt lat="45.34778" lon="6.69914">
        <ele>1922.51609984</ele>
        <time>2020-10-18T12:22:02.009Z</time>
      </trkpt>
      <trkpt lat="45.3478" lon="6.69928">
        <ele>1922</ele>
        <time>2020-10-18T12:22:11.009Z</time>
      </trkpt>
      <trkpt lat="45.34779" lon="6.69943">
        <ele>1922</ele>
        <time>2020-10-18T12:22:17.009Z</time>
      </trkpt>
      <trkpt lat="45.34781" lon="6.69957">
        <ele>1921.11609984</ele>
        <time>2020-10-18T12:22:26.009Z</time>
      </trkpt>
      <trkpt lat="45.3479" lon="6.69965">
        <ele>1921.78390016</ele>
        <time>2020-10-18T12:22:35.009Z</time>
      </trkpt>
      <trkpt lat="45.34798" lon="6.69973">
        <ele>1922.98390016</ele>
        <time>2020-10-18T12:22:47.009Z</time>
      </trkpt>
      <trkpt lat="45.34809" lon="6.69979">
        <ele>1923.68390016</ele>
        <time>2020-10-18T12:22:54.009Z</time>
      </trkpt>
      <trkpt lat="45.34819" lon="6.69984">
        <ele>1924</ele>
        <time>2020-10-18T12:23:00.009Z</time>
      </trkpt>
      <trkpt lat="45.34829" lon="6.69991">
        <ele>1924</ele>
        <time>2020-10-18T12:23:07.009Z</time>
      </trkpt>
      <trkpt lat="45.34837" lon="6.7">
        <ele>1924.98390016</ele>
        <time>2020-10-18T12:23:17.009Z</time>
      </trkpt>
      <trkpt lat="45.34845" lon="6.69996">
        <ele>1926</ele>
        <time>2020-10-18T12:23:31.009Z</time>
      </trkpt>
      <trkpt lat="45.34844" lon="6.69985">
        <ele>1926.18390016</ele>
        <time>2020-10-18T12:23:39.009Z</time>
      </trkpt>
      <trkpt lat="45.34844" lon="6.69973">
        <ele>1927.38390016</ele>
        <time>2020-10-18T12:23:51.009Z</time>
      </trkpt>
      <trkpt lat="45.3484" lon="6.69962">
        <ele>1928.08390016</ele>
        <time>2020-10-18T12:23:58.009Z</time>
      </trkpt>
      <trkpt lat="45.34839" lon="6.6995">
        <ele>1929</ele>
        <time>2020-10-18T12:24:11.009Z</time>
      </trkpt>
      <trkpt lat="45.3484" lon="6.69938">
        <ele>1929.28390016</ele>
        <time>2020-10-18T12:24:20.009Z</time>
      </trkpt>
      <trkpt lat="45.34844" lon="6.69926">
        <ele>1930.38390016</ele>
        <time>2020-10-18T12:24:31.009Z</time>
      </trkpt>
      <trkpt lat="45.34852" lon="6.69929">
        <ele>1932</ele>
        <time>2020-10-18T12:24:52.009Z</time>
      </trkpt>
      <trkpt lat="45.34855" lon="6.69939">
        <ele>1932</ele>
        <time>2020-10-18T12:24:59.009Z</time>
      </trkpt>
      <trkpt lat="45.34853" lon="6.69948">
        <ele>1932</ele>
        <time>2020-10-18T12:25:05.009Z</time>
      </trkpt>
      <trkpt lat="45.34855" lon="6.69959">
        <ele>1932</ele>
        <time>2020-10-18T12:25:11.009Z</time>
      </trkpt>
      <trkpt lat="45.34858" lon="6.6997">
        <ele>1932</ele>
        <time>2020-10-18T12:25:16.009Z</time>
      </trkpt>
      <trkpt lat="45.34862" lon="6.69982">
        <ele>1932</ele>
        <time>2020-10-18T12:25:21.009Z</time>
      </trkpt>
      <trkpt lat="45.34868" lon="6.69994">
        <ele>1932</ele>
        <time>2020-10-18T12:25:27.009Z</time>
      </trkpt>
      <trkpt lat="45.34876" lon="6.70003">
        <ele>1929.72879872</ele>
        <time>2020-10-18T12:25:30.009Z</time>
      </trkpt>
      <trkpt lat="45.34884" lon="6.70014">
        <ele>1926.52879872</ele>
        <time>2020-10-18T12:25:34.009Z</time>
      </trkpt>
      <trkpt lat="45.34894" lon="6.70024">
        <ele>1923.5804992</ele>
        <time>2020-10-18T12:25:38.009Z</time>
      </trkpt>
      <trkpt lat="45.34896" lon="6.70038">
        <ele>1920.0804992</ele>
        <time>2020-10-18T12:25:45.009Z</time>
      </trkpt>
      <trkpt lat="45.34904" lon="6.70052">
        <ele>1917.54829952</ele>
        <time>2020-10-18T12:25:52.009Z</time>
      </trkpt>
      <trkpt lat="45.34905" lon="6.70067">
        <ele>1915.81609984</ele>
        <time>2020-10-18T12:25:59.009Z</time>
      </trkpt>
      <trkpt lat="45.34907" lon="6.70081">
        <ele>1915.11609984</ele>
        <time>2020-10-18T12:26:06.009Z</time>
      </trkpt>
      <trkpt lat="45.34902" lon="6.70067">
        <ele>1911.43219968</ele>
        <time>2020-10-18T12:26:25.009Z</time>
      </trkpt>
      <trkpt lat="45.34892" lon="6.70061">
        <ele>1908.0804992</ele>
        <time>2020-10-18T12:26:33.009Z</time>
      </trkpt>
      <trkpt lat="45.34881" lon="6.70062">
        <ele>1902.49659904</ele>
        <time>2020-10-18T12:26:43.009Z</time>
      </trkpt>
      <trkpt lat="45.34881" lon="6.70078">
        <ele>1898.83219968</ele>
        <time>2020-10-18T12:26:53.009Z</time>
      </trkpt>
      <trkpt lat="45.34883" lon="6.70093">
        <ele>1896.46439936</ele>
        <time>2020-10-18T12:27:01.009Z</time>
      </trkpt>
      <trkpt lat="45.34881" lon="6.70108">
        <ele>1893.63219968</ele>
        <time>2020-10-18T12:27:09.009Z</time>
      </trkpt>
      <trkpt lat="45.34871" lon="6.70104">
        <ele>1892.48390016</ele>
        <time>2020-10-18T12:27:22.009Z</time>
      </trkpt>
      <trkpt lat="45.34862" lon="6.70097">
        <ele>1893</ele>
        <time>2020-10-18T12:27:35.009Z</time>
      </trkpt>
      <trkpt lat="45.34863" lon="6.70111">
        <ele>1890.94829952</ele>
        <time>2020-10-18T12:27:44.009Z</time>
      </trkpt>
      <trkpt lat="45.34859" lon="6.70125">
        <ele>1887.74829952</ele>
        <time>2020-10-18T12:27:58.009Z</time>
      </trkpt>
      <trkpt lat="45.34851" lon="6.70135">
        <ele>1884.83219968</ele>
        <time>2020-10-18T12:28:08.009Z</time>
      </trkpt>
      <trkpt lat="45.34846" lon="6.70147">
        <ele>1883.23219968</ele>
        <time>2020-10-18T12:28:16.009Z</time>
      </trkpt>
      <trkpt lat="45.34846" lon="6.70161">
        <ele>1883</ele>
        <time>2020-10-18T12:28:23.009Z</time>
      </trkpt>
      <trkpt lat="45.34849" lon="6.70176">
        <ele>1882.4165167566</ele>
        <time>2020-10-18T12:28:33.009Z</time>
      </trkpt>
      <trkpt lat="45.34846" lon="6.7019">
        <ele>1881.21609984</ele>
        <time>2020-10-18T12:28:45.009Z</time>
      </trkpt>
      <trkpt lat="45.34837" lon="6.70196">
        <ele>1880.21609984</ele>
        <time>2020-10-18T12:28:55.009Z</time>
      </trkpt>
      <trkpt lat="45.34842" lon="6.7021">
        <ele>1879</ele>
        <time>2020-10-18T12:29:09.009Z</time>
      </trkpt>
      <trkpt lat="45.34846" lon="6.70222">
        <ele>1879</ele>
        <time>2020-10-18T12:29:17.009Z</time>
      </trkpt>
      <trkpt lat="45.34842" lon="6.70236">
        <ele>1876.83219968</ele>
        <time>2020-10-18T12:29:28.009Z</time>
      </trkpt>
      <trkpt lat="45.34832" lon="6.7024">
        <ele>1875.03219968</ele>
        <time>2020-10-18T12:29:37.009Z</time>
      </trkpt>
      <trkpt lat="45.34823" lon="6.7025">
        <ele>1874.11609984</ele>
        <time>2020-10-18T12:29:46.009Z</time>
      </trkpt>
      <trkpt lat="45.34821" lon="6.70265">
        <ele>1872</ele>
        <time>2020-10-18T12:29:58.009Z</time>
      </trkpt>
      <trkpt lat="45.34821" lon="6.70281">
        <ele>1872</ele>
        <time>2020-10-18T12:30:06.009Z</time>
      </trkpt>
      <trkpt lat="45.34824" lon="6.70294">
        <ele>1870.63219968</ele>
        <time>2020-10-18T12:30:14.009Z</time>
      </trkpt>
      <trkpt lat="45.34822" lon="6.70308">
        <ele>1870.43219968</ele>
        <time>2020-10-18T12:30:30.009Z</time>
      </trkpt>
      <trkpt lat="45.34813" lon="6.70314">
        <ele>1869</ele>
        <time>2020-10-18T12:30:39.009Z</time>
      </trkpt>
      <trkpt lat="45.34803" lon="6.70307">
        <ele>1868.74829952</ele>
        <time>2020-10-18T12:30:48.009Z</time>
      </trkpt>
      <trkpt lat="45.34798" lon="6.70303">
        <ele>1866.04829952</ele>
        <time>2020-10-18T12:30:57.009Z</time>
      </trkpt>
      <trkpt lat="45.34788" lon="6.70298">
        <ele>1865.31609984</ele>
        <time>2020-10-18T12:31:04.009Z</time>
      </trkpt>
      <trkpt lat="45.34778" lon="6.70292">
        <ele>1865</ele>
        <time>2020-10-18T12:31:11.009Z</time>
      </trkpt>
      <trkpt lat="45.34768" lon="6.70288">
        <ele>1865.18390016</ele>
        <time>2020-10-18T12:31:19.009Z</time>
      </trkpt>
      <trkpt lat="45.34759" lon="6.7028">
        <ele>1865.98390016</ele>
        <time>2020-10-18T12:31:27.009Z</time>
      </trkpt>
      <trkpt lat="45.34753" lon="6.70267">
        <ele>1865.31609984</ele>
        <time>2020-10-18T12:31:34.009Z</time>
      </trkpt>
      <trkpt lat="45.34745" lon="6.70257">
        <ele>1865.48390016</ele>
        <time>2020-10-18T12:31:42.009Z</time>
      </trkpt>
      <trkpt lat="45.34737" lon="6.70247">
        <ele>1866.36780032</ele>
        <time>2020-10-18T12:31:49.009Z</time>
      </trkpt>
      <trkpt lat="45.34728" lon="6.70239">
        <ele>1867.76780032</ele>
        <time>2020-10-18T12:31:56.009Z</time>
      </trkpt>
      <trkpt lat="45.3472" lon="6.70229">
        <ele>1868.58390016</ele>
        <time>2020-10-18T12:32:03.009Z</time>
      </trkpt>
      <trkpt lat="45.34711" lon="6.7022">
        <ele>1870.45170048</ele>
        <time>2020-10-18T12:32:12.009Z</time>
      </trkpt>
      <trkpt lat="45.34704" lon="6.70209">
        <ele>1872.18390016</ele>
        <time>2020-10-18T12:32:19.009Z</time>
      </trkpt>
      <trkpt lat="45.34693" lon="6.70204">
        <ele>1872.68390016</ele>
        <time>2020-10-18T12:32:24.009Z</time>
      </trkpt>
      <trkpt lat="45.34683" lon="6.70202">
        <ele>1871.46439936</ele>
        <time>2020-10-18T12:32:31.009Z</time>
      </trkpt>
      <trkpt lat="45.34672" lon="6.70201">
        <ele>1868.74829952</ele>
        <time>2020-10-18T12:32:38.009Z</time>
      </trkpt>
      <trkpt lat="45.34661" lon="6.70197">
        <ele>1866.04829952</ele>
        <time>2020-10-18T12:32:47.009Z</time>
      </trkpt>
      <trkpt lat="45.34654" lon="6.70186">
        <ele>1868</ele>
        <time>2020-10-18T12:32:55.009Z</time>
      </trkpt>
    </trkseg>
  </trk>
</gpx>